Provisional Data: Apalachin Creek near Apalachin, NY


Please select a monitoring station.
Please select start date.
Please select start date.

Toggle Unit: C/F Toggle Unit: C/F
Sample Time Temperature (C) Temperature (F) Specific Conductivity (mS/cm) pH   Turbidity (NTU+) DO (mg/L)
3/10/2021 1:30:00 PM 4.74 40.532 0.148 7.23 28.45 13.49
3/10/2021 1:45:00 PM 4.93 40.874 0.144 7.23 24.16 13.43
3/10/2021 2:00:00 PM 5.1 41.18 0.145 7.2 15.18 13.36
3/10/2021 2:15:00 PM 5.24 41.432 0.145 7.16 16.42 13.29
3/10/2021 2:30:00 PM 5.36 41.648 0.146 7.16 17.64 13.22
3/10/2021 2:45:00 PM 5.46 41.828 0.146 7.13 16.37 13.16
3/10/2021 3:00:00 PM 5.51 41.918 0.146 7.12 16.89 13.12
3/10/2021 3:15:00 PM 5.53 41.954 0.147 7.12 19.9 13.09
3/10/2021 3:30:00 PM 5.53 41.954 0.148 7.12 23.62 13.04
3/10/2021 3:45:00 PM 5.54 41.972 0.148 7.05 43.64 12.97
3/10/2021 4:00:00 PM 5.48 41.864 0.147 7.05 67.66 12.87
3/10/2021 4:15:00 PM 5.37 41.666 0.146 7.04 59.58 12.77
3/10/2021 4:30:00 PM 5.18 41.324 0.144 6.98 161.28 12.72
3/10/2021 4:45:00 PM 4.95 40.91 0.141 6.92 140.46 12.72
3/10/2021 5:00:00 PM 4.77 40.586 0.138 6.97 136.85 12.74
3/10/2021 5:15:00 PM 4.62 40.316 0.135 6.96 176.02 12.75
3/10/2021 5:30:00 PM 4.45 40.01 0.132 6.89 158.73 12.79
3/10/2021 5:45:00 PM 4.29 39.722 0.129 6.88 151.98 12.83
3/10/2021 6:00:00 PM 4.11 39.398 0.126 6.9 150.24 12.89
3/10/2021 6:15:00 PM 3.92 39.056 0.124 6.87 136.21 12.96
3/10/2021 6:30:00 PM 3.73 38.714 0.122 6.85 180.3 13.03
3/10/2021 6:45:00 PM 3.55 38.39 0.119 6.81 201.78 13.09
3/10/2021 7:00:00 PM 3.41 38.138 0.117 6.85 174.63 13.14
3/10/2021 7:15:00 PM 3.28 37.904 0.116 6.83 213.35 13.18
3/10/2021 7:30:00 PM 3.18 37.724 0.115 6.8 198.88 13.21
3/10/2021 7:45:00 PM 3.09 37.562 0.114 6.8 180.38 13.24
3/10/2021 8:00:00 PM 3.01 37.418 0.112 6.75 168.26 13.26
3/10/2021 8:15:00 PM 2.92 37.256 0.112 6.78 260.03 13.28
3/10/2021 8:30:00 PM 2.84 37.112 0.111 6.73 220.5 13.31
3/10/2021 8:45:00 PM 2.77 36.986 0.111 6.76 186.2 13.33
3/10/2021 9:00:00 PM 2.69 36.842 0.11 6.79 181.83 13.36
3/10/2021 9:15:00 PM 2.61 36.698 0.11 6.74 188.71 13.39
3/10/2021 9:30:00 PM 2.53 36.554 0.109 6.73 191.63 13.41
3/10/2021 9:45:00 PM 2.46 36.428 0.109 6.78 101.74 13.43
3/10/2021 10:00:00 PM 2.38 36.284 0.071 6.77 109.04 13.47
3/10/2021 10:15:00 PM 2.3 36.14 0.107 6.69 183.94 13.49
3/10/2021 10:30:00 PM 2.23 36.014 0.107 6.75 110.91 13.51
3/10/2021 10:45:00 PM 2.17 35.906 0.107 6.74 144.9 13.53
3/10/2021 11:00:00 PM 2.1 35.78 0.106 6.69 144.88 13.56
3/10/2021 11:15:00 PM 2.05 35.69 0.106 6.77 130.61 13.58
3/10/2021 11:30:00 PM 2 35.6 0.106 6.77 178.11 13.6
3/10/2021 11:45:00 PM 1.96 35.528 0.106 6.73 200.13 13.62
3/11/2021 12:00:00 AM 1.93 35.474 0.106 6.74 103.65 13.64
3/11/2021 12:15:00 AM 1.89 35.402 0.106 6.75 86.39 13.65
3/11/2021 12:30:00 AM 1.86 35.348 0.106 6.76 93.36 13.66
3/11/2021 12:45:00 AM 1.83 35.294 0.106 6.72 85.95 13.67
3/11/2021 1:00:00 AM 1.8 35.24 0.106 6.7 85.24 13.68
3/11/2021 1:15:00 AM 1.78 35.204 0.106 6.78 125.5 13.7
3/11/2021 1:30:00 AM 1.76 35.168 0.106 6.79 74.64 13.71
3/11/2021 1:45:00 AM 1.74 35.132 0.106 6.75 82.07 13.71
3/11/2021 2:00:00 AM 1.73 35.114 0.106 6.76 67.97 13.71
3/11/2021 2:15:00 AM 1.73 35.114 0.106 6.79 64.99 13.71
3/11/2021 2:30:00 AM 1.72 35.096 0.106 6.78 90.6 13.72
3/11/2021 2:45:00 AM 1.71 35.078 0.106 6.73 73.06 13.72
3/11/2021 3:00:00 AM 1.71 35.078 0.106 6.75 91.44 13.71
3/11/2021 3:15:00 AM 1.71 35.078 0.106 6.75 51.66 13.71
3/11/2021 3:30:00 AM 1.72 35.096 0.106 6.78 56.71 13.71
3/11/2021 3:45:00 AM 1.73 35.114 0.106 6.78 51.21 13.7
3/11/2021 4:00:00 AM 1.74 35.132 0.106 6.79 38.99 13.7
3/11/2021 4:15:00 AM 1.74 35.132 0.107 6.82 59.94 13.7
3/11/2021 4:30:00 AM 1.75 35.15 0.107 6.76 58.86 13.69
3/11/2021 4:45:00 AM 1.77 35.186 0.107 6.81 48.97 13.68
3/11/2021 5:00:00 AM 1.78 35.204 0.107 6.75 67.65 13.68
3/11/2021 5:15:00 AM 1.79 35.222 0.107 6.78 92.49 13.67
3/11/2021 5:30:00 AM 1.8 35.24 0.107 6.8 84.61 13.66
3/11/2021 5:45:00 AM 1.82 35.276 0.107 6.79 69.75 13.66
3/11/2021 6:00:00 AM 1.83 35.294 0.107 6.77 51.19 13.65
3/11/2021 6:15:00 AM 1.84 35.312 0.107 6.75 43.07 13.65
3/11/2021 6:30:00 AM 1.85 35.33 0.107 6.77 38.88 13.64
3/11/2021 6:45:00 AM 1.87 35.366 0.107 6.82 45.7 13.63
3/11/2021 7:00:00 AM 1.89 35.402 0.107 6.78 38.9 13.63
3/11/2021 7:15:00 AM 1.93 35.474 0.107 6.82 48.68 13.64
3/11/2021 7:30:00 AM 1.97 35.546 0.107 6.79 37.49 13.65
3/11/2021 7:45:00 AM 2 35.6 0.107 6.8 36.73 13.65
3/11/2021 8:00:00 AM 2.03 35.654 0.107 6.81 56.1 13.65
3/11/2021 8:15:00 AM 2.11 35.798 0.107 6.82 30.54 13.65
3/11/2021 8:30:00 AM 2.18 35.924 0.107 6.82 38.93 13.66
3/11/2021 8:45:00 AM 2.26 36.068 0.107 6.86 46.3 13.65
3/11/2021 9:00:00 AM 2.38 36.284 0.107 6.86 74.33 13.64
3/11/2021 9:15:00 AM 2.49 36.482 0.107 6.86 36.63 13.62
3/11/2021 9:30:00 AM 2.62 36.716 0.106 6.87 52.42 13.61
3/11/2021 9:45:00 AM 2.79 37.022 0.106 6.9 37.71 13.58
3/11/2021 10:00:00 AM 2.96 37.328 0.106 6.91 64.17 13.55
3/11/2021 10:15:00 AM 3.14 37.652 0.106 6.92 48.19 13.51
3/11/2021 10:30:00 AM 3.31 37.958 0.106 6.95 33.16 13.47
3/11/2021 10:45:00 AM 3.53 38.354 0.105 6.91 46.07 13.41
3/11/2021 11:00:00 AM 3.76 38.768 0.105 6.96 41.85 13.35
3/11/2021 11:15:00 AM 3.92 39.056 0.105 6.96 45.43 13.29
3/11/2021 11:30:00 AM 4.11 39.398 0.104 6.93 46.33 13.22
3/11/2021 11:45:00 AM 4.33 39.794 0.104 6.96 50.54 13.17
3/11/2021 12:00:00 PM 4.55 40.19 0.104 6.94 62.7 13.1
3/11/2021 12:15:00 PM 4.61 40.298 0.104 6.96 55.41 13.02
3/11/2021 12:30:00 PM 4.73 40.514 0.103 6.97 74.54 12.95
3/11/2021 12:45:00 PM 4.94 40.892 0.103 6.93 84.35 12.88
3/11/2021 1:00:00 PM 5.23 41.414 0.102 6.89 166.13 12.79
3/11/2021 1:15:00 PM 5.24 41.432 0.1 6.92 245.98 12.72
3/11/2021 1:30:00 PM 5.18 41.324 0.069 6.89 137.87 12.7
3/11/2021 1:45:00 PM 5.08 41.144 0.059 6.9 351.33 12.7
3/11/2021 2:00:00 PM 5.03 41.054 0.054 6.95 479.01 12.71
3/11/2021 2:15:00 PM 4.93 40.874 0.049 6.94 434.89 12.73
3/11/2021 2:30:00 PM 4.78 40.604 0.047 6.93 489.49 12.75
3/11/2021 2:45:00 PM 4.67 40.406 0.045 6.83 600.05 12.77
3/11/2021 3:00:00 PM 4.57 40.226 0.086 6.86 629.57 12.79
3/11/2021 3:15:00 PM 4.45 40.01 0.071 6.83 70.84 12.82
3/11/2021 3:30:00 PM 4.35 39.83 0.062 6.86 460.36 12.85
3/11/2021 3:45:00 PM 4.29 39.722 0.056 6.84 578.53 12.87
3/11/2021 4:00:00 PM 4.24 39.632 0.053 6.84 492.71 12.88
3/11/2021 4:15:00 PM 4.17 39.506 0.049 6.8 608.83 12.91
3/11/2021 4:30:00 PM 4.13 39.434 0.044 6.76 593.98 12.92
3/11/2021 4:45:00 PM 4.07 39.326 0.041 6.69 595.37 12.93
3/11/2021 5:00:00 PM 4 39.2 0.056 6.75 614.07 12.96
3/11/2021 5:15:00 PM 3.95 39.11 0.057 6.64 351.24 12.97
3/11/2021 5:30:00 PM 3.9 39.02 0.054 6.7 425.26 12.99
3/11/2021 5:45:00 PM 3.85 38.93 0.052 6.7 413.06 13
3/11/2021 6:00:00 PM 3.79 38.822 0.048 6.7 481.83 13.02
3/11/2021 6:15:00 PM 3.76 38.768 0.046 6.64 469.88 13.03
3/11/2021 6:30:00 PM 3.73 38.714 0.043 6.64 411.94 13.03
3/11/2021 6:45:00 PM 3.72 38.696 0.042 6.64 468.14 13.04
3/11/2021 7:00:00 PM 3.7 38.66 0.042 6.63 452.41 13.03
3/11/2021 7:15:00 PM 3.67 38.606 0.069 6.97 407.36 13.04
3/11/2021 7:30:00 PM 3.63 38.534 0.049 6.8 346.36 13.04
3/11/2021 7:45:00 PM 3.59 38.462 0.044 6.8 405.18 13.06
3/11/2021 8:00:00 PM 3.56 38.408 0.039 6.71 461.59 13.06
3/11/2021 8:15:00 PM 3.54 38.372 0.04 6.89 447.42 13.06
3/11/2021 8:30:00 PM 3.52 38.336 0.051 6.76 247.26 13.07
3/11/2021 8:45:00 PM 3.5 38.3 0.045 6.74 349.33 13.08
3/11/2021 9:00:00 PM 3.46 38.228 0.04 6.76 357.48 13.09
3/11/2021 9:15:00 PM 3.44 38.192 0.038 6.92 325.51 13.1
3/11/2021 9:30:00 PM 3.42 38.156 0.051 6.82 269.28 13.11
3/11/2021 9:45:00 PM 3.38 38.084 0.042 6.81 313.13 13.12
3/11/2021 10:00:00 PM 3.35 38.03 0.046 6.9 335 13.13
3/11/2021 10:15:00 PM 3.32 37.976 0.053 6.79 173.23 13.13
3/11/2021 10:30:00 PM 3.32 37.976 0.049 6.8 248.53 13.13
3/11/2021 10:45:00 PM 3.32 37.976 0.043 6.73 252.42 13.13
3/11/2021 11:00:00 PM 3.31 37.958 0.051 6.77 196.56 13.13
3/11/2021 11:15:00 PM 3.3 37.94 0.069 6.75 256.45 13.14
3/11/2021 11:30:00 PM 3.3 37.94 0.069 6.79 227.47 13.13
3/11/2021 11:45:00 PM 3.29 37.922 0.069 6.73 224.98 13.13
3/12/2021 12:00:00 AM 3.29 37.922 0.069 6.82 275.49 13.13
3/12/2021 12:15:00 AM 3.28 37.904 0.07 6.69 239.23 13.13
3/12/2021 12:30:00 AM 3.28 37.904 0.07 6.68 241.13 13.13
3/12/2021 12:45:00 AM 3.29 37.922 0.07 6.69 228.85 13.13
3/12/2021 1:00:00 AM 3.3 37.94 0.07 6.66 220.33 13.12
3/12/2021 1:15:00 AM 3.32 37.976 0.07 6.72 179.45 13.12
3/12/2021 1:30:00 AM 3.35 38.03 0.07 6.64 175.64 13.12
3/12/2021 1:45:00 AM 3.35 38.03 0.071 6.66 151.77 13.11
3/12/2021 2:00:00 AM 3.36 38.048 0.071 6.69 195.07 13.11
3/12/2021 2:15:00 AM 3.36 38.048 0.071 6.65 195.69 13.11
3/12/2021 2:30:00 AM 3.36 38.048 0.071 6.66 200.77 13.11
3/12/2021 2:45:00 AM 3.36 38.048 0.071 6.65 188.81 13.12
3/12/2021 3:00:00 AM 3.35 38.03 0.071 6.68 170.9 13.12
3/12/2021 3:15:00 AM 3.35 38.03 0.072 6.68 182.22 13.12
3/12/2021 3:30:00 AM 3.35 38.03 0.072 6.68 206.46 13.12
3/12/2021 3:45:00 AM 3.34 38.012 0.072 6.69 147.47 13.13
3/12/2021 4:00:00 AM 3.33 37.994 0.072 6.68 171.67 13.13
3/12/2021 4:15:00 AM 3.32 37.976 0.072 6.69 149.24 13.14
3/12/2021 4:30:00 AM 3.3 37.94 0.038 6.79 141.44 13.14
3/12/2021 4:45:00 AM 3.29 37.922 0.072 6.61 172.21 13.15
3/12/2021 5:00:00 AM 3.26 37.868 0.072 6.7 175.11 13.16
3/12/2021 5:15:00 AM 3.22 37.796 0.073 6.64 145.2 13.16
3/12/2021 5:30:00 AM 3.19 37.742 0.073 6.65 158.77 13.17
3/12/2021 5:45:00 AM 3.15 37.67 0.073 6.68 153.16 13.18
3/12/2021 6:00:00 AM 3.11 37.598 0.073 6.69 122.73 13.19
3/12/2021 6:15:00 AM 3.06 37.508 0.073 6.66 129.41 13.2
3/12/2021 6:30:00 AM 3.02 37.436 0.073 6.7 156.73 13.22
3/12/2021 6:45:00 AM 2.98 37.364 0.074 6.67 113.07 13.23
3/12/2021 7:00:00 AM 2.94 37.292 0.074 6.76 109.84 13.25
3/12/2021 7:15:00 AM 2.91 37.238 0.074 6.69 144.61 13.26
3/12/2021 7:30:00 AM 2.89 37.202 0.074 6.71 104.19 13.28
3/12/2021 7:45:00 AM 2.88 37.184 0.074 6.68 117.04 13.29
3/12/2021 8:00:00 AM 2.88 37.184 0.075 6.68 94.84 13.3
3/12/2021 8:15:00 AM 2.89 37.202 0.075 6.7 120.92 13.3
3/12/2021 8:30:00 AM 2.92 37.256 0.075 6.7 108.61 13.31
3/12/2021 8:45:00 AM 2.96 37.328 0.075 6.72 113.06 13.3
3/12/2021 9:00:00 AM 3.03 37.454 0.076 6.72 105.85 13.3
3/12/2021 9:15:00 AM 3.11 37.598 0.076 6.74 153.58 13.29
3/12/2021 9:30:00 AM 3.21 37.778 0.05 6.78 90.66 13.26
3/12/2021 9:45:00 AM 3.33 37.994 0.076 6.8 143.45 13.24
3/12/2021 10:00:00 AM 3.47 38.246 0.055 6.82 124.83 13.2
3/12/2021 10:15:00 AM 3.62 38.516 0.077 6.8 105.05 13.17
3/12/2021 10:30:00 AM 3.78 38.804 0.077 6.82 108.18 13.12
3/12/2021 10:45:00 AM 3.95 39.11 0.078 6.85 116.77 13.07
3/12/2021 11:00:00 AM 4.13 39.434 0.078 6.86 124.79 13.02
3/12/2021 11:15:00 AM 4.31 39.758 0.078 6.85 71.55 12.97
3/12/2021 11:30:00 AM 4.49 40.082 0.078 6.84 96.32 12.91
3/12/2021 11:45:00 AM 4.68 40.424 0.078 6.88 95.89 12.85
3/12/2021 12:00:00 PM 4.87 40.766 0.079 6.89 110.23 12.79
3/12/2021 12:15:00 PM 5.05 41.09 0.079 6.89 106.89 12.73
3/12/2021 12:30:00 PM 5.22 41.396 0.079 6.88 87.5 12.67
3/12/2021 12:45:00 PM 5.4 41.72 0.079 6.89 84.18 12.61
3/12/2021 1:00:00 PM 5.55 41.99 0.079 6.91 81.61 12.55
3/12/2021 1:15:00 PM 5.7 42.26 0.08 6.9 107.24 12.5
3/12/2021 1:30:00 PM 5.84 42.512 0.08 6.91 72.61 12.44
3/12/2021 1:45:00 PM 5.96 42.728 0.08 6.95 85.64 12.4
3/12/2021 2:00:00 PM 6.06 42.908 0.08 6.9 88.98 12.36
3/12/2021 2:15:00 PM 6.15 43.07 0.08 6.88 102.83 12.32
3/12/2021 2:30:00 PM 6.23 43.214 0.08 6.9 84.92 12.28
3/12/2021 2:45:00 PM 6.27 43.286 0.08 6.9 85.24 12.25
3/12/2021 3:00:00 PM 6.3 43.34 0.08 6.87 91.63 12.22
3/12/2021 3:15:00 PM 6.3 43.34 0.08 6.88 87.37 12.21
3/12/2021 3:30:00 PM 6.29 43.322 0.079 6.88 124.66 12.19
3/12/2021 3:45:00 PM 6.25 43.25 0.079 6.89 86.54 12.19
3/12/2021 4:00:00 PM 6.21 43.178 0.079 6.86 87.75 12.19
3/12/2021 4:15:00 PM 6.14 43.052 0.052 6.92 131.8 12.19
3/12/2021 4:30:00 PM 6.05 42.89 0.079 6.91 120.13 12.2
3/12/2021 4:45:00 PM 5.95 42.71 0.078 6.87 120.83 12.21
3/12/2021 5:00:00 PM 5.85 42.53 0.078 6.85 107.37 12.23
3/12/2021 5:15:00 PM 5.74 42.332 0.078 6.83 112.48 12.25
3/12/2021 5:30:00 PM 5.62 42.116 0.077 6.82 114.44 12.28
3/12/2021 5:45:00 PM 5.49 41.882 0.077 6.82 139.36 12.31
3/12/2021 6:00:00 PM 5.37 41.666 0.077 6.8 90.04 12.34
3/12/2021 6:15:00 PM 5.24 41.432 0.077 6.81 111.17 12.38
3/12/2021 6:30:00 PM 5.11 41.198 0.076 6.81 113.86 12.41
3/12/2021 6:45:00 PM 4.99 40.982 0.076 6.8 99.68 12.45
3/12/2021 7:00:00 PM 4.87 40.766 0.076 6.81 98.84 12.5
3/12/2021 7:15:00 PM 4.76 40.568 0.076 6.78 91.15 12.53
3/12/2021 7:30:00 PM 4.65 40.37 0.076 6.81 79.62 12.57
3/12/2021 7:45:00 PM 4.57 40.226 0.076 6.78 89.59 12.61
3/12/2021 8:00:00 PM 4.48 40.064 0.076 6.81 98.98 12.64
3/12/2021 8:15:00 PM 4.4 39.92 0.076 6.8 64.27 12.67
3/12/2021 8:30:00 PM 4.32 39.776 0.076 6.79 81.32 12.7
3/12/2021 8:45:00 PM 4.25 39.65 0.076 6.79 97.96 12.73
3/12/2021 9:00:00 PM 4.16 39.488 0.076 6.8 74.73 12.76
3/12/2021 9:15:00 PM 4.07 39.326 0.076 6.8 85.71 12.79
3/12/2021 9:30:00 PM 3.98 39.164 0.076 6.83 95.01 12.82
3/12/2021 9:45:00 PM 3.89 39.002 0.077 6.8 69.75 12.85
3/12/2021 10:00:00 PM 3.82 38.876 0.077 6.82 103.54 12.88
3/12/2021 10:15:00 PM 3.74 38.732 0.077 6.81 68.48 12.9
3/12/2021 10:30:00 PM 3.65 38.57 0.077 6.84 78.1 12.93
3/12/2021 10:45:00 PM 3.55 38.39 0.077 6.85 69.27 12.97
3/12/2021 11:00:00 PM 3.47 38.246 0.077 6.84 73.72 12.99
3/12/2021 11:15:00 PM 3.38 38.084 0.078 6.84 60.55 13.03
3/12/2021 11:30:00 PM 3.29 37.922 0.078 6.83 71.24 13.06
3/12/2021 11:45:00 PM 3.2 37.76 0.078 6.85 54.26 13.09
3/13/2021 12:00:00 AM 3.11 37.598 0.078 6.83 65.55 13.13
3/13/2021 12:15:00 AM 3.03 37.454 0.078 6.84 109.47 13.16
3/13/2021 12:30:00 AM 2.94 37.292 0.078 6.86 65.32 13.19
3/13/2021 12:45:00 AM 2.86 37.148 0.079 6.84 57.55 13.23
3/13/2021 1:00:00 AM 2.78 37.004 0.079 6.85 57.46 13.25
3/13/2021 1:15:00 AM 2.68 36.824 0.079 6.84 58.51 13.29
3/13/2021 1:30:00 AM 2.61 36.698 0.079 6.83 50.95 13.32
3/13/2021 1:45:00 AM 2.53 36.554 0.079 6.82 62.67 13.34
3/13/2021 2:00:00 AM 2.46 36.428 0.08 6.84 66.72 13.37
3/13/2021 2:15:00 AM 2.38 36.284 0.08 6.84 60.84 13.4
3/13/2021 2:30:00 AM 2.29 36.122 0.08 6.82 57.22 13.44
3/13/2021 2:45:00 AM 2.24 36.032 0.08 6.83 74.6 13.47
3/13/2021 3:00:00 AM 2.19 35.942 0.08 6.82 56.28 13.49
3/13/2021 3:15:00 AM 2.13 35.834 0.081 6.82 44.54 13.52
3/13/2021 3:30:00 AM 2.07 35.726 0.081 6.82 57.56 13.54
3/13/2021 3:45:00 AM 2 35.6 0.081 6.81 39.45 13.57
3/13/2021 4:00:00 AM 1.93 35.474 0.081 6.81 89.5 13.59
3/13/2021 4:15:00 AM 1.87 35.366 0.081 6.79 69.72 13.62
3/13/2021 4:30:00 AM 1.82 35.276 0.082 6.79 111.69 13.64
3/13/2021 4:45:00 AM 1.76 35.168 0.082 6.8 59.71 13.66
3/13/2021 5:00:00 AM 1.7 35.06 0.082 6.77 70.63 13.69
3/13/2021 5:15:00 AM 1.65 34.97 0.082 6.79 43.62 13.71
3/13/2021 5:30:00 AM 1.58 34.844 0.082 6.79 44.73 13.74
3/13/2021 5:45:00 AM 1.53 34.754 0.082 6.79 105.79 13.75
3/13/2021 6:00:00 AM 1.48 34.664 0.083 6.79 91.45 13.78
3/13/2021 6:15:00 AM 1.43 34.574 0.083 6.79 57.9 13.8
3/13/2021 6:30:00 AM 1.38 34.484 0.083 6.78 54.36 13.81
3/13/2021 6:45:00 AM 1.35 34.43 0.083 6.79 45.52 13.83
3/13/2021 7:00:00 AM 1.33 34.394 0.083 6.8 49.45 13.84
3/13/2021 7:15:00 AM 1.33 34.394 0.083 6.8 72.59 13.86
3/13/2021 7:30:00 AM 1.33 34.394 0.083 6.8 45.67 13.87
3/13/2021 7:45:00 AM 1.33 34.394 0.084 6.8 40.39 13.88
3/13/2021 8:00:00 AM 1.34 34.412 0.084 6.82 47.4 13.89
3/13/2021 8:15:00 AM 1.36 34.448 0.084 6.82 35.29 13.9
3/13/2021 8:30:00 AM 1.4 34.52 0.084 6.83 79.69 13.91
3/13/2021 8:45:00 AM 1.44 34.592 0.084 6.83 37.44 13.91
3/13/2021 9:00:00 AM 1.49 34.682 0.084 6.85 44.75 13.91
3/13/2021 9:15:00 AM 1.56 34.808 0.084 6.84 36.22 13.9
3/13/2021 9:30:00 AM 1.66 34.988 0.084 6.85 33.22 13.89
3/13/2021 9:45:00 AM 1.77 35.186 0.084 6.88 34.26 13.87
3/13/2021 10:00:00 AM 1.91 35.438 0.084 6.88 46.02 13.84
3/13/2021 10:15:00 AM 2.06 35.708 0.084 6.9 31.41 13.79
3/13/2021 10:30:00 AM 2.24 36.032 0.084 6.91 32.6 13.74
3/13/2021 10:45:00 AM 2.43 36.374 0.084 6.93 40.22 13.69
3/13/2021 11:00:00 AM 2.61 36.698 0.085 6.94 57.93 13.63
3/13/2021 11:15:00 AM 2.8 37.04 0.085 6.95 49.23 13.58
3/13/2021 11:30:00 AM 2.99 37.382 0.085 6.97 34.63 13.52
3/13/2021 11:45:00 AM 3.19 37.742 0.085 6.99 42.3 13.45
3/13/2021 12:00:00 PM 3.38 38.084 0.085 6.98 48.38 13.39
3/13/2021 12:15:00 PM 3.57 38.426 0.085 7 30.7 13.33
3/13/2021 12:30:00 PM 3.76 38.768 0.085 7.02 28.45 13.26
3/13/2021 12:45:00 PM 3.95 39.11 0.085 7.01 31.99 13.2
3/13/2021 1:00:00 PM 4.11 39.398 0.085 7.03 44.27 13.14
3/13/2021 1:15:00 PM 4.27 39.686 0.085 7.03 41.17 13.07
3/13/2021 1:30:00 PM 4.42 39.956 0.085 7.04 29.17 13.02
3/13/2021 1:45:00 PM 4.54 40.172 0.085 7.04 35.4 12.97
3/13/2021 2:00:00 PM 4.65 40.37 0.085 7.05 35.84 12.92
3/13/2021 2:15:00 PM 4.75 40.55 0.085 7.05 41.07 12.87
3/13/2021 2:30:00 PM 4.82 40.676 0.086 7.06 70.03 12.83
3/13/2021 2:45:00 PM 4.88 40.784 0.086 7.06 82.72 12.79
3/13/2021 3:00:00 PM 4.93 40.874 0.086 7.05 35.53 12.75
3/13/2021 3:15:00 PM 4.96 40.928 0.086 7.05 32.13 12.72
3/13/2021 3:30:00 PM 4.96 40.928 0.086 7.06 35.59 12.7
3/13/2021 3:45:00 PM 4.94 40.892 0.086 7.05 50.85 12.69
3/13/2021 4:00:00 PM 4.9 40.82 0.086 7.06 29.44 12.67
3/13/2021 4:15:00 PM 4.85 40.73 0.086 7.05 38.01 12.66
3/13/2021 4:30:00 PM 4.79 40.622 0.086 7.04 37.3 12.66
3/13/2021 4:45:00 PM 4.71 40.478 0.086 7.04 43.08 12.67
3/13/2021 5:00:00 PM 4.62 40.316 0.086 7.04 32.01 12.67
3/13/2021 5:15:00 PM 4.53 40.154 0.086 7.04 29.83 12.68
3/13/2021 5:30:00 PM 4.44 39.992 0.087 7.04 28.03 12.69
3/13/2021 5:45:00 PM 4.34 39.812 0.087 7.03 29.82 12.71
3/13/2021 6:00:00 PM 4.25 39.65 0.087 7.03 34.97 12.72
3/13/2021 6:15:00 PM 4.14 39.452 0.087 7.02 45.27 12.74
3/13/2021 6:30:00 PM 4.04 39.272 0.087 7.03 43.3 12.76
3/13/2021 6:45:00 PM 3.93 39.074 0.087 7.02 40.05 12.78
3/13/2021 7:00:00 PM 3.83 38.894 0.087 7 25.27 12.81
3/13/2021 7:15:00 PM 3.73 38.714 0.087 7 30.51 12.83
3/13/2021 7:30:00 PM 3.63 38.534 0.087 7.01 27.94 12.86
3/13/2021 7:45:00 PM 3.53 38.354 0.088 7 29.23 12.89
3/13/2021 8:00:00 PM 3.43 38.174 0.088 7 38.6 12.92
3/13/2021 8:15:00 PM 3.34 38.012 0.088 6.99 54.16 12.95
3/13/2021 8:30:00 PM 3.25 37.85 0.088 6.99 45.19 12.98
3/13/2021 8:45:00 PM 3.17 37.706 0.088 6.99 27.4 13.01
3/13/2021 9:00:00 PM 3.08 37.544 0.088 6.98 34.76 13.04
3/13/2021 9:15:00 PM 2.99 37.382 0.088 6.98 29.63 13.07
3/13/2021 9:30:00 PM 2.91 37.238 0.089 6.98 25.48 13.09
3/13/2021 9:45:00 PM 2.83 37.094 0.089 6.98 26.8 13.11
3/13/2021 10:00:00 PM 2.75 36.95 0.089 6.98 22.96 13.14
3/13/2021 10:15:00 PM 2.67 36.806 0.089 6.98 26.66 13.17
3/13/2021 10:30:00 PM 2.59 36.662 0.089 6.98 56.79 13.19
3/13/2021 10:45:00 PM 2.53 36.554 0.089 6.98 26.62 13.22
3/13/2021 11:00:00 PM 2.46 36.428 0.089 6.97 30.93 13.25
3/13/2021 11:15:00 PM 2.39 36.302 0.089 6.98 44.37 13.27
3/13/2021 11:30:00 PM 2.33 36.194 0.09 6.98 26.75 13.29
3/13/2021 11:45:00 PM 2.26 36.068 0.09 6.98 22.29 13.31
3/14/2021 12:00:00 AM 2.2 35.96 0.09 6.97 27.47 13.33
3/14/2021 12:15:00 AM 2.14 35.852 0.09 6.98 23.12 13.36
3/14/2021 12:30:00 AM 2.08 35.744 0.09 6.98 24.9 13.38
3/14/2021 12:45:00 AM 2.03 35.654 0.09 6.98 25.42 13.39
3/14/2021 1:00:00 AM 1.98 35.564 0.09 6.98 26.47 13.41
3/14/2021 1:15:00 AM 1.94 35.492 0.09 6.98 28.46 13.42
3/14/2021 1:30:00 AM 1.9 35.42 0.091 6.98 24.44 13.44
3/14/2021 1:45:00 AM 1.89 35.402 0.091 6.97 26.53 13.45
3/14/2021 3:15:00 AM 1.86 35.348 0.091 6.98 26.08 13.47
3/14/2021 3:30:00 AM 1.86 35.348 0.091 6.98 26.67 13.46
3/14/2021 3:45:00 AM 1.84 35.312 0.091 6.98 18.5 13.46
3/14/2021 4:00:00 AM 1.83 35.294 0.091 6.98 33.94 13.47
3/14/2021 4:15:00 AM 1.8 35.24 0.091 6.98 32.8 13.47
3/14/2021 4:30:00 AM 1.79 35.222 0.092 6.98 25.34 13.47
3/14/2021 4:45:00 AM 1.78 35.204 0.092 6.98 23.19 13.48
3/14/2021 5:00:00 AM 1.79 35.222 0.092 6.98 29.9 13.48
3/14/2021 5:15:00 AM 1.79 35.222 0.092 6.98 27.19 13.48
3/14/2021 5:30:00 AM 1.79 35.222 0.092 6.98 15.51 13.48
3/14/2021 5:45:00 AM 1.79 35.222 0.092 6.98 23.06 13.48
3/14/2021 6:00:00 AM 1.78 35.204 0.092 6.98 21.93 13.48
3/14/2021 6:15:00 AM 1.78 35.204 0.092 6.99 25.71 13.48
3/14/2021 6:30:00 AM 1.79 35.222 0.092 6.98 35.5 13.48
3/14/2021 6:45:00 AM 1.8 35.24 0.092 6.99 33.04 13.49
3/14/2021 7:00:00 AM 1.82 35.276 0.092 7 20.77 13.49
3/14/2021 7:15:00 AM 1.84 35.312 0.092 7 19.34 13.5
3/14/2021 7:30:00 AM 1.88 35.384 0.092 7.01 27.36 13.5
3/14/2021 7:45:00 AM 1.92 35.456 0.092 7.01 20.6 13.5
3/14/2021 9:15:00 AM 2 35.6 0.093 7.02 26.5 13.5
3/14/2021 9:30:00 AM 2.05 35.69 0.093 7.03 19.99 13.5
3/14/2021 9:45:00 AM 2.1 35.78 0.093 7.03 20.52 13.49
3/14/2021 10:00:00 AM 2.13 35.834 0.093 7.03 16.57 13.48
3/14/2021 10:15:00 AM 2.2 35.96 0.093 7.03 19.88 13.47
3/14/2021 10:30:00 AM 2.3 36.14 0.093 7.04 16.92 13.45
3/14/2021 10:45:00 AM 2.39 36.302 0.093 7.04 29.27 13.43
3/14/2021 11:00:00 AM 2.5 36.5 0.093 7.05 18.75 13.4
3/14/2021 11:15:00 AM 2.61 36.698 0.093 7.06 20.94 13.37
3/14/2021 11:30:00 AM 2.73 36.914 0.093 7.06 15.82 13.34
3/14/2021 11:45:00 AM 2.9 37.22 0.093 7.07 18.26 13.3
3/14/2021 12:00:00 PM 3.03 37.454 0.093 7.07 23.72 13.26
3/14/2021 12:15:00 PM 3.1 37.58 0.093 7.07 23.32 13.22
3/14/2021 12:30:00 PM 3.2 37.76 0.093 7.08 24.79 13.19
3/14/2021 12:45:00 PM 3.3 37.94 0.093 7.08 19.88 13.16
3/14/2021 1:00:00 PM 3.32 37.976 0.093 7.08 18.62 13.13
3/14/2021 1:15:00 PM 3.25 37.85 0.093 7.08 24.67 13.11
3/14/2021 1:30:00 PM 3.39 38.102 0.093 7.09 16.98 13.08
3/14/2021 1:45:00 PM 3.47 38.246 0.093 7.09 18.75 13.06
3/14/2021 2:00:00 PM 3.58 38.444 0.093 7.09 19.16 13.04
3/14/2021 2:15:00 PM 3.68 38.624 0.093 7.1 19.77 13.01
3/14/2021 2:30:00 PM 3.62 38.516 0.093 7.1 18.22 13
3/14/2021 2:45:00 PM 3.73 38.714 0.094 7.1 22.61 12.97
3/14/2021 3:00:00 PM 3.84 38.912 0.094 7.1 17.25 12.96
3/14/2021 3:15:00 PM 3.79 38.822 0.094 7.1 14.14 12.94
3/14/2021 3:30:00 PM 3.89 39.002 0.094 7.1 17.4 12.92
3/14/2021 3:45:00 PM 3.89 39.002 0.094 7.1 17.65 12.91
3/14/2021 4:00:00 PM 3.93 39.074 0.094 7.1 18.13 12.9
3/14/2021 4:15:00 PM 3.9 39.02 0.094 7.1 17.36 12.9
3/14/2021 4:30:00 PM 3.91 39.038 0.094 7.1 16.24 12.88
3/14/2021 4:45:00 PM 3.94 39.092 0.094 7.11 15.79 12.88
3/14/2021 5:00:00 PM 3.91 39.038 0.094 7.11 18.09 12.88
3/14/2021 5:15:00 PM 3.87 38.966 0.094 7.1 16.83 12.88
3/14/2021 5:30:00 PM 3.8 38.84 0.094 7.1 19.96 12.89
3/14/2021 5:45:00 PM 3.73 38.714 0.094 7.1 17.06 12.89
3/14/2021 6:00:00 PM 3.67 38.606 0.094 7.11 17.07 12.9
3/14/2021 6:15:00 PM 3.58 38.444 0.094 7.1 17.54 12.92
3/14/2021 6:30:00 PM 3.5 38.3 0.095 7.1 19.48 12.93
3/14/2021 6:45:00 PM 3.41 38.138 0.095 7.1 20.33 12.95
3/14/2021 7:00:00 PM 3.32 37.976 0.095 7.1 14.82 12.97
3/14/2021 7:15:00 PM 3.23 37.814 0.095 7.09 16.15 12.98
3/14/2021 7:30:00 PM 3.11 37.598 0.095 7.09 16.82 13
3/14/2021 7:45:00 PM 2.99 37.382 0.095 7.08 19.08 13.04
3/14/2021 8:00:00 PM 2.86 37.148 0.095 7.09 18.77 13.07
3/14/2021 8:15:00 PM 2.74 36.932 0.095 7.07 19.99 13.11
3/14/2021 8:30:00 PM 2.63 36.734 0.095 7.08 18 13.15
3/14/2021 8:45:00 PM 2.53 36.554 0.095 7.07 14.49 13.19
3/14/2021 9:00:00 PM 2.47 36.446 0.096 7.07 19.38 13.21
3/14/2021 9:15:00 PM 2.42 36.356 0.096 7.07 17.45 13.24
3/14/2021 9:30:00 PM 2.35 36.23 0.096 7.06 14.98 13.27
3/14/2021 9:45:00 PM 2.26 36.068 0.096 7.07 18.35 13.31
3/14/2021 10:00:00 PM 2.19 35.942 0.096 7.07 17.43 13.33
3/14/2021 10:15:00 PM 2.09 35.762 0.096 7.06 18.07 13.37
3/14/2021 10:30:00 PM 1.97 35.546 0.096 7.06 16.67 13.41
3/14/2021 10:45:00 PM 1.86 35.348 0.096 7.06 14.56 13.46
3/14/2021 11:00:00 PM 1.76 35.168 0.096 7.06 14.92 13.49
3/14/2021 11:15:00 PM 1.68 35.024 0.097 7.05 17.01 13.53
3/14/2021 11:30:00 PM 1.59 34.862 0.097 7.06 17.27 13.57
3/14/2021 11:45:00 PM 1.5 34.7 0.097 7.05 18.15 13.61
3/15/2021 12:00:00 AM 1.42 34.556 0.097 7.05 16.91 13.64
3/15/2021 12:15:00 AM 1.33 34.394 0.097 7.04 21.2 13.68
3/15/2021 12:30:00 AM 1.25 34.25 0.097 7.04 19.29 13.72
3/15/2021 12:45:00 AM 1.19 34.142 0.097 7.04 15.42 13.75
3/15/2021 1:00:00 AM 1.13 34.034 0.097 7.04 21.9 13.77
3/15/2021 1:15:00 AM 1.08 33.944 0.098 7.04 16.35 13.8
3/15/2021 1:30:00 AM 1.03 33.854 0.098 7.03 17.13 13.84
3/15/2021 1:45:00 AM 0.98 33.764 0.098 7.04 16.73 13.86
3/15/2021 2:00:00 AM 0.93 33.674 0.098 7.03 16.24 13.87
3/15/2021 2:15:00 AM 0.86 33.548 0.098 7.02 16.04 13.9
3/15/2021 2:30:00 AM 0.79 33.422 0.098 7.02 17.89 13.94
3/15/2021 2:45:00 AM 0.74 33.332 0.098 7.02 27.96 13.97
3/15/2021 3:00:00 AM 0.69 33.242 0.099 7.01 17.35 13.99
3/15/2021 3:15:00 AM 0.64 33.152 0.099 7 16.71 14.01
3/15/2021 3:30:00 AM 0.58 33.044 0.099 6.99 15.17 14.04
3/15/2021 3:45:00 AM 0.53 32.954 0.099 6.98 14.92 14.06
3/15/2021 4:00:00 AM 0.46 32.828 0.099 6.98 16.38 14.09
3/15/2021 4:15:00 AM 0.41 32.738 0.1 6.97 17.7 14.11
3/15/2021 4:30:00 AM 0.35 32.63 0.1 6.95 16.61 14.12
3/15/2021 4:45:00 AM 0.32 32.576 0.1 6.95 20.41 14.15
3/15/2021 5:00:00 AM 0.28 32.504 0.1 6.95 17.73 14.16
3/15/2021 5:15:00 AM 0.26 32.468 0.1 6.94 14.73 14.18
3/15/2021 5:30:00 AM 0.24 32.432 0.1 6.94 16.79 14.19
3/15/2021 5:45:00 AM 0.21 32.378 0.101 6.94 17.21 14.2
3/15/2021 6:00:00 AM 0.16 32.288 0.101 6.93 16.21 14.22
3/15/2021 6:15:00 AM 0.13 32.234 0.101 6.94 15.24 14.23
3/15/2021 6:30:00 AM 0.1 32.18 0.102 6.94 17.26 14.25
3/15/2021 6:45:00 AM 0.07 32.126 0.102 6.94 16.13 14.26
3/15/2021 7:00:00 AM 0.05 32.09 0.102 6.94 16.43 14.27
3/15/2021 7:15:00 AM 0.05 32.09 0.103 6.94 15.48 14.28
3/15/2021 7:30:00 AM 0.06 32.108 0.103 6.95 16.15 14.28
3/15/2021 7:45:00 AM 0.07 32.126 0.103 6.96 16.89 14.28
3/15/2021 8:00:00 AM 0.08 32.144 0.104 6.97 15.97 14.29
3/15/2021 8:15:00 AM 0.09 32.162 0.104 6.98 16.14 14.3
3/15/2021 8:30:00 AM 0.1 32.18 0.105 6.98 15.77 14.3
3/15/2021 8:45:00 AM 0.13 32.234 0.105 7 16.32 14.31
3/15/2021 9:00:00 AM 0.16 32.288 0.106 7.01 15.37 14.31
3/15/2021 9:15:00 AM 0.23 32.414 0.106 7.02 15.54 14.3
3/15/2021 9:30:00 AM 0.29 32.522 0.106 7.03 14.3 14.3
3/15/2021 9:45:00 AM 0.34 32.612 0.107 7.04 14.42 14.29
3/15/2021 10:00:00 AM 0.42 32.756 0.107 7.05 14.69 14.28
3/15/2021 10:15:00 AM 0.5 32.9 0.107 7.06 16.26 14.27
3/15/2021 10:30:00 AM 0.59 33.062 0.108 7.06 14.32 14.25
3/15/2021 10:45:00 AM 0.72 33.296 0.108 7.08 14.32 14.23
3/15/2021 11:00:00 AM 0.85 33.53 0.108 7.09 13.82 14.21
3/15/2021 11:15:00 AM 0.97 33.746 0.107 7.1 15.2 14.19
3/15/2021 11:30:00 AM 1.08 33.944 0.106 7.11 16.15 14.18
3/15/2021 11:45:00 AM 1.16 34.088 0.105 7.12 15.61 14.17
3/15/2021 12:00:00 PM 1.27 34.286 0.105 7.12 15.12 14.16
3/15/2021 12:15:00 PM 1.37 34.466 0.104 7.13 15.73 14.13
3/15/2021 12:30:00 PM 1.5 34.7 0.104 7.13 14.57 14.11
3/15/2021 12:45:00 PM 1.61 34.898 0.104 7.13 14.89 14.07
3/15/2021 1:00:00 PM 1.74 35.132 0.103 7.14 16.16 14.03
3/15/2021 1:15:00 PM 1.9 35.42 0.103 7.15 14.14 13.98
3/15/2021 1:30:00 PM 2.08 35.744 0.103 7.14 14.02 13.91
3/15/2021 1:45:00 PM 2.29 36.122 0.104 7.15 14.82 13.83
3/15/2021 2:00:00 PM 2.51 36.518 0.104 7.14 15.17 13.74
3/15/2021 2:15:00 PM 2.73 36.914 0.104 7.16 14.2 13.66
3/15/2021 2:30:00 PM 2.93 37.274 0.104 7.16 14.88 13.58
3/15/2021 2:45:00 PM 3.14 37.652 0.104 7.18 13.84 13.5
3/15/2021 3:00:00 PM 3.29 37.922 0.104 7.18 14.94 13.44
3/15/2021 3:15:00 PM 3.41 38.138 0.104 7.19 15.45 13.38
3/15/2021 3:30:00 PM 3.49 38.282 0.104 7.19 15.65 13.34
3/15/2021 3:45:00 PM 3.53 38.354 0.104 7.2 17.63 13.32
3/15/2021 4:00:00 PM 3.53 38.354 0.104 7.22 21.68 13.31
3/15/2021 4:15:00 PM 3.5 38.3 0.104 7.21 17.79 13.3
3/15/2021 4:30:00 PM 3.43 38.174 0.104 7.22 29.93 13.3
3/15/2021 4:45:00 PM 3.37 38.066 0.104 7.2 42.54 13.3
3/15/2021 5:00:00 PM 3.29 37.922 0.104 7.21 24.57 13.3
3/15/2021 5:15:00 PM 3.19 37.742 0.104 7.21 21.6 13.3
3/15/2021 5:30:00 PM 3.1 37.58 0.104 7.2 39.49 13.3
3/15/2021 5:45:00 PM 3.01 37.418 0.104 7.19 26.99 13.31
3/15/2021 6:00:00 PM 2.91 37.238 0.105 7.2 23.49 13.32
3/15/2021 6:15:00 PM 2.81 37.058 0.105 7.19 20.39 13.33
3/15/2021 6:30:00 PM 2.72 36.896 0.105 7.19 28.47 13.33
3/15/2021 6:45:00 PM 2.63 36.734 0.105 7.17 21.37 13.35
3/15/2021 7:00:00 PM 2.53 36.554 0.105 7.17 18.4 13.36
3/15/2021 7:15:00 PM 2.44 36.392 0.105 7.17 21.65 13.37
3/15/2021 7:30:00 PM 2.35 36.23 0.105 7.17 14.64 13.39
3/15/2021 7:45:00 PM 2.26 36.068 0.105 7.16 18.02 13.41
3/15/2021 8:00:00 PM 2.17 35.906 0.105 7.13 16.75 13.42
3/15/2021 8:15:00 PM 2.09 35.762 0.105 7.15 15.39 13.44
3/15/2021 8:30:00 PM 2.01 35.618 0.105 7.14 19.83 13.46
3/15/2021 8:45:00 PM 1.94 35.492 0.105 7.14 16.98 13.48
3/15/2021 9:00:00 PM 1.88 35.384 0.105 7.14 13.05 13.51
3/15/2021 9:15:00 PM 1.82 35.276 0.105 7.13 16.14 13.53
3/15/2021 9:30:00 PM 1.78 35.204 0.105 7.12 16.48 13.55
3/15/2021 9:45:00 PM 1.73 35.114 0.105 7.12 16.4 13.56
3/15/2021 10:00:00 PM 1.69 35.042 0.105 7.1 17.38 13.58
3/15/2021 10:15:00 PM 1.64 34.952 0.105 7.11 16.59 13.6
3/15/2021 10:30:00 PM 1.58 34.844 0.105 7.11 14.02 13.61
3/15/2021 10:45:00 PM 1.53 34.754 0.105 7.11 15.95 13.63
3/15/2021 11:00:00 PM 1.48 34.664 0.105 7.11 15.5 13.65
3/15/2021 11:15:00 PM 1.43 34.574 0.105 7.1 14.81 13.68
3/15/2021 11:30:00 PM 1.38 34.484 0.105 7.1 15.02 13.7
3/15/2021 11:45:00 PM 1.33 34.394 0.105 7.1 15.89 13.71
3/16/2021 12:00:00 AM 1.27 34.286 0.105 7.1 16.1 13.74
3/16/2021 12:15:00 AM 1.22 34.196 0.106 7.11 15.88 13.76
3/16/2021 12:30:00 AM 1.18 34.124 0.106 7.1 15.75 13.78
3/16/2021 12:45:00 AM 1.13 34.034 0.106 7.09 15.15 13.79
3/16/2021 1:00:00 AM 1.09 33.962 0.106 7.1 14.81 13.81
3/16/2021 1:15:00 AM 1.05 33.89 0.106 7.1 20.84 13.82
3/16/2021 1:30:00 AM 1.02 33.836 0.106 7.1 14.54 13.83
3/16/2021 1:45:00 AM 0.99 33.782 0.106 7.09 14.91 13.85
3/16/2021 2:00:00 AM 0.96 33.728 0.107 7.09 15.03 13.86
3/16/2021 2:15:00 AM 0.93 33.674 0.107 7.09 14.67 13.87
3/16/2021 2:30:00 AM 0.89 33.602 0.107 7.1 14.29 13.88
3/16/2021 2:45:00 AM 0.87 33.566 0.107 7.09 14.56 13.89
3/16/2021 3:00:00 AM 0.84 33.512 0.107 7.09 15.6 13.9
3/16/2021 3:15:00 AM 0.83 33.494 0.107 7.09 14.95 13.91
3/16/2021 3:30:00 AM 0.82 33.476 0.108 7.09 13.29 13.92
3/16/2021 3:45:00 AM 0.81 33.458 0.108 7.09 14.78 13.92
3/16/2021 4:00:00 AM 0.79 33.422 0.108 7.09 14.03 13.93
3/16/2021 4:15:00 AM 0.77 33.386 0.108 7.09 14.03 13.94
3/16/2021 4:30:00 AM 0.75 33.35 0.108 7.09 13.83 13.95
3/16/2021 4:45:00 AM 0.73 33.314 0.109 7.09 12.6 13.95
3/16/2021 5:00:00 AM 0.7 33.26 0.109 7.08 12.36 13.96
3/16/2021 5:15:00 AM 0.68 33.224 0.109 7.09 12.4 13.97
3/16/2021 5:30:00 AM 0.66 33.188 0.109 7.08 12.29 13.98
3/16/2021 5:45:00 AM 0.64 33.152 0.109 7.09 12.42 13.99
3/16/2021 6:00:00 AM 0.61 33.098 0.11 7.09 12.33 13.99
3/16/2021 6:15:00 AM 0.6 33.08 0.11 7.09 11.91 14
3/16/2021 6:30:00 AM 0.58 33.044 0.11 7.09 11.93 14.01
3/16/2021 6:45:00 AM 0.56 33.008 0.11 7.09 12.79 14.01
3/16/2021 7:00:00 AM 0.55 32.99 0.11 7.09 12.01 14.02
3/16/2021 7:15:00 AM 0.55 32.99 0.11 7.09 11.74 14.02
3/16/2021 7:30:00 AM 0.54 32.972 0.111 7.1 10.61 14.03
3/16/2021 7:45:00 AM 0.54 32.972 0.111 7.09 11.54 14.04
3/16/2021 8:00:00 AM 0.54 32.972 0.111 7.1 10.23 14.04
3/16/2021 8:15:00 AM 0.55 32.99 0.111 7.1 10.77 14.05
3/16/2021 8:30:00 AM 0.55 32.99 0.111 7.1 11.59 14.06
3/16/2021 8:45:00 AM 0.57 33.026 0.111 7.1 11.35 14.07
3/16/2021 9:00:00 AM 0.59 33.062 0.111 7.11 10.87 14.08
3/16/2021 9:15:00 AM 0.61 33.098 0.111 7.11 10.09 14.08
3/16/2021 9:30:00 AM 0.64 33.152 0.111 7.11 10.31 14.08
3/16/2021 9:45:00 AM 0.68 33.224 0.111 7.11 9.83 14.08
3/16/2021 10:00:00 AM 0.71 33.278 0.111 7.12 10 14.08
3/16/2021 10:15:00 AM 0.75 33.35 0.111 7.12 10.47 14.09
3/16/2021 10:30:00 AM 0.8 33.44 0.111 7.12 10.18 14.08
3/16/2021 10:45:00 AM 0.84 33.512 0.111 7.13 9.77 14.07
3/16/2021 11:00:00 AM 0.88 33.584 0.112 7.13 9.64 14.06
3/16/2021 11:15:00 AM 0.92 33.656 0.112 7.13 9.74 14.05
3/16/2021 11:30:00 AM 0.95 33.71 0.112 7.13 9.71 14.04
3/16/2021 11:45:00 AM 1.01 33.818 0.111 7.14 9.81 14.03
3/16/2021 12:00:00 PM 1.08 33.944 0.111 7.14 10.28 14.02
3/16/2021 12:15:00 PM 1.11 33.998 0.111 7.14 11.39 14
3/16/2021 12:30:00 PM 1.15 34.07 0.112 7.15 12.51 13.99
3/16/2021 12:45:00 PM 1.18 34.124 0.112 7.15 14.57 13.96
3/16/2021 1:00:00 PM 1.23 34.214 0.111 7.15 13.63 13.96
3/16/2021 1:15:00 PM 1.27 34.286 0.111 7.16 13.36 13.94
3/16/2021 1:30:00 PM 1.34 34.412 0.111 7.16 13.63 13.93
3/16/2021 1:45:00 PM 1.39 34.502 0.111 7.16 15.9 13.91
3/16/2021 2:00:00 PM 1.42 34.556 0.111 7.16 16.58 13.9
3/16/2021 2:15:00 PM 1.43 34.574 0.111 7.16 18 13.88
3/16/2021 2:30:00 PM 1.44 34.592 0.111 7.17 19.45 13.87
3/16/2021 2:45:00 PM 1.43 34.574 0.111 7.17 36.7 13.85
3/16/2021 3:00:00 PM 1.43 34.574 0.111 7.17 29.83 13.83
3/16/2021 3:15:00 PM 1.42 34.556 0.111 7.17 27.79 13.83
3/16/2021 3:30:00 PM 1.42 34.556 0.111 7.17 19.67 13.82
3/16/2021 3:45:00 PM 1.41 34.538 0.111 7.16 14.5 13.82
3/16/2021 4:00:00 PM 1.4 34.52 0.111 7.16 16.6 13.81
3/16/2021 4:15:00 PM 1.4 34.52 0.111 7.16 17.85 13.8
3/16/2021 4:30:00 PM 1.4 34.52 0.111 7.16 17.63 13.8
3/16/2021 4:45:00 PM 1.4 34.52 0.111 7.17 23.97 13.79
3/16/2021 5:00:00 PM 1.4 34.52 0.111 7.16 26.52 13.78
3/16/2021 5:15:00 PM 1.39 34.502 0.111 7.16 34.3 13.77
3/16/2021 5:30:00 PM 1.37 34.466 0.111 7.16 32.97 13.76
3/16/2021 5:45:00 PM 1.35 34.43 0.111 7.16 56.31 13.76
3/16/2021 6:00:00 PM 1.31 34.358 0.111 7.16 34.32 13.76
3/16/2021 6:15:00 PM 1.3 34.34 0.111 7.16 30.47 13.77
3/16/2021 6:30:00 PM 1.29 34.322 0.111 7.16 24.11 13.76
3/16/2021 6:45:00 PM 1.28 34.304 0.111 7.15 22.14 13.76
3/16/2021 7:00:00 PM 1.27 34.286 0.111 7.15 17.42 13.75
3/16/2021 7:15:00 PM 1.27 34.286 0.111 7.15 19.24 13.75
3/16/2021 7:30:00 PM 1.26 34.268 0.111 7.14 18.05 13.74
3/16/2021 7:45:00 PM 1.25 34.25 0.111 7.14 19.32 13.74
3/16/2021 8:00:00 PM 1.24 34.232 0.111 7.14 18.55 13.74
3/16/2021 8:15:00 PM 1.24 34.232 0.111 7.15 18.69 13.73
3/16/2021 8:30:00 PM 1.23 34.214 0.111 7.14 19.94 13.74
3/16/2021 8:45:00 PM 1.22 34.196 0.111 7.14 23.04 13.74
3/16/2021 9:00:00 PM 1.23 34.214 0.111 7.13 15.24 13.73
3/16/2021 9:15:00 PM 1.23 34.214 0.111 7.13 17.09 13.73
3/16/2021 9:30:00 PM 1.24 34.232 0.111 7.13 19.19 13.72
3/16/2021 9:45:00 PM 1.24 34.232 0.111 7.13 18.92 13.71
3/16/2021 10:00:00 PM 1.24 34.232 0.111 7.13 18.79 13.72
3/16/2021 10:15:00 PM 1.24 34.232 0.111 7.13 17.74 13.72
3/16/2021 10:30:00 PM 1.24 34.232 0.111 7.13 15.81 13.71
3/16/2021 10:45:00 PM 1.25 34.25 0.111 7.12 15.77 13.71
3/16/2021 11:00:00 PM 1.25 34.25 0.111 7.13 15.16 13.71
3/16/2021 11:15:00 PM 1.25 34.25 0.111 7.12 14.18 13.71
3/16/2021 11:30:00 PM 1.25 34.25 0.111 7.13 15.76 13.71
3/16/2021 11:45:00 PM 1.25 34.25 0.111 7.12 15.06 13.7
3/17/2021 12:00:00 AM 1.24 34.232 0.112 7.12 15.44 13.71
3/17/2021 12:15:00 AM 1.24 34.232 0.112 7.12 13.27 13.7
3/17/2021 12:30:00 AM 1.24 34.232 0.112 7.12 12.43 13.7
3/17/2021 12:45:00 AM 1.24 34.232 0.112 7.12 13.02 13.69
3/17/2021 1:00:00 AM 1.24 34.232 0.112 7.12 12.74 13.7
3/17/2021 1:15:00 AM 1.24 34.232 0.112 7.12 11.75 13.69
3/17/2021 1:30:00 AM 1.24 34.232 0.112 7.12 11.75 13.7
3/17/2021 1:45:00 AM 1.25 34.25 0.112 7.12 11.57 13.69
3/17/2021 2:00:00 AM 1.25 34.25 0.112 7.12 11.55 13.69
3/17/2021 2:15:00 AM 1.25 34.25 0.112 7.12 10.98 13.68
3/17/2021 2:30:00 AM 1.25 34.25 0.112 7.13 11.17 13.69
3/17/2021 2:45:00 AM 1.26 34.268 0.112 7.12 10.77 13.68
3/17/2021 3:00:00 AM 1.26 34.268 0.112 7.12 10.9 13.68
3/17/2021 3:15:00 AM 1.26 34.268 0.112 7.12 10.97 13.68
3/17/2021 3:30:00 AM 1.27 34.286 0.112 7.12 11.59 13.67
3/17/2021 3:45:00 AM 1.27 34.286 0.112 7.12 11.35 13.68
3/17/2021 4:00:00 AM 1.28 34.304 0.112 7.12 10.06 13.67
3/17/2021 4:15:00 AM 1.28 34.304 0.112 7.12 11.18 13.67
3/17/2021 4:30:00 AM 1.28 34.304 0.112 7.12 10.76 13.67
3/17/2021 4:45:00 AM 1.28 34.304 0.112 7.12 10.8 13.67
3/17/2021 5:00:00 AM 1.29 34.322 0.113 7.13 10.19 13.67
3/17/2021 5:15:00 AM 1.29 34.322 0.113 7.12 10.46 13.67
3/17/2021 5:30:00 AM 1.29 34.322 0.113 7.12 10.4 13.67
3/17/2021 5:45:00 AM 1.29 34.322 0.113 7.13 10.19 13.67
3/17/2021 6:00:00 AM 1.3 34.34 0.113 7.12 10.28 13.67
3/17/2021 6:15:00 AM 1.3 34.34 0.113 7.13 10.47 13.67
3/17/2021 6:30:00 AM 1.3 34.34 0.113 7.13 10.32 13.66
3/17/2021 6:45:00 AM 1.3 34.34 0.113 7.12 10.13 13.66
3/17/2021 7:00:00 AM 1.3 34.34 0.113 7.12 9.7 13.66
3/17/2021 7:15:00 AM 1.31 34.358 0.113 7.12 9.6 13.66
3/17/2021 7:30:00 AM 1.31 34.358 0.113 7.12 9.35 13.67
3/17/2021 7:45:00 AM 1.31 34.358 0.113 7.12 9.59 13.67
3/17/2021 8:00:00 AM 1.32 34.376 0.113 7.13 9.47 13.67
3/17/2021 8:15:00 AM 1.34 34.412 0.113 7.13 9.03 13.68
3/17/2021 8:30:00 AM 1.36 34.448 0.113 7.13 9.63 13.69
3/17/2021 8:45:00 AM 1.38 34.484 0.113 7.13 9.22 13.7
3/17/2021 9:00:00 AM 1.41 34.538 0.113 7.14 9.37 13.7
3/17/2021 9:15:00 AM 1.46 34.628 0.113 7.14 9.07 13.71
3/17/2021 9:30:00 AM 1.51 34.718 0.113 7.15 9.54 13.71
3/17/2021 9:45:00 AM 1.57 34.826 0.113 7.15 9.8 13.71
3/17/2021 10:00:00 AM 1.64 34.952 0.113 7.16 8.95 13.7
3/17/2021 10:15:00 AM 1.72 35.096 0.113 7.16 9.64 13.7
3/17/2021 10:30:00 AM 1.79 35.222 0.113 7.17 9 13.68
3/17/2021 10:45:00 AM 1.88 35.384 0.113 7.17 9.09 13.66
3/17/2021 11:00:00 AM 1.98 35.564 0.113 7.18 8.93 13.64
3/17/2021 11:15:00 AM 2.05 35.69 0.113 7.18 9.22 13.62
3/17/2021 11:30:00 AM 2.16 35.888 0.113 7.18 9.31 13.6
3/17/2021 11:45:00 AM 2.31 36.158 0.113 7.18 9.27 13.57
3/17/2021 12:00:00 PM 2.43 36.374 0.113 7.19 9.29 13.54
3/17/2021 12:15:00 PM 2.6 36.68 0.113 7.19 11.38 13.5
3/17/2021 12:30:00 PM 2.76 36.968 0.113 7.2 16.72 13.45
3/17/2021 12:45:00 PM 2.92 37.256 0.113 7.2 25.8 13.41
3/17/2021 1:00:00 PM 3.08 37.544 0.113 7.21 49 13.36
3/17/2021 1:15:00 PM 3.26 37.868 0.113 7.21 32.86 13.3
3/17/2021 1:30:00 PM 3.44 38.192 0.113 7.22 26.07 13.25
3/17/2021 1:45:00 PM 3.65 38.57 0.113 7.22 18.83 13.2
3/17/2021 2:00:00 PM 3.89 39.002 0.113 7.22 16.29 13.13
3/17/2021 2:15:00 PM 4.09 39.362 0.113 7.23 16.42 13.06
3/17/2021 2:30:00 PM 4.36 39.848 0.113 7.24 15.61 12.98
3/17/2021 2:45:00 PM 4.6 40.28 0.113 7.23 15.54 12.9
3/17/2021 3:00:00 PM 4.79 40.622 0.113 7.24 12.83 12.83
3/17/2021 3:15:00 PM 4.94 40.892 0.113 7.24 12.9 12.77
3/17/2021 3:30:00 PM 5.08 41.144 0.113 7.25 13.45 12.71
3/17/2021 3:45:00 PM 5.2 41.36 0.113 7.25 13.25 12.66
3/17/2021 4:00:00 PM 5.28 41.504 0.113 7.25 14.54 12.61
3/17/2021 4:15:00 PM 5.34 41.612 0.113 7.25 13.91 12.57
3/17/2021 4:30:00 PM 5.37 41.666 0.113 7.26 13.54 12.54
3/17/2021 4:45:00 PM 5.38 41.684 0.113 7.26 13.41 12.52
3/17/2021 5:00:00 PM 5.37 41.666 0.112 7.26 13.5 12.5
3/17/2021 5:15:00 PM 5.33 41.594 0.112 7.26 13.14 12.49
3/17/2021 5:30:00 PM 5.28 41.504 0.112 7.26 12.88 12.48
3/17/2021 5:45:00 PM 5.2 41.36 0.112 7.26 14.94 12.48
3/17/2021 6:00:00 PM 5.12 41.216 0.112 7.25 29.62 12.48
3/17/2021 6:15:00 PM 5.03 41.054 0.112 7.25 59.62 12.46
3/17/2021 6:30:00 PM 4.93 40.874 0.112 7.24 41.69 12.45
3/17/2021 6:45:00 PM 4.84 40.712 0.112 7.24 31.36 12.46
3/17/2021 7:00:00 PM 4.75 40.55 0.112 7.23 28.51 12.46
3/17/2021 7:15:00 PM 4.66 40.388 0.112 7.22 38.51 12.47
3/17/2021 7:30:00 PM 4.56 40.208 0.112 7.22 27.09 12.47
3/17/2021 7:45:00 PM 4.47 40.046 0.112 7.21 63.24 12.48
3/17/2021 8:00:00 PM 4.39 39.902 0.112 7.21 56.47 12.49
3/17/2021 8:15:00 PM 4.31 39.758 0.112 7.2 79.36 12.51
3/17/2021 8:30:00 PM 4.23 39.614 0.112 7.2 58.78 12.52
3/17/2021 8:45:00 PM 4.15 39.47 0.112 7.19 113.03 12.54
3/17/2021 9:00:00 PM 4.08 39.344 0.112 7.19 82.02 12.56
3/17/2021 9:15:00 PM 4.01 39.218 0.112 7.18 123.67 12.58
3/17/2021 9:30:00 PM 3.94 39.092 0.112 7.18 67.69 12.6
3/17/2021 9:45:00 PM 3.87 38.966 0.111 7.17 68.4 12.62
3/17/2021 10:00:00 PM 3.8 38.84 0.111 7.17 47.34 12.64
3/17/2021 10:15:00 PM 3.74 38.732 0.111 7.17 53.42 12.66
3/17/2021 10:30:00 PM 3.68 38.624 0.111 7.16 29.29 12.68
3/17/2021 10:45:00 PM 3.62 38.516 0.111 7.15 32.86 12.69
3/17/2021 11:00:00 PM 3.56 38.408 0.111 7.15 24.19 12.72
3/17/2021 11:15:00 PM 3.5 38.3 0.111 7.15 25.34 12.73
3/17/2021 11:30:00 PM 3.44 38.192 0.11 7.15 50.02 12.75
3/17/2021 11:45:00 PM 3.39 38.102 0.11 7.15 30.43 12.77
3/18/2021 12:00:00 AM 3.34 38.012 0.11 7.15 28.61 12.79
3/18/2021 12:15:00 AM 3.31 37.958 0.11 7.14 31.42 12.81
3/18/2021 12:30:00 AM 3.28 37.904 0.11 7.14 22.9 12.82
3/18/2021 12:45:00 AM 3.26 37.868 0.11 7.14 37.32 12.84
3/18/2021 1:00:00 AM 3.25 37.85 0.11 7.14 29.33 12.84
3/18/2021 1:15:00 AM 3.24 37.832 0.11 7.14 20.8 12.85
3/18/2021 1:30:00 AM 3.23 37.814 0.11 7.13 20.23 12.86
3/18/2021 1:45:00 AM 3.22 37.796 0.11 7.14 23.61 12.86
3/18/2021 2:00:00 AM 3.21 37.778 0.11 7.14 27.69 12.87
3/18/2021 2:15:00 AM 3.2 37.76 0.11 7.14 37.09 12.87
3/18/2021 2:30:00 AM 3.19 37.742 0.11 7.13 23.59 12.87
3/18/2021 2:45:00 AM 3.18 37.724 0.11 7.14 35.09 12.87
3/18/2021 3:00:00 AM 3.18 37.724 0.11 7.13 29.39 12.88
3/18/2021 3:15:00 AM 3.17 37.706 0.11 7.13 55.06 12.88
3/18/2021 3:30:00 AM 3.16 37.688 0.11 7.13 29.7 12.88
3/18/2021 3:45:00 AM 3.16 37.688 0.11 7.13 52.93 12.88
3/18/2021 4:00:00 AM 3.15 37.67 0.11 7.13 31.58 12.88
3/18/2021 4:15:00 AM 3.14 37.652 0.11 7.13 29.93 12.89
3/18/2021 4:30:00 AM 3.13 37.634 0.11 7.13 23.15 12.89
3/18/2021 4:45:00 AM 3.12 37.616 0.11 7.13 30.65 12.89
3/18/2021 5:00:00 AM 3.11 37.598 0.11 7.13 22.09 12.89
3/18/2021 5:15:00 AM 3.09 37.562 0.111 7.13 20.75 12.89
3/18/2021 5:30:00 AM 3.08 37.544 0.11 7.13 19.08 12.9
3/18/2021 5:45:00 AM 3.07 37.526 0.111 7.13 19.78 12.9
3/18/2021 6:00:00 AM 3.05 37.49 0.111 7.12 18.73 12.9
3/18/2021 6:15:00 AM 3.04 37.472 0.111 7.12 18.06 12.91
3/18/2021 6:30:00 AM 3.02 37.436 0.111 7.12 25.98 12.91
3/18/2021 6:45:00 AM 3.01 37.418 0.111 7.12 16.97 12.92
3/18/2021 7:00:00 AM 3 37.4 0.111 7.12 17.91 12.92
3/18/2021 7:15:00 AM 2.98 37.364 0.111 7.12 14.85 12.93
3/18/2021 7:30:00 AM 2.97 37.346 0.111 7.12 16.43 12.94
3/18/2021 7:45:00 AM 2.96 37.328 0.111 7.12 15.33 12.94
3/18/2021 8:00:00 AM 2.95 37.31 0.111 7.13 15.21 12.95
3/18/2021 8:15:00 AM 2.94 37.292 0.111 7.12 16.78 12.96
3/18/2021 8:30:00 AM 2.94 37.292 0.11 7.12 15.08 12.97
3/18/2021 8:45:00 AM 2.93 37.274 0.11 7.12 14.92 12.97
3/18/2021 9:00:00 AM 2.93 37.274 0.11 7.12 15.09 12.98
3/18/2021 9:15:00 AM 2.93 37.274 0.11 7.12 14.37 12.99
3/18/2021 9:30:00 AM 2.93 37.274 0.11 7.13 13.93 13
3/18/2021 9:45:00 AM 2.93 37.274 0.11 7.12 14.95 13.02
3/18/2021 10:00:00 AM 2.94 37.292 0.11 7.13 15.58 13.03
3/18/2021 10:15:00 AM 2.95 37.31 0.109 7.13 15.97 13.03
3/18/2021 10:30:00 AM 2.96 37.328 0.109 7.13 20.34 13.03
3/18/2021 10:45:00 AM 2.97 37.346 0.109 7.13 24.37 13.04
3/18/2021 11:00:00 AM 2.99 37.382 0.109 7.13 28.35 13.05
3/18/2021 11:15:00 AM 3 37.4 0.109 7.14 20.69 13.06
3/18/2021 11:30:00 AM 3.02 37.436 0.109 7.15 31.89 13.06
3/18/2021 11:45:00 AM 3.05 37.49 0.11 7.14 45.22 13.05
3/18/2021 12:00:00 PM 3.07 37.526 0.111 7.15 66.76 13.04
3/18/2021 12:15:00 PM 3.09 37.562 0.112 7.15 132.87 13.03
3/18/2021 12:30:00 PM 3.1 37.58 0.113 7.14 162.68 13.03
3/18/2021 12:45:00 PM 3.09 37.562 0.114 7.16 166.07 13.05
3/18/2021 1:00:00 PM 3.02 37.436 0.116 7.16 231.1 13.09
3/18/2021 1:15:00 PM 2.96 37.328 0.118 7.16 233.24 13.13
3/18/2021 1:30:00 PM 2.9 37.22 0.118 7.14 242.26 13.17
3/18/2021 1:45:00 PM 2.86 37.148 0.117 7.13 272.86 13.2
3/18/2021 2:00:00 PM 2.85 37.13 0.114 7.12 292.68 13.22
3/18/2021 2:15:00 PM 2.83 37.094 0.113 7.1 377.26 13.23
3/18/2021 2:30:00 PM 2.83 37.094 0.112 7.06 327.97 13.24
3/18/2021 2:45:00 PM 2.82 37.076 0.112 7.05 370.02 13.25
3/18/2021 3:00:00 PM 2.82 37.076 0.111 7.03 302.09 13.25
3/18/2021 3:15:00 PM 2.83 37.094 0.11 7.03 369.45 13.25
3/18/2021 3:30:00 PM 2.84 37.112 0.107 7.02 347.22 13.25
3/18/2021 3:45:00 PM 2.87 37.166 0.104 7.01 407.43 13.23
3/18/2021 4:00:00 PM 2.89 37.202 0.102 7 323.62 13.23
3/18/2021 4:15:00 PM 2.9 37.22 0.1 6.99 347.07 13.22
3/18/2021 4:30:00 PM 2.91 37.238 0.098 6.95 296.41 13.21
3/18/2021 4:45:00 PM 2.93 37.274 0.097 6.91 281.43 13.2
3/18/2021 5:00:00 PM 2.94 37.292 0.095 6.86 263.91 13.19
3/18/2021 5:15:00 PM 2.95 37.31 0.094 6.86 326.18 13.18
3/18/2021 5:30:00 PM 2.96 37.328 0.092 6.85 257.67 13.18
3/18/2021 5:45:00 PM 2.96 37.328 0.091 6.83 236.59 13.18
3/18/2021 6:00:00 PM 2.97 37.346 0.09 6.83 232.51 13.17
3/18/2021 6:15:00 PM 2.98 37.364 0.089 6.8 183.7 13.16
3/18/2021 6:30:00 PM 2.97 37.346 0.088 6.83 214.66 13.16
3/18/2021 6:45:00 PM 2.97 37.346 0.087 6.82 206.85 13.16
3/18/2021 7:00:00 PM 2.96 37.328 0.087 6.81 184.45 13.16
3/18/2021 7:15:00 PM 2.95 37.31 0.086 6.82 176.48 13.17
3/18/2021 7:30:00 PM 2.94 37.292 0.086 6.8 180.67 13.17
3/18/2021 7:45:00 PM 2.93 37.274 0.086 6.81 123.03 13.17
3/18/2021 8:00:00 PM 2.92 37.256 0.086 6.82 146.3 13.17
3/18/2021 8:15:00 PM 2.91 37.238 0.085 6.82 144.47 13.18
3/18/2021 8:30:00 PM 2.89 37.202 0.085 6.82 136.48 13.18
3/18/2021 8:45:00 PM 2.88 37.184 0.085 6.82 160.64 13.19
3/18/2021 9:00:00 PM 2.86 37.148 0.084 6.84 131.21 13.19
3/18/2021 9:15:00 PM 2.85 37.13 0.084 6.85 138.8 13.2
3/18/2021 9:30:00 PM 2.82 37.076 0.084 6.84 109.09 13.2
3/18/2021 9:45:00 PM 2.79 37.022 0.084 6.83 113.38 13.2
3/18/2021 10:00:00 PM 2.77 36.986 0.084 6.84 111.34 13.21
3/18/2021 10:15:00 PM 2.75 36.95 0.084 6.84 108.11 13.22
3/18/2021 10:30:00 PM 2.72 36.896 0.084 6.85 96.98 13.22
3/18/2021 10:45:00 PM 2.69 36.842 0.084 6.84 96.93 13.23
3/18/2021 11:00:00 PM 2.67 36.806 0.084 6.84 109.98 13.24
3/18/2021 11:15:00 PM 2.64 36.752 0.084 6.86 111.83 13.25
3/18/2021 11:30:00 PM 2.61 36.698 0.084 6.87 99.37 13.26
3/18/2021 11:45:00 PM 2.57 36.626 0.084 6.88 89.11 13.27
3/19/2021 12:00:00 AM 2.54 36.572 0.084 6.87 94.81 13.28
3/19/2021 12:15:00 AM 2.5 36.5 0.084 6.88 80.13 13.29
3/19/2021 12:30:00 AM 2.45 36.41 0.084 6.88 103.53 13.3
3/19/2021 12:45:00 AM 2.41 36.338 0.084 6.89 113.53 13.32
3/19/2021 1:00:00 AM 2.36 36.248 0.084 6.89 79.37 13.32
3/19/2021 1:15:00 AM 2.31 36.158 0.084 6.9 106.89 13.35
3/19/2021 1:30:00 AM 2.26 36.068 0.084 6.9 65.88 13.36
3/19/2021 1:45:00 AM 2.22 35.996 0.085 6.9 75.33 13.38
3/19/2021 2:00:00 AM 2.17 35.906 0.085 6.91 81.37 13.39
3/19/2021 2:15:00 AM 2.13 35.834 0.085 6.93 52.47 13.41
3/19/2021 2:30:00 AM 2.08 35.744 0.085 6.94 93.59 13.43
3/19/2021 2:45:00 AM 2.03 35.654 0.085 6.94 69.5 13.45
3/19/2021 3:00:00 AM 1.99 35.582 0.086 6.94 52.58 13.46
3/19/2021 3:15:00 AM 1.93 35.474 0.086 6.94 73.5 13.48
3/19/2021 3:30:00 AM 1.88 35.384 0.086 6.94 53.66 13.5
3/19/2021 3:45:00 AM 1.82 35.276 0.086 6.93 60.15 13.52
3/19/2021 4:00:00 AM 1.75 35.15 0.087 6.94 70.6 13.54
3/19/2021 4:15:00 AM 1.69 35.042 0.087 6.94 53.33 13.57
3/19/2021 4:30:00 AM 1.62 34.916 0.087 6.94 67.04 13.59
3/19/2021 4:45:00 AM 1.57 34.826 0.087 6.94 53.94 13.61
3/19/2021 5:00:00 AM 1.5 34.7 0.088 6.95 66.86 13.64
3/19/2021 5:15:00 AM 1.44 34.592 0.088 6.95 45.05 13.66
3/19/2021 5:30:00 AM 1.38 34.484 0.088 6.96 40.48 13.69
3/19/2021 5:45:00 AM 1.32 34.376 0.088 6.95 40.26 13.71
3/19/2021 6:00:00 AM 1.27 34.286 0.089 6.94 37.42 13.73
3/19/2021 6:15:00 AM 1.22 34.196 0.089 6.93 42.65 13.76
3/19/2021 6:30:00 AM 1.18 34.124 0.089 6.9 54.37 13.78
3/19/2021 6:45:00 AM 1.13 34.034 0.089 6.91 51.5 13.8
3/19/2021 7:00:00 AM 1.07 33.926 0.089 6.91 29.47 13.83
3/19/2021 7:15:00 AM 1 33.8 0.09 6.9 52.03 13.86
3/19/2021 7:30:00 AM 0.95 33.71 0.09 6.89 32.23 13.89
3/19/2021 7:45:00 AM 0.89 33.602 0.09 6.88 77.62 13.91
3/19/2021 8:00:00 AM 0.85 33.53 0.09 6.88 35.83 13.94
3/19/2021 8:15:00 AM 0.8 33.44 0.091 6.89 33.91 13.97
3/19/2021 8:30:00 AM 0.74 33.332 0.091 6.88 34.76 14
3/19/2021 8:45:00 AM 0.73 33.314 0.091 6.88 37.23 14.03
3/19/2021 9:00:00 AM 0.74 33.332 0.091 6.89 29.55 14.05
3/19/2021 9:15:00 AM 0.76 33.368 0.091 6.91 22.56 14.06
3/19/2021 9:30:00 AM 0.78 33.404 0.091 6.92 37.82 14.08
3/19/2021 9:45:00 AM 0.81 33.458 0.091 6.92 34.93 14.09
3/19/2021 10:00:00 AM 0.85 33.53 0.092 6.93 26.52 14.1
3/19/2021 10:15:00 AM 0.93 33.674 0.092 6.94 20.4 14.1
3/19/2021 10:30:00 AM 1.04 33.872 0.092 6.96 45.88 14.09
3/19/2021 10:45:00 AM 1.15 34.07 0.092 6.97 27.43 14.06
3/19/2021 11:00:00 AM 1.28 34.304 0.092 6.97 33.82 14.04
3/19/2021 11:15:00 AM 1.44 34.592 0.092 6.99 27.85 14
3/19/2021 11:30:00 AM 1.64 34.952 0.093 7 51.05 13.95
3/19/2021 11:45:00 AM 1.83 35.294 0.093 7.01 38.29 13.9
3/19/2021 12:00:00 PM 2.03 35.654 0.093 7.02 35.83 13.84
3/19/2021 12:15:00 PM 2.24 36.032 0.093 7.03 30.93 13.78
3/19/2021 12:30:00 PM 2.45 36.41 0.093 7.05 34.13 13.71
3/19/2021 12:45:00 PM 2.65 36.77 0.093 7.07 35.44 13.65
3/19/2021 1:00:00 PM 2.86 37.148 0.093 7.08 35.85 13.58
3/19/2021 1:15:00 PM 3.06 37.508 0.093 7.08 28.67 13.51
3/19/2021 1:30:00 PM 3.26 37.868 0.093 7.1 64.67 13.44
3/19/2021 1:45:00 PM 3.47 38.246 0.093 7.1 31.93 13.37
3/19/2021 2:00:00 PM 3.65 38.57 0.093 7.1 25.97 13.31
3/19/2021 2:15:00 PM 3.82 38.876 0.093 7.11 46.72 13.25
3/19/2021 2:30:00 PM 3.98 39.164 0.094 7.12 31.42 13.19
3/19/2021 2:45:00 PM 4.11 39.398 0.094 7.12 33.63 13.13
3/19/2021 3:00:00 PM 4.23 39.614 0.094 7.13 26.98 13.08
3/19/2021 3:15:00 PM 4.34 39.812 0.094 7.12 23.06 13.04
3/19/2021 3:30:00 PM 4.42 39.956 0.094 7.13 38.14 13
3/19/2021 3:45:00 PM 4.48 40.064 0.094 7.14 29.87 12.96
3/19/2021 4:00:00 PM 4.54 40.172 0.094 7.13 27.04 12.93
3/19/2021 4:15:00 PM 4.56 40.208 0.094 7.13 20.75 12.9
3/19/2021 4:30:00 PM 4.56 40.208 0.094 7.14 19.66 12.88
3/19/2021 4:45:00 PM 4.54 40.172 0.094 7.13 24.35 12.87
3/19/2021 5:00:00 PM 4.51 40.118 0.094 7.13 27.51 12.85
3/19/2021 5:15:00 PM 4.45 40.01 0.094 7.13 26.11 12.84
3/19/2021 5:30:00 PM 4.39 39.902 0.094 7.13 34.55 12.84
3/19/2021 5:45:00 PM 4.3 39.74 0.094 7.13 43.54 12.84
3/19/2021 6:00:00 PM 4.22 39.596 0.095 7.13 29.8 12.84
3/19/2021 6:15:00 PM 4.12 39.416 0.095 7.11 27.58 12.86
3/19/2021 6:30:00 PM 4.02 39.236 0.095 7.11 35.3 12.87
3/19/2021 6:45:00 PM 3.92 39.056 0.095 7.11 36.77 12.89
3/19/2021 7:00:00 PM 3.8 38.84 0.095 7.1 40.07 12.91
3/19/2021 7:15:00 PM 3.69 38.642 0.095 7.1 59.33 12.93
3/19/2021 7:30:00 PM 3.58 38.444 0.095 7.1 24.82 12.96
3/19/2021 7:45:00 PM 3.45 38.21 0.095 7.09 52.67 12.99
3/19/2021 8:00:00 PM 3.34 38.012 0.095 7.09 40.61 13.02
3/19/2021 8:15:00 PM 3.23 37.814 0.095 7.08 36.68 13.06
3/19/2021 8:30:00 PM 3.12 37.616 0.095 7.08 38.74 13.09
3/19/2021 8:45:00 PM 3.03 37.454 0.095 7.09 28.33 13.12
3/19/2021 9:00:00 PM 2.93 37.274 0.095 7.08 38.16 13.15
3/19/2021 9:15:00 PM 2.84 37.112 0.095 7.07 27.07 13.19
3/19/2021 9:30:00 PM 2.75 36.95 0.096 7.07 25.99 13.22
3/19/2021 9:45:00 PM 2.66 36.788 0.096 7.07 23.79 13.26
3/19/2021 10:00:00 PM 2.58 36.644 0.096 7.07 17.02 13.29
3/19/2021 10:15:00 PM 2.49 36.482 0.096 7.06 14.72 13.33
3/19/2021 10:30:00 PM 2.41 36.338 0.096 7.05 19.87 13.36
3/19/2021 10:45:00 PM 2.33 36.194 0.096 7.06 31.75 13.39
3/19/2021 11:00:00 PM 2.25 36.05 0.096 7.05 22.43 13.42
3/19/2021 11:15:00 PM 2.17 35.906 0.096 7.06 18.95 13.46
3/19/2021 11:30:00 PM 2.09 35.762 0.096 7.05 20.8 13.49
3/19/2021 11:45:00 PM 2.01 35.618 0.096 7.04 19.91 13.52
3/20/2021 12:00:00 AM 1.94 35.492 0.096 7.04 19.12 13.56
3/20/2021 12:15:00 AM 1.86 35.348 0.096 7.05 18.72 13.59
3/20/2021 12:30:00 AM 1.78 35.204 0.097 7.04 26.76 13.62
3/20/2021 12:45:00 AM 1.71 35.078 0.097 7.05 20.14 13.65
3/20/2021 1:00:00 AM 1.63 34.934 0.097 7.04 21.36 13.68
3/20/2021 1:15:00 AM 1.56 34.808 0.097 7.04 20.07 13.71
3/20/2021 1:30:00 AM 1.49 34.682 0.097 7.04 19.19 13.74
3/20/2021 1:45:00 AM 1.42 34.556 0.097 7.03 17.91 13.77
3/20/2021 2:00:00 AM 1.36 34.448 0.097 7.05 16.89 13.81
3/20/2021 2:15:00 AM 1.29 34.322 0.097 7.03 17.19 13.84
3/20/2021 2:30:00 AM 1.22 34.196 0.097 7.03 18.77 13.86
3/20/2021 2:45:00 AM 1.17 34.106 0.098 7.04 16.31 13.89
3/20/2021 3:00:00 AM 1.11 33.998 0.098 7.04 16.4 13.92
3/20/2021 3:15:00 AM 1.05 33.89 0.098 7.02 16.62 13.93
3/20/2021 3:30:00 AM 1 33.8 0.098 7.03 16.34 13.96
3/20/2021 3:45:00 AM 0.95 33.71 0.098 7.03 16.41 13.98
3/20/2021 4:00:00 AM 0.91 33.638 0.098 7.03 16.65 13.99
3/20/2021 4:15:00 AM 0.86 33.548 0.098 7.03 15.84 14.01
3/20/2021 4:30:00 AM 0.82 33.476 0.098 7.03 16.77 14.03
3/20/2021 4:45:00 AM 0.78 33.404 0.098 7.01 16.2 14.05
3/20/2021 5:00:00 AM 0.74 33.332 0.099 7.01 15.25 14.06
3/20/2021 5:15:00 AM 0.7 33.26 0.099 7 15.59 14.08
3/20/2021 5:30:00 AM 0.67 33.206 0.099 7.01 15.67 14.1
3/20/2021 5:45:00 AM 0.63 33.134 0.099 7.01 14.8 14.11
3/20/2021 6:00:00 AM 0.6 33.08 0.099 7.02 14.72 14.13
3/20/2021 6:15:00 AM 0.57 33.026 0.099 7 14.78 14.14
3/20/2021 6:30:00 AM 0.54 32.972 0.099 6.97 14.69 14.16
3/20/2021 6:45:00 AM 0.51 32.918 0.099 6.97 15.72 14.17
3/20/2021 7:00:00 AM 0.48 32.864 0.099 6.96 15.7 14.18
3/20/2021 7:15:00 AM 0.46 32.828 0.099 6.96 14.43 14.19
3/20/2021 7:30:00 AM 0.44 32.792 0.1 6.94 14.9 14.21
3/20/2021 7:45:00 AM 0.42 32.756 0.1 6.96 15.57 14.23
3/20/2021 8:00:00 AM 0.42 32.756 0.1 6.94 14.9 14.25
3/20/2021 8:15:00 AM 0.43 32.774 0.1 6.98 14.64 14.26
3/20/2021 8:30:00 AM 0.46 32.828 0.1 6.97 15.06 14.27
3/20/2021 8:45:00 AM 0.49 32.882 0.1 6.99 14.04 14.28
3/20/2021 9:00:00 AM 0.54 32.972 0.1 7 13.77 14.29
3/20/2021 9:15:00 AM 0.61 33.098 0.1 7.02 14.77 14.28
3/20/2021 9:30:00 AM 0.69 33.242 0.1 7.02 13.85 14.28
3/20/2021 9:45:00 AM 0.78 33.404 0.1 7.05 14.64 14.27
3/20/2021 10:00:00 AM 0.88 33.584 0.1 7.06 14.16 14.26
3/20/2021 10:15:00 AM 1.01 33.818 0.101 7.08 14.01 14.24
3/20/2021 10:30:00 AM 1.15 34.07 0.101 7.09 14.74 14.21
3/20/2021 10:45:00 AM 1.3 34.34 0.101 7.1 12.49 14.18
3/20/2021 11:00:00 AM 1.48 34.664 0.101 7.09 12.69 14.14
3/20/2021 11:15:00 AM 1.67 35.006 0.101 7.11 13.93 14.08
3/20/2021 11:30:00 AM 1.9 35.42 0.101 7.1 14.48 14.01
3/20/2021 11:45:00 AM 2.16 35.888 0.101 7.12 14.07 13.94
3/20/2021 12:00:00 PM 2.45 36.41 0.101 7.1 13.76 13.85
3/20/2021 12:15:00 PM 2.74 36.932 0.101 7.14 12.65 13.76
3/20/2021 12:30:00 PM 3.03 37.454 0.101 7.12 15.55 13.66
3/20/2021 12:45:00 PM 3.29 37.922 0.101 7.14 21.82 13.57
3/20/2021 1:00:00 PM 3.56 38.408 0.101 7.15 38.43 13.48
3/20/2021 1:15:00 PM 3.82 38.876 0.101 7.16 31.63 13.38
3/20/2021 1:30:00 PM 4.08 39.344 0.101 7.14 26.08 13.31
3/20/2021 1:45:00 PM 4.32 39.776 0.101 7.18 24.43 13.22
3/20/2021 2:00:00 PM 4.53 40.154 0.101 7.2 22.38 13.13
3/20/2021 2:15:00 PM 4.75 40.55 0.101 7.19 20.08 13.04
3/20/2021 2:30:00 PM 4.95 40.91 0.1 7.2 15.73 12.97
3/20/2021 2:45:00 PM 5.14 41.252 0.1 7.19 19.41 12.89
3/20/2021 3:00:00 PM 5.31 41.558 0.1 7.21 15.65 12.82
3/20/2021 3:15:00 PM 5.46 41.828 0.1 7.2 16.46 12.76
3/20/2021 3:30:00 PM 5.58 42.044 0.1 7.2 22.54 12.7
3/20/2021 3:45:00 PM 5.68 42.224 0.1 7.2 19.86 12.64
3/20/2021 4:00:00 PM 5.76 42.368 0.1 7.21 19.74 12.6
3/20/2021 4:15:00 PM 5.81 42.458 0.1 7.21 19.08 12.57
3/20/2021 4:30:00 PM 5.83 42.494 0.1 7.2 17.36 12.54
3/20/2021 4:45:00 PM 5.83 42.494 0.1 7.21 19 12.51
3/20/2021 5:00:00 PM 5.81 42.458 0.1 7.2 20.21 12.49
3/20/2021 5:15:00 PM 5.78 42.404 0.099 7.18 19.94 12.48
3/20/2021 5:30:00 PM 5.72 42.296 0.099 7.2 16.75 12.47
3/20/2021 5:45:00 PM 5.66 42.188 0.099 7.19 17.05 12.46
3/20/2021 6:00:00 PM 5.58 42.044 0.099 7.18 22.78 12.46
3/20/2021 6:15:00 PM 5.51 41.918 0.099 7.18 18.88 12.46
3/20/2021 6:30:00 PM 5.43 41.774 0.099 7.19 12.78 12.46
3/20/2021 6:45:00 PM 5.35 41.63 0.099 7.15 17.99 12.46
3/20/2021 7:00:00 PM 5.27 41.486 0.099 7.17 17.39 12.47
3/20/2021 7:15:00 PM 5.17 41.306 0.099 7.16 18.98 12.47
3/20/2021 7:30:00 PM 5.08 41.144 0.099 7.14 19.28 12.48
3/20/2021 7:45:00 PM 4.99 40.982 0.099 7.15 18.93 12.49
3/20/2021 8:00:00 PM 4.9 40.82 0.099 7.14 16.9 12.51
3/20/2021 8:15:00 PM 4.79 40.622 0.099 7.13 17.38 12.52
3/20/2021 8:30:00 PM 4.7 40.46 0.099 7.12 16.85 12.54
3/20/2021 8:45:00 PM 4.61 40.298 0.099 7.12 16.8 12.57
3/20/2021 9:00:00 PM 4.51 40.118 0.099 7.12 17.94 12.59
3/20/2021 9:15:00 PM 4.42 39.956 0.099 7.11 17.18 12.62
3/20/2021 9:30:00 PM 4.33 39.794 0.099 7.11 21.88 12.64
3/20/2021 9:45:00 PM 4.24 39.632 0.099 7.1 25.22 12.67
3/20/2021 10:00:00 PM 4.15 39.47 0.099 7.1 19.44 12.7
3/20/2021 10:15:00 PM 4.06 39.308 0.099 7.11 18.68 12.72
3/20/2021 10:30:00 PM 3.96 39.128 0.099 7.1 14.51 12.76
3/20/2021 10:45:00 PM 3.87 38.966 0.099 7.1 14.27 12.79
3/20/2021 11:00:00 PM 3.78 38.804 0.099 7.1 21.22 12.82
3/20/2021 11:15:00 PM 3.68 38.624 0.099 7.09 21.42 12.85
3/20/2021 11:30:00 PM 3.6 38.48 0.099 7.1 17.35 12.88
3/20/2021 11:45:00 PM 3.51 38.318 0.099 7.06 17.6 12.92
3/21/2021 12:00:00 AM 3.42 38.156 0.1 7.09 13.18 12.94
3/21/2021 12:15:00 AM 3.33 37.994 0.1 7.08 16.22 12.98
3/21/2021 12:30:00 AM 3.24 37.832 0.1 7.07 14.09 13.01
3/21/2021 12:45:00 AM 3.16 37.688 0.1 7.08 15.57 13.04
3/21/2021 1:00:00 AM 3.07 37.526 0.1 7.07 19.56 13.07
3/21/2021 1:15:00 AM 2.99 37.382 0.1 7.08 16.02 13.11
3/21/2021 1:30:00 AM 2.9 37.22 0.1 7.07 16.39 13.14
3/21/2021 1:45:00 AM 2.82 37.076 0.1 7.07 15.48 13.17
3/21/2021 2:00:00 AM 2.73 36.914 0.1 7.07 16.5 13.2
3/21/2021 2:15:00 AM 2.65 36.77 0.1 7.06 15.74 13.24
3/21/2021 2:30:00 AM 2.58 36.644 0.1 7.07 15.46 13.26
3/21/2021 2:45:00 AM 2.49 36.482 0.1 7.08 16.76 13.29
3/21/2021 3:00:00 AM 2.42 36.356 0.1 7.06 15.78 13.33
3/21/2021 3:15:00 AM 2.34 36.212 0.1 7.08 14.43 13.36
3/21/2021 3:30:00 AM 2.26 36.068 0.101 7.05 15.58 13.39
3/21/2021 3:45:00 AM 2.19 35.942 0.101 7.08 15.17 13.43
3/21/2021 4:00:00 AM 2.12 35.816 0.101 7.05 14.66 13.47
3/21/2021 4:15:00 AM 2.05 35.69 0.101 7.07 14.61 13.51
3/21/2021 4:30:00 AM 1.98 35.564 0.101 7.08 14.32 13.54
3/21/2021 4:45:00 AM 1.91 35.438 0.101 7.06 14.05 13.56
3/21/2021 5:00:00 AM 1.85 35.33 0.101 7.07 13.9 13.58
3/21/2021 5:15:00 AM 1.79 35.222 0.101 7.06 13.98 13.6
3/21/2021 5:30:00 AM 1.73 35.114 0.101 7.06 14.31 13.63
3/21/2021 5:45:00 AM 1.67 35.006 0.101 7.06 14.16 13.66
3/21/2021 6:00:00 AM 1.62 34.916 0.102 7.07 13.33 13.68
3/21/2021 6:15:00 AM 1.56 34.808 0.102 7.05 13.03 13.71
3/21/2021 6:30:00 AM 1.51 34.718 0.102 7.07 14.4 13.73
3/21/2021 6:45:00 AM 1.46 34.628 0.102 7.06 12.62 13.75
3/21/2021 7:00:00 AM 1.41 34.538 0.102 7.06 12.59 13.78
3/21/2021 7:15:00 AM 1.36 34.448 0.102 7.06 13 13.79
3/21/2021 7:30:00 AM 1.32 34.376 0.102 7.05 12.83 13.82
3/21/2021 7:45:00 AM 1.29 34.322 0.102 7.06 12.59 13.85
3/21/2021 8:00:00 AM 1.27 34.286 0.102 7.06 12.38 13.88
3/21/2021 8:15:00 AM 1.27 34.286 0.102 7.06 12.31 13.9
3/21/2021 8:30:00 AM 1.28 34.304 0.102 7.07 13.16 13.92
3/21/2021 8:45:00 AM 1.31 34.358 0.102 7.07 12.87 13.93
3/21/2021 9:00:00 AM 1.35 34.43 0.103 7.07 12.52 13.95
3/21/2021 9:15:00 AM 1.41 34.538 0.103 7.07 11.93 13.96
3/21/2021 9:30:00 AM 1.49 34.682 0.103 7.08 12.1 13.96
3/21/2021 9:45:00 AM 1.57 34.826 0.103 7.08 12.94 13.95
3/21/2021 10:00:00 AM 1.69 35.042 0.103 7.09 12.27 13.94
3/21/2021 10:15:00 AM 1.82 35.276 0.103 7.09 12.23 13.92
3/21/2021 10:30:00 AM 1.97 35.546 0.103 7.1 11.91 13.89
3/21/2021 10:45:00 AM 2.14 35.852 0.103 7.1 12.06 13.86
3/21/2021 11:00:00 AM 2.33 36.194 0.103 7.1 12.29 13.81
3/21/2021 11:15:00 AM 2.53 36.554 0.103 7.11 11.42 13.77
3/21/2021 11:30:00 AM 2.77 36.986 0.103 7.11 12.3 13.71
3/21/2021 11:45:00 AM 3.03 37.454 0.103 7.12 11.8 13.62
3/21/2021 12:00:00 PM 3.32 37.976 0.103 7.13 11.8 13.53
3/21/2021 12:15:00 PM 3.61 38.498 0.103 7.14 12.08 13.44
3/21/2021 12:30:00 PM 3.9 39.02 0.103 7.14 12 13.34
3/21/2021 12:45:00 PM 4.2 39.56 0.103 7.14 11.1 13.25
3/21/2021 1:00:00 PM 4.49 40.082 0.103 7.16 11.4 13.15
3/21/2021 1:15:00 PM 4.78 40.604 0.103 7.16 11.58 13.05
3/21/2021 1:30:00 PM 5.05 41.09 0.103 7.16 11.9 12.95
3/21/2021 1:45:00 PM 5.32 41.576 0.103 7.17 12.81 12.85
3/21/2021 2:00:00 PM 5.57 42.026 0.103 7.18 11.87 12.77
3/21/2021 2:15:00 PM 5.82 42.476 0.103 7.18 11.81 12.69
3/21/2021 2:30:00 PM 6.05 42.89 0.103 7.19 12.35 12.61
3/21/2021 2:45:00 PM 6.25 43.25 0.103 7.19 12.53 12.52
3/21/2021 3:00:00 PM 6.44 43.592 0.103 7.2 12.27 12.45
3/21/2021 3:15:00 PM 6.6 43.88 0.103 7.21 12.39 12.39
3/21/2021 3:30:00 PM 6.74 44.132 0.103 7.21 12.66 12.34
3/21/2021 3:45:00 PM 6.85 44.33 0.103 7.22 12.91 12.29
3/21/2021 4:00:00 PM 6.93 44.474 0.103 7.22 12.71 12.24
3/21/2021 4:15:00 PM 6.99 44.582 0.103 7.22 12.32 12.2
3/21/2021 4:30:00 PM 7.02 44.636 0.103 7.22 12.04 12.16
3/21/2021 4:45:00 PM 7.02 44.636 0.103 7.22 12.02 12.13
3/21/2021 5:00:00 PM 7 44.6 0.103 7.23 14.79 12.11
3/21/2021 5:15:00 PM 6.96 44.528 0.103 7.24 12.43 12.1
3/21/2021 5:30:00 PM 6.9 44.42 0.103 7.23 12.92 12.09
3/21/2021 5:45:00 PM 6.82 44.276 0.103 7.23 13.56 12.1
3/21/2021 6:00:00 PM 6.73 44.114 0.103 7.22 13.54 12.09
3/21/2021 6:15:00 PM 6.65 43.97 0.103 7.23 12.81 12.09
3/21/2021 6:30:00 PM 6.56 43.808 0.103 7.22 12.99 12.09
3/21/2021 6:45:00 PM 6.46 43.628 0.103 7.21 11.73 12.08
3/21/2021 7:00:00 PM 6.37 43.466 0.103 7.2 12.66 12.07
3/21/2021 7:15:00 PM 6.27 43.286 0.103 7.2 13.16 12.07
3/21/2021 7:30:00 PM 6.17 43.106 0.103 7.18 12.6 12.08
3/21/2021 7:45:00 PM 6.07 42.926 0.103 7.18 12.81 12.08
3/21/2021 8:00:00 PM 5.97 42.746 0.103 7.18 13.23 12.1
3/21/2021 8:15:00 PM 5.88 42.584 0.103 7.17 13.54 12.12
3/21/2021 8:30:00 PM 5.78 42.404 0.103 7.16 13.87 12.13
3/21/2021 8:45:00 PM 5.69 42.242 0.103 7.16 14.29 12.14
3/21/2021 9:00:00 PM 5.59 42.062 0.103 7.15 15.74 12.16
3/21/2021 9:15:00 PM 5.5 41.9 0.103 7.15 14.04 12.18
3/21/2021 9:30:00 PM 5.42 41.756 0.102 7.14 14.75 12.2
3/21/2021 9:45:00 PM 5.33 41.594 0.102 7.13 15.47 12.23
3/21/2021 10:00:00 PM 5.25 41.45 0.102 7.13 15.19 12.26
3/21/2021 10:15:00 PM 5.17 41.306 0.102 7.13 14.58 12.29
3/21/2021 10:30:00 PM 5.08 41.144 0.102 7.12 15.15 12.32
3/21/2021 10:45:00 PM 4.99 40.982 0.102 7.12 16.57 12.35
3/21/2021 11:00:00 PM 4.91 40.838 0.102 7.12 15.11 12.38
3/21/2021 11:15:00 PM 4.82 40.676 0.102 7.12 16.3 12.4
3/21/2021 11:30:00 PM 4.73 40.514 0.102 7.12 16.21 12.43
3/21/2021 11:45:00 PM 4.64 40.352 0.102 7.11 15.66 12.45
3/22/2021 12:00:00 AM 4.55 40.19 0.102 7.11 14.95 12.48
3/22/2021 12:15:00 AM 4.47 40.046 0.102 7.1 15.44 12.51
3/22/2021 12:30:00 AM 4.38 39.884 0.102 7.12 16.33 12.54
3/22/2021 12:45:00 AM 4.29 39.722 0.102 7.09 23.72 12.57
3/22/2021 1:00:00 AM 4.2 39.56 0.102 7.1 16.63 12.6
3/22/2021 1:15:00 AM 4.12 39.416 0.102 7.1 15.47 12.64
3/22/2021 1:30:00 AM 4.03 39.254 0.102 7.1 16.2 12.67
3/22/2021 1:45:00 AM 3.94 39.092 0.102 7.09 16.35 12.7
3/22/2021 2:00:00 AM 3.86 38.948 0.102 7.09 15.74 12.73
3/22/2021 2:15:00 AM 3.78 38.804 0.102 7.09 14.85 12.76
3/22/2021 2:30:00 AM 3.69 38.642 0.102 7.08 16.47 12.79
3/22/2021 2:45:00 AM 3.62 38.516 0.102 7.08 15.24 12.82
3/22/2021 3:00:00 AM 3.54 38.372 0.103 7.08 15.92 12.85
3/22/2021 3:15:00 AM 3.45 38.21 0.102 7.07 15.53 12.88
3/22/2021 3:30:00 AM 3.37 38.066 0.103 7.08 15.31 12.91
3/22/2021 3:45:00 AM 3.3 37.94 0.103 7.08 14.64 12.94
3/22/2021 4:00:00 AM 3.22 37.796 0.103 7.07 15.37 12.97
3/22/2021 4:15:00 AM 3.14 37.652 0.103 7.07 14.78 12.99
3/22/2021 4:30:00 AM 3.07 37.526 0.103 7.07 14.33 13.02
3/22/2021 4:45:00 AM 2.99 37.382 0.103 7.07 17.4 13.05
3/22/2021 5:00:00 AM 2.92 37.256 0.103 7.07 16.33 13.08
3/22/2021 5:15:00 AM 2.85 37.13 0.103 7.07 15.66 13.1
3/22/2021 5:30:00 AM 2.78 37.004 0.103 7.07 15.09 13.13
3/22/2021 5:45:00 AM 2.71 36.878 0.103 7.06 14.2 13.16
3/22/2021 6:00:00 AM 2.65 36.77 0.103 7.07 14.58 13.18
3/22/2021 6:15:00 AM 2.59 36.662 0.103 7.07 14.5 13.2
3/22/2021 6:30:00 AM 2.53 36.554 0.103 7.07 13.94 13.23
3/22/2021 6:45:00 AM 2.47 36.446 0.103 7.07 13.96 13.25
3/22/2021 7:00:00 AM 2.41 36.338 0.103 7.06 14.42 13.28
3/22/2021 7:15:00 AM 2.36 36.248 0.104 7.06 13.96 13.31
3/22/2021 7:30:00 AM 2.31 36.158 0.104 7.06 14.16 13.34
3/22/2021 7:45:00 AM 2.27 36.086 0.104 7.06 13.88 13.37
3/22/2021 8:00:00 AM 2.25 36.05 0.104 7.07 13.45 13.4
3/22/2021 8:15:00 AM 2.24 36.032 0.104 7.08 16.33 13.43
3/22/2021 8:30:00 AM 2.25 36.05 0.104 7.07 13.76 13.46
3/22/2021 8:45:00 AM 2.27 36.086 0.104 7.08 12.88 13.48
3/22/2021 9:00:00 AM 2.32 36.176 0.104 7.08 13.2 13.48
3/22/2021 9:15:00 AM 2.37 36.266 0.104 7.08 12.5 13.5
3/22/2021 9:30:00 AM 2.44 36.392 0.104 7.09 12.99 13.5
3/22/2021 9:45:00 AM 2.53 36.554 0.104 7.09 13.19 13.5
3/22/2021 10:00:00 AM 2.65 36.77 0.104 7.1 13.36 13.48
3/22/2021 10:15:00 AM 2.79 37.022 0.104 7.1 12.4 13.46
3/22/2021 10:30:00 AM 2.94 37.292 0.104 7.11 12.74 13.44
3/22/2021 10:45:00 AM 3.11 37.598 0.104 7.11 11.76 13.41
3/22/2021 11:00:00 AM 3.29 37.922 0.104 7.12 11.58 13.37
3/22/2021 11:15:00 AM 3.5 38.3 0.104 7.12 11.84 13.32
3/22/2021 11:30:00 AM 3.73 38.714 0.104 7.13 12.17 13.26
3/22/2021 11:45:00 AM 3.99 39.182 0.104 7.13 11.45 13.19
3/22/2021 12:00:00 PM 4.26 39.668 0.104 7.14 12.01 13.12
3/22/2021 12:15:00 PM 4.55 40.19 0.104 7.15 11.22 13.05
3/22/2021 12:30:00 PM 4.84 40.712 0.104 7.16 11.38 12.96
3/22/2021 12:45:00 PM 5.14 41.252 0.104 7.17 11.67 12.86
3/22/2021 1:00:00 PM 5.43 41.774 0.104 7.17 11.92 12.76
3/22/2021 1:15:00 PM 5.71 42.278 0.104 7.19 11.8 12.67
3/22/2021 1:30:00 PM 5.99 42.782 0.104 7.19 11.89 12.59
3/22/2021 1:45:00 PM 6.24 43.232 0.104 7.2 25.24 12.5
3/22/2021 2:00:00 PM 6.47 43.646 0.104 7.21 36.46 12.41
3/22/2021 2:15:00 PM 6.69 44.042 0.104 7.22 33.4 12.33
3/22/2021 2:30:00 PM 6.92 44.456 0.104 7.22 42.47 12.25
3/22/2021 2:45:00 PM 7.12 44.816 0.104 7.2 28.47 12.18
3/22/2021 3:00:00 PM 7.31 45.158 0.104 7.22 18.47 12.13
3/22/2021 3:15:00 PM 7.45 45.41 0.104 7.24 31.99 12.07
3/22/2021 3:30:00 PM 7.57 45.626 0.104 7.23 30.09 12.01
3/22/2021 3:45:00 PM 7.67 45.806 0.104 7.24 40.94 11.95
3/22/2021 4:00:00 PM 7.74 45.932 0.104 7.24 36.09 11.91
3/22/2021 4:15:00 PM 7.8 46.04 0.104 7.24 29.42 11.88
3/22/2021 4:30:00 PM 7.82 46.076 0.104 7.24 27.14 11.86
3/22/2021 4:45:00 PM 7.82 46.076 0.104 7.24 17.38 11.84
3/22/2021 5:00:00 PM 7.8 46.04 0.104 7.24 24.33 11.82
3/22/2021 5:15:00 PM 7.77 45.986 0.104 7.25 23.86 11.8
3/22/2021 5:30:00 PM 7.71 45.878 0.104 7.24 15.23 11.79
3/22/2021 5:45:00 PM 7.63 45.734 0.104 7.24 18.86 11.77
3/22/2021 6:00:00 PM 7.54 45.572 0.104 7.23 17.89 11.77
3/22/2021 6:15:00 PM 7.45 45.41 0.104 7.23 15.25 11.76
3/22/2021 6:30:00 PM 7.36 45.248 0.104 7.23 16.98 11.77
3/22/2021 6:45:00 PM 7.26 45.068 0.104 7.22 16.65 11.77
3/22/2021 7:00:00 PM 7.16 44.888 0.104 7.21 18.56 11.76
3/22/2021 7:15:00 PM 7.06 44.708 0.104 7.2 17.24 11.75
3/22/2021 7:30:00 PM 6.96 44.528 0.104 7.19 15.97 11.74
3/22/2021 7:45:00 PM 6.86 44.348 0.104 7.18 16.33 11.75
3/22/2021 8:00:00 PM 6.76 44.168 0.104 7.17 16.12 11.76
3/22/2021 8:15:00 PM 6.66 43.988 0.104 7.16 15.98 11.78
3/22/2021 8:30:00 PM 6.57 43.826 0.104 7.16 16.45 11.8
3/22/2021 8:45:00 PM 6.47 43.646 0.104 7.15 14.97 11.82
3/22/2021 9:00:00 PM 6.38 43.484 0.104 7.15 15.82 11.82
3/22/2021 9:15:00 PM 6.29 43.322 0.104 7.15 15.82 11.85
3/22/2021 9:30:00 PM 6.2 43.16 0.104 7.14 16.38 11.86
3/22/2021 9:45:00 PM 6.12 43.016 0.104 7.14 14.75 11.88
3/22/2021 10:00:00 PM 6.04 42.872 0.103 7.14 18.1 11.91
3/22/2021 10:15:00 PM 5.96 42.728 0.103 7.13 16.61 11.94
3/22/2021 10:30:00 PM 5.88 42.584 0.103 7.13 15.91 11.97
3/22/2021 10:45:00 PM 5.8 42.44 0.103 7.13 16.17 11.99
3/22/2021 11:00:00 PM 5.72 42.296 0.103 7.13 15.79 12.01
3/22/2021 11:15:00 PM 5.63 42.134 0.103 7.13 19.17 12.04
3/22/2021 11:30:00 PM 5.54 41.972 0.103 7.12 17.89 12.07
3/22/2021 11:45:00 PM 5.46 41.828 0.103 7.11 18.98 12.09
3/23/2021 12:00:00 AM 5.37 41.666 0.103 7.11 16.62 12.11
3/23/2021 12:15:00 AM 5.28 41.504 0.103 7.11 16.87 12.14
3/23/2021 12:30:00 AM 5.2 41.36 0.103 7.12 18.31 12.17
3/23/2021 12:45:00 AM 5.11 41.198 0.103 7.1 16.32 12.19
3/23/2021 1:00:00 AM 5.03 41.054 0.103 7.12 16.24 12.23
3/23/2021 1:15:00 AM 4.94 40.892 0.103 7.11 17.5 12.26
3/23/2021 1:30:00 AM 4.86 40.748 0.103 7.11 18.64 12.3
3/23/2021 1:45:00 AM 4.78 40.604 0.103 7.11 18.27 12.32
3/23/2021 2:00:00 AM 4.7 40.46 0.103 7.11 17.51 12.36
3/23/2021 2:15:00 AM 4.62 40.316 0.103 7.1 16.99 12.38
3/23/2021 2:30:00 AM 4.54 40.172 0.103 7.1 16.49 12.41
3/23/2021 2:45:00 AM 4.46 40.028 0.103 7.1 18.14 12.44
3/23/2021 3:00:00 AM 4.38 39.884 0.103 7.1 16.76 12.46
3/23/2021 3:15:00 AM 4.3 39.74 0.103 7.1 17.02 12.49
3/23/2021 3:30:00 AM 4.22 39.596 0.103 7.1 14.99 12.52
3/23/2021 3:45:00 AM 4.14 39.452 0.103 7.1 15.51 12.55
3/23/2021 4:00:00 AM 4.06 39.308 0.103 7.1 16.03 12.58
3/23/2021 4:15:00 AM 3.99 39.182 0.103 7.1 17.27 12.61
3/23/2021 4:30:00 AM 3.92 39.056 0.103 7.09 16.3 12.63
3/23/2021 4:45:00 AM 3.85 38.93 0.103 7.1 16.44 12.66
3/23/2021 5:00:00 AM 3.77 38.786 0.103 7.1 16.53 12.69
3/23/2021 5:15:00 AM 3.7 38.66 0.103 7.09 16.5 12.71
3/23/2021 5:30:00 AM 3.63 38.534 0.103 7.09 15.78 12.74
3/23/2021 5:45:00 AM 3.56 38.408 0.103 7.07 15.56 12.76
3/23/2021 6:00:00 AM 3.49 38.282 0.103 7.08 16.19 12.79
3/23/2021 6:15:00 AM 3.42 38.156 0.104 7.08 17.51 12.81
3/23/2021 6:30:00 AM 3.35 38.03 0.104 7.08 15.17 12.84
3/23/2021 6:45:00 AM 3.28 37.904 0.104 7.09 15 12.87
3/23/2021 7:00:00 AM 3.22 37.796 0.104 7.08 15.56 12.89
3/23/2021 7:15:00 AM 3.16 37.688 0.104 7.08 14.89 12.92
3/23/2021 7:30:00 AM 3.11 37.598 0.104 7.08 13.54 12.95
3/23/2021 7:45:00 AM 3.07 37.526 0.104 7.08 14.87 12.99
3/23/2021 8:00:00 AM 3.04 37.472 0.104 7.09 15.13 13.02
3/23/2021 8:15:00 AM 3.03 37.454 0.104 7.09 14.24 13.06
3/23/2021 8:30:00 AM 3.04 37.472 0.104 7.1 14.57 13.09
3/23/2021 8:45:00 AM 3.06 37.508 0.104 7.1 13.36 13.1
3/23/2021 9:00:00 AM 3.1 37.58 0.104 7.11 14.34 13.12
3/23/2021 9:15:00 AM 3.16 37.688 0.104 7.12 13.77 13.14
3/23/2021 9:30:00 AM 3.23 37.814 0.104 7.12 14.59 13.15
3/23/2021 9:45:00 AM 3.32 37.976 0.104 7.12 14.18 13.16
3/23/2021 10:00:00 AM 3.43 38.174 0.104 7.13 12.44 13.15
3/23/2021 10:15:00 AM 3.57 38.426 0.104 7.13 12.39 13.14
3/23/2021 10:30:00 AM 3.72 38.696 0.104 7.13 13.88 13.13
3/23/2021 10:45:00 AM 3.9 39.02 0.104 7.15 16.64 13.1
3/23/2021 11:00:00 AM 4.06 39.308 0.104 7.14 40.82 13.06
3/23/2021 11:15:00 AM 4.25 39.65 0.104 7.15 42.07 13
3/23/2021 11:30:00 AM 4.47 40.046 0.104 7.15 57.37 12.94
3/23/2021 11:45:00 AM 4.71 40.478 0.104 7.16 51.26 12.89
3/23/2021 12:00:00 PM 4.98 40.964 0.104 7.17 32.64 12.83
3/23/2021 12:15:00 PM 5.24 41.432 0.104 7.18 21.21 12.76
3/23/2021 12:30:00 PM 5.52 41.936 0.104 7.19 32.68 12.69
3/23/2021 12:45:00 PM 5.8 42.44 0.104 7.2 35.62 12.6
3/23/2021 1:00:00 PM 6.06 42.908 0.104 7.21 46.11 12.52
3/23/2021 1:15:00 PM 6.32 43.376 0.104 7.19 26.17 12.44
3/23/2021 1:30:00 PM 6.6 43.88 0.104 7.22 22.6 12.38
3/23/2021 1:45:00 PM 6.87 44.366 0.103 7.23 19.34 12.3
3/23/2021 2:00:00 PM 7.11 44.798 0.103 7.23 22.43 12.22
3/23/2021 2:15:00 PM 7.31 45.158 0.103 7.23 17.81 12.13
3/23/2021 2:30:00 PM 7.52 45.536 0.103 7.24 16.09 12.07
3/23/2021 2:45:00 PM 7.69 45.842 0.103 7.25 13.75 12.02
3/23/2021 3:00:00 PM 7.84 46.112 0.103 7.25 14.71 11.96
3/23/2021 3:15:00 PM 7.93 46.274 0.103 7.25 13.27 11.91
3/23/2021 3:30:00 PM 8.01 46.418 0.103 7.26 18.4 11.86
3/23/2021 3:45:00 PM 8.11 46.598 0.103 7.26 13.53 11.82
3/23/2021 4:00:00 PM 8.14 46.652 0.103 7.26 13.54 11.78
3/23/2021 4:15:00 PM 8.18 46.724 0.103 7.26 12.6 11.75
3/23/2021 4:30:00 PM 8.17 46.706 0.103 7.27 13.25 11.73
3/23/2021 4:45:00 PM 8.14 46.652 0.103 7.26 12.94 11.71
3/23/2021 5:00:00 PM 8.12 46.616 0.103 7.26 12.86 11.7
3/23/2021 5:15:00 PM 8.08 46.544 0.103 7.27 13.51 11.68
3/23/2021 5:30:00 PM 8.01 46.418 0.103 7.26 14.06 11.67
3/23/2021 5:45:00 PM 7.94 46.292 0.103 7.26 13 11.67
3/23/2021 6:00:00 PM 7.88 46.184 0.103 7.26 13.44 11.67
3/23/2021 6:15:00 PM 7.8 46.04 0.103 7.25 13.02 11.66
3/23/2021 6:30:00 PM 7.73 45.914 0.103 7.24 12.87 11.64
3/23/2021 6:45:00 PM 7.66 45.788 0.103 7.23 13.49 11.63
3/23/2021 7:00:00 PM 7.59 45.662 0.103 7.23 13.46 11.62
3/23/2021 7:15:00 PM 7.52 45.536 0.103 7.22 14.38 11.6
3/23/2021 7:30:00 PM 7.44 45.392 0.104 7.21 14.32 11.59
3/23/2021 7:45:00 PM 7.37 45.266 0.104 7.2 14.08 11.58
3/23/2021 8:00:00 PM 7.3 45.14 0.104 7.19 15.51 11.57
3/23/2021 8:15:00 PM 7.23 45.014 0.104 7.19 15.56 11.58
3/23/2021 8:30:00 PM 7.15 44.87 0.104 7.18 16.45 11.59
3/23/2021 8:45:00 PM 7.08 44.744 0.104 7.18 16.21 11.6
3/23/2021 9:00:00 PM 7.01 44.618 0.104 7.17 17.01 11.61
3/23/2021 9:15:00 PM 6.94 44.492 0.104 7.16 18.77 11.62
3/23/2021 9:30:00 PM 6.88 44.384 0.104 7.16 21.64 11.63
3/23/2021 9:45:00 PM 6.81 44.258 0.103 7.15 21.45 11.64
3/23/2021 10:00:00 PM 6.75 44.15 0.103 7.15 23.9 11.65
3/23/2021 10:15:00 PM 6.68 44.024 0.103 7.14 30.65 11.66
3/23/2021 10:30:00 PM 6.62 43.916 0.103 7.14 26.61 11.68
3/23/2021 10:45:00 PM 6.56 43.808 0.103 7.14 28.29 11.71
3/23/2021 11:00:00 PM 6.5 43.7 0.103 7.13 28.12 11.73
3/23/2021 11:15:00 PM 6.43 43.574 0.103 7.13 16.96 11.75
3/23/2021 11:30:00 PM 6.37 43.466 0.103 7.13 21.15 11.77
3/23/2021 11:45:00 PM 6.31 43.358 0.103 7.13 18.92 11.79
3/24/2021 12:00:00 AM 6.24 43.232 0.103 7.13 20.03 11.8
3/24/2021 12:15:00 AM 6.18 43.124 0.103 7.13 18.62 11.82
3/24/2021 12:30:00 AM 6.12 43.016 0.103 7.13 19.3 11.83
3/24/2021 12:45:00 AM 6.06 42.908 0.103 7.13 17.5 11.84
3/24/2021 1:00:00 AM 6.01 42.818 0.103 7.12 18.64 11.86
3/24/2021 1:15:00 AM 5.98 42.764 0.103 7.13 17.3 11.87
3/24/2021 1:30:00 AM 5.95 42.71 0.103 7.13 17.94 11.89
3/24/2021 1:45:00 AM 5.93 42.674 0.103 7.13 23.72 11.9
3/24/2021 2:00:00 AM 5.9 42.62 0.103 7.11 20.26 11.91
3/24/2021 2:15:00 AM 5.88 42.584 0.103 7.12 18.4 11.93
3/24/2021 2:30:00 AM 5.85 42.53 0.103 7.12 18.85 11.94
3/24/2021 2:45:00 AM 5.81 42.458 0.103 7.12 12.2 11.95
3/24/2021 3:00:00 AM 5.76 42.368 0.103 7.12 17.59 11.96
3/24/2021 3:15:00 AM 5.72 42.296 0.103 7.12 17.64 11.98
3/24/2021 3:30:00 AM 5.67 42.206 0.103 7.12 17.23 11.99
3/24/2021 3:45:00 AM 5.62 42.116 0.103 7.12 17.76 12.01
3/24/2021 4:00:00 AM 5.59 42.062 0.103 7.12 13.63 12.02
3/24/2021 4:15:00 AM 5.56 42.008 0.103 7.12 17.11 12.03
3/24/2021 4:30:00 AM 5.54 41.972 0.103 7.11 16.79 12.04
3/24/2021 4:45:00 AM 5.51 41.918 0.103 7.12 16.6 12.05
3/24/2021 5:00:00 AM 5.49 41.882 0.103 7.11 16.58 12.06
3/24/2021 5:15:00 AM 5.46 41.828 0.103 7.11 15.66 12.07
3/24/2021 5:30:00 AM 5.44 41.792 0.103 7.11 16.03 12.08
3/24/2021 5:45:00 AM 5.42 41.756 0.103 7.11 15.3 12.09
3/24/2021 6:00:00 AM 5.39 41.702 0.103 7.11 15.57 12.1
3/24/2021 6:15:00 AM 5.37 41.666 0.103 7.11 22.51 12.1
3/24/2021 6:30:00 AM 5.35 41.63 0.103 7.11 16.15 12.11
3/24/2021 6:45:00 AM 5.34 41.612 0.103 7.11 15.36 12.12
3/24/2021 7:00:00 AM 5.32 41.576 0.103 7.11 16.04 12.12
3/24/2021 7:15:00 AM 5.31 41.558 0.103 7.11 15.31 12.13
3/24/2021 7:30:00 AM 5.3 41.54 0.103 7.11 15 12.13
3/24/2021 7:45:00 AM 5.3 41.54 0.103 7.11 15.52 12.15
3/24/2021 8:00:00 AM 5.29 41.522 0.103 7.11 16.5 12.16
3/24/2021 8:15:00 AM 5.29 41.522 0.103 7.11 15.25 12.17
3/24/2021 8:30:00 AM 5.28 41.504 0.103 7.11 15.89 12.18
3/24/2021 8:45:00 AM 5.29 41.522 0.103 7.12 14.97 12.19
3/24/2021 9:00:00 AM 5.29 41.522 0.103 7.12 15.41 12.21
3/24/2021 9:15:00 AM 5.31 41.558 0.103 7.13 15.16 12.23
3/24/2021 9:30:00 AM 5.32 41.576 0.103 7.14 14.36 12.24
3/24/2021 9:45:00 AM 5.33 41.594 0.103 7.13 14.47 12.25
3/24/2021 10:00:00 AM 5.34 41.612 0.103 7.14 15.71 12.26
3/24/2021 10:15:00 AM 5.36 41.648 0.102 7.14 15.81 12.26
3/24/2021 10:30:00 AM 5.38 41.684 0.102 7.15 15.87 12.26
3/24/2021 10:45:00 AM 5.4 41.72 0.102 7.16 15.33 12.27
3/24/2021 11:00:00 AM 5.42 41.756 0.102 7.14 15.51 12.27
3/24/2021 11:15:00 AM 5.46 41.828 0.102 7.16 15.6 12.27
3/24/2021 11:30:00 AM 5.49 41.882 0.102 7.16 18.55 12.28
3/24/2021 11:45:00 AM 5.53 41.954 0.102 7.17 18.82 12.28
3/24/2021 12:00:00 PM 5.58 42.044 0.102 7.17 13.28 12.28
3/24/2021 12:15:00 PM 5.63 42.134 0.101 7.18 26.8 12.28
3/24/2021 12:30:00 PM 5.71 42.278 0.101 7.18 51.98 12.26
3/24/2021 12:45:00 PM 5.78 42.404 0.101 7.18 31.99 12.26
3/24/2021 1:00:00 PM 5.88 42.584 0.101 7.19 36.96 12.25
3/24/2021 1:15:00 PM 5.98 42.764 0.101 7.2 28.07 12.23
3/24/2021 1:30:00 PM 6.08 42.944 0.101 7.2 39.35 12.2
3/24/2021 1:45:00 PM 6.17 43.106 0.101 7.2 73.78 12.14
3/24/2021 2:00:00 PM 6.24 43.232 0.101 7.2 73 12.11
3/24/2021 2:15:00 PM 6.34 43.412 0.101 7.2 91.93 12.1
3/24/2021 2:30:00 PM 6.42 43.556 0.101 7.2 46.67 12.09
3/24/2021 2:45:00 PM 6.48 43.664 0.101 7.21 64.4 12.04
3/24/2021 3:00:00 PM 6.55 43.79 0.101 7.19 93.92 11.97
3/24/2021 3:15:00 PM 6.58 43.844 0.101 7.19 133.3 11.92
3/24/2021 3:30:00 PM 6.63 43.934 0.101 7.2 182.86 11.9
3/24/2021 3:45:00 PM 6.67 44.006 0.1 7.19 112.99 11.89
3/24/2021 4:00:00 PM 6.71 44.078 0.1 7.19 171.71 11.87
3/24/2021 4:15:00 PM 6.76 44.168 0.099 7.19 147.5 11.85
3/24/2021 4:30:00 PM 6.79 44.222 0.099 7.19 134.72 11.82
3/24/2021 4:45:00 PM 6.82 44.276 0.098 7.19 209.4 11.81
3/24/2021 5:00:00 PM 6.86 44.348 0.097 7.17 93.62 11.81
3/24/2021 5:15:00 PM 6.91 44.438 0.097 7.18 137.68 11.79
3/24/2021 5:30:00 PM 6.98 44.564 0.096 7.18 95.21 11.78
3/24/2021 5:45:00 PM 7.03 44.654 0.096 7.16 83.76 11.76
3/24/2021 6:00:00 PM 7.07 44.726 0.096 7.17 87.14 11.74
3/24/2021 6:15:00 PM 7.09 44.762 0.096 7.17 83.62 11.72
3/24/2021 6:30:00 PM 7.11 44.798 0.096 7.16 103.57 11.7
3/24/2021 6:45:00 PM 7.11 44.798 0.097 7.16 116.69 11.69
3/24/2021 7:00:00 PM 7.11 44.798 0.097 7.16 95.75 11.68
3/24/2021 7:15:00 PM 7.1 44.78 0.097 7.16 72.38 11.67
3/24/2021 7:30:00 PM 7.09 44.762 0.096 7.13 98.69 11.67
3/24/2021 7:45:00 PM 7.09 44.762 0.096 7.14 73 11.66
3/24/2021 8:00:00 PM 7.07 44.726 0.096 7.14 120.16 11.66
3/24/2021 8:15:00 PM 7.06 44.708 0.095 7.14 98.54 11.67
3/24/2021 8:30:00 PM 7.05 44.69 0.095 7.14 80.51 11.66
3/24/2021 8:45:00 PM 7.03 44.654 0.095 7.14 82.51 11.67
3/24/2021 9:00:00 PM 7.01 44.618 0.095 7.12 75.2 11.67
3/24/2021 9:15:00 PM 7 44.6 0.094 7.13 82.78 11.67
3/24/2021 9:30:00 PM 6.98 44.564 0.094 7.13 59.81 11.67
3/24/2021 9:45:00 PM 6.96 44.528 0.094 7.12 109.36 11.68
3/24/2021 10:00:00 PM 6.94 44.492 0.094 7.12 65.78 11.68
3/24/2021 10:15:00 PM 6.93 44.474 0.094 7.12 63.06 11.69
3/24/2021 10:30:00 PM 6.91 44.438 0.093 7.12 88.6 11.69
3/24/2021 10:45:00 PM 6.89 44.402 0.093 7.12 53.34 11.69
3/24/2021 11:00:00 PM 6.87 44.366 0.093 7.11 85.09 11.69
3/24/2021 11:15:00 PM 6.87 44.366 0.093 7.12 74.03 11.69
3/24/2021 11:30:00 PM 6.85 44.33 0.093 7.1 108.21 11.7
3/24/2021 11:45:00 PM 6.83 44.294 0.093 7.11 62.81 11.7
3/25/2021 12:00:00 AM 6.81 44.258 0.093 7.11 73.49 11.7
3/25/2021 12:15:00 AM 6.79 44.222 0.093 7.09 91.74 11.7
3/25/2021 12:30:00 AM 6.78 44.204 0.093 7.1 56.03 11.7
3/25/2021 12:45:00 AM 6.77 44.186 0.093 7.1 46 11.7
3/25/2021 1:00:00 AM 6.76 44.168 0.093 7.11 51 11.7
3/25/2021 1:15:00 AM 6.74 44.132 0.093 7.1 48.65 11.71
3/25/2021 1:30:00 AM 6.72 44.096 0.093 7.09 58.19 11.71
3/25/2021 1:45:00 AM 6.7 44.06 0.093 7.09 41.23 11.71
3/25/2021 2:00:00 AM 6.69 44.042 0.093 7.09 61.49 11.71
3/25/2021 2:15:00 AM 6.67 44.006 0.093 7.09 42.63 11.71
3/25/2021 2:30:00 AM 6.66 43.988 0.093 7.09 79.26 11.72
3/25/2021 2:45:00 AM 6.65 43.97 0.093 7.09 43.46 11.72
3/25/2021 3:00:00 AM 6.63 43.934 0.093 7.09 45.02 11.72
3/25/2021 3:15:00 AM 6.62 43.916 0.093 7.09 60.93 11.72
3/25/2021 3:30:00 AM 6.6 43.88 0.093 7.09 45.29 11.72
3/25/2021 3:45:00 AM 6.59 43.862 0.093 7.08 39.34 11.72
3/25/2021 4:00:00 AM 6.58 43.844 0.093 7.08 41.96 11.72
3/25/2021 4:15:00 AM 6.57 43.826 0.094 7.08 37.06 11.72
3/25/2021 4:30:00 AM 6.55 43.79 0.094 7.08 44.52 11.73
3/25/2021 4:45:00 AM 6.54 43.772 0.094 7.08 31.06 11.73
3/25/2021 5:00:00 AM 6.53 43.754 0.094 7.08 32.79 11.74
3/25/2021 5:15:00 AM 6.52 43.736 0.094 7.08 33.72 11.74
3/25/2021 5:30:00 AM 6.51 43.718 0.094 7.08 25.95 11.74
3/25/2021 5:45:00 AM 6.5 43.7 0.094 7.08 29.54 11.74
3/25/2021 6:00:00 AM 6.5 43.7 0.094 7.07 30.49 11.74
3/25/2021 6:15:00 AM 6.49 43.682 0.094 7.08 34.8 11.74
3/25/2021 6:30:00 AM 6.48 43.664 0.094 7.07 28.14 11.74
3/25/2021 6:45:00 AM 6.47 43.646 0.094 7.07 36.32 11.75
3/25/2021 7:00:00 AM 6.46 43.628 0.094 7.07 32.17 11.75
3/25/2021 7:15:00 AM 6.46 43.628 0.094 7.08 33.61 11.76
3/25/2021 7:30:00 AM 6.46 43.628 0.094 7.07 38.63 11.76
3/25/2021 7:45:00 AM 6.47 43.646 0.094 7.08 30.9 11.78
3/25/2021 8:00:00 AM 6.48 43.664 0.094 7.09 52.58 11.8
3/25/2021 8:15:00 AM 6.51 43.718 0.095 7.1 30.85 11.82
3/25/2021 8:30:00 AM 6.54 43.772 0.095 7.11 50.46 11.84
3/25/2021 8:45:00 AM 6.57 43.826 0.095 7.1 28.81 11.85
3/25/2021 9:00:00 AM 6.61 43.898 0.095 7.12 29.36 11.87
3/25/2021 9:15:00 AM 6.66 43.988 0.095 7.12 25.8 11.88
3/25/2021 9:30:00 AM 6.73 44.114 0.095 7.14 45.07 11.9
3/25/2021 9:45:00 AM 6.83 44.294 0.095 7.15 26.4 11.9
3/25/2021 10:00:00 AM 6.95 44.51 0.095 7.16 66.16 11.89
3/25/2021 10:15:00 AM 7.06 44.708 0.095 7.18 23.42 11.88
3/25/2021 10:30:00 AM 7.22 44.996 0.095 7.17 23.74 11.86
3/25/2021 10:45:00 AM 7.34 45.212 0.095 7.18 28.64 11.86
3/25/2021 11:00:00 AM 7.54 45.572 0.095 7.2 20.97 11.83
3/25/2021 11:15:00 AM 7.76 45.968 0.095 7.21 22.07 11.79
3/25/2021 11:30:00 AM 7.95 46.31 0.095 7.21 24.98 11.77
3/25/2021 11:45:00 AM 8.17 46.706 0.095 7.22 30.35 11.71
3/25/2021 12:00:00 PM 8.39 47.102 0.095 7.23 31.59 11.67
3/25/2021 12:15:00 PM 8.62 47.516 0.095 7.23 23.08 11.63
3/25/2021 12:30:00 PM 8.83 47.894 0.095 7.24 32.95 11.56
3/25/2021 12:45:00 PM 9.09 48.362 0.095 7.24 25.37 11.52
3/25/2021 1:00:00 PM 9.39 48.902 0.095 7.25 25.37 11.46
3/25/2021 1:15:00 PM 9.65 49.37 0.095 7.27 25.93 11.4
3/25/2021 1:30:00 PM 9.91 49.838 0.095 7.27 28.07 11.34
3/25/2021 1:45:00 PM 10.14 50.252 0.095 7.27 27.48 11.28
3/25/2021 2:00:00 PM 10.37 50.666 0.095 7.28 22.71 11.23
3/25/2021 2:15:00 PM 10.57 51.026 0.095 7.28 21.35 11.16
3/25/2021 2:30:00 PM 10.77 51.386 0.095 7.29 37.9 11.12
3/25/2021 2:45:00 PM 10.94 51.692 0.095 7.29 31.03 11.06
3/25/2021 3:00:00 PM 11.06 51.908 0.095 7.3 21.99 11.01
3/25/2021 3:15:00 PM 11.16 52.088 0.095 7.29 24.97 10.98
3/25/2021 3:30:00 PM 11.22 52.196 0.095 7.3 28.24 10.95
3/25/2021 3:45:00 PM 11.27 52.286 0.095 7.3 28.2 10.91
3/25/2021 4:00:00 PM 11.28 52.304 0.095 7.31 22.33 10.88
3/25/2021 4:15:00 PM 11.28 52.304 0.095 7.3 21.26 10.86
3/25/2021 4:30:00 PM 11.25 52.25 0.095 7.3 27.38 10.83
3/25/2021 4:45:00 PM 11.23 52.214 0.095 7.29 26.79 10.82
3/25/2021 5:00:00 PM 11.17 52.106 0.095 7.28 24.77 10.81
3/25/2021 5:15:00 PM 11.13 52.034 0.095 7.29 26.42 10.79
3/25/2021 5:30:00 PM 11.07 51.926 0.095 7.27 22.06 10.77
3/25/2021 5:45:00 PM 11 51.8 0.095 7.27 33.31 10.76
3/25/2021 6:00:00 PM 10.93 51.674 0.096 7.25 25.61 10.74
3/25/2021 6:15:00 PM 10.85 51.53 0.096 7.25 30.04 10.73
3/25/2021 6:30:00 PM 10.78 51.404 0.096 7.24 26 10.71
3/25/2021 6:45:00 PM 10.7 51.26 0.096 7.22 28.21 10.69
3/25/2021 7:00:00 PM 10.62 51.116 0.096 7.21 23.59 10.67
3/25/2021 7:15:00 PM 10.53 50.954 0.096 7.2 27.85 10.66
3/25/2021 7:30:00 PM 10.44 50.792 0.096 7.18 33.08 10.65
3/25/2021 7:45:00 PM 10.36 50.648 0.096 7.17 27.19 10.63
3/25/2021 8:00:00 PM 10.27 50.486 0.096 7.16 27.03 10.62
3/25/2021 8:15:00 PM 10.18 50.324 0.096 7.14 27.72 10.62
3/25/2021 8:30:00 PM 10.11 50.198 0.096 7.15 21.78 10.63
3/25/2021 8:45:00 PM 10.04 50.072 0.096 7.13 35.94 10.65
3/25/2021 9:00:00 PM 9.97 49.946 0.096 7.12 26.23 10.66
3/25/2021 9:15:00 PM 9.91 49.838 0.096 7.12 23.98 10.67
3/25/2021 9:30:00 PM 9.85 49.73 0.097 7.11 33.47 10.67
3/25/2021 9:45:00 PM 9.8 49.64 0.097 7.11 24.93 10.68
3/25/2021 10:00:00 PM 9.75 49.55 0.097 7.11 28.26 10.69
3/25/2021 10:15:00 PM 9.72 49.496 0.097 7.11 22.69 10.71
3/25/2021 10:30:00 PM 9.68 49.424 0.097 7.12 26.61 10.72
3/25/2021 10:45:00 PM 9.63 49.334 0.097 7.12 26.18 10.73
3/25/2021 11:00:00 PM 9.59 49.262 0.097 7.12 20.88 10.74
3/25/2021 11:15:00 PM 9.55 49.19 0.097 7.12 24.46 10.74
3/25/2021 11:30:00 PM 9.52 49.136 0.097 7.12 24.73 10.75
3/25/2021 11:45:00 PM 9.48 49.064 0.097 7.12 22.02 10.76
3/26/2021 12:00:00 AM 9.44 48.992 0.097 7.12 30.65 10.76
3/26/2021 12:15:00 AM 9.4 48.92 0.097 7.12 35.58 10.77
3/26/2021 12:30:00 AM 9.37 48.866 0.097 7.11 23.23 10.77
3/26/2021 12:45:00 AM 9.32 48.776 0.098 7.12 22.02 10.78
3/26/2021 1:00:00 AM 9.28 48.704 0.098 7.12 22.33 10.8
3/26/2021 1:15:00 AM 9.24 48.632 0.098 7.13 23.95 10.81
3/26/2021 1:30:00 AM 9.2 48.56 0.098 7.12 20.5 10.82
3/26/2021 1:45:00 AM 9.17 48.506 0.098 7.12 20.61 10.83
3/26/2021 2:00:00 AM 9.13 48.434 0.098 7.13 20.43 10.84
3/26/2021 2:15:00 AM 9.1 48.38 0.098 7.12 20.62 10.85
3/26/2021 2:30:00 AM 9.07 48.326 0.098 7.12 21.93 10.85
3/26/2021 2:45:00 AM 9.04 48.272 0.098 7.13 20.8 10.85
3/26/2021 3:00:00 AM 9.01 48.218 0.098 7.12 22.06 10.85
3/26/2021 3:15:00 AM 8.98 48.164 0.098 7.13 17.98 10.85
3/26/2021 3:30:00 AM 8.95 48.11 0.099 7.12 19.76 10.85
3/26/2021 3:45:00 AM 8.94 48.092 0.099 7.12 22.59 10.85
3/26/2021 4:00:00 AM 8.91 48.038 0.099 7.13 18.56 10.86
3/26/2021 4:15:00 AM 8.9 48.02 0.099 7.13 29.91 10.86
3/26/2021 4:30:00 AM 8.89 48.002 0.099 7.12 17.28 10.85
3/26/2021 4:45:00 AM 8.88 47.984 0.099 7.13 18.43 10.85
3/26/2021 5:00:00 AM 8.85 47.93 0.099 7.13 21.22 10.86
3/26/2021 5:15:00 AM 8.83 47.894 0.099 7.13 19.63 10.86
3/26/2021 5:30:00 AM 8.79 47.822 0.099 7.13 19.05 10.86
3/26/2021 5:45:00 AM 8.73 47.714 0.099 7.12 20.26 10.88
3/26/2021 6:00:00 AM 8.7 47.66 0.099 7.13 19.63 10.89
3/26/2021 6:15:00 AM 8.65 47.57 0.099 7.13 16.08 10.89
3/26/2021 6:30:00 AM 8.61 47.498 0.1 7.13 17.28 10.9
3/26/2021 6:45:00 AM 8.58 47.444 0.1 7.12 20.34 10.91
3/26/2021 7:00:00 AM 8.57 47.426 0.1 7.13 18.39 10.92
3/26/2021 7:15:00 AM 8.57 47.426 0.1 7.13 18.57 10.92
3/26/2021 7:30:00 AM 8.57 47.426 0.1 7.13 18.18 10.92
3/26/2021 7:45:00 AM 8.59 47.462 0.1 7.14 23.22 10.95
3/26/2021 8:00:00 AM 8.62 47.516 0.1 7.16 15.06 10.97
3/26/2021 8:15:00 AM 8.66 47.588 0.1 7.16 18.25 11.01
3/26/2021 8:30:00 AM 8.71 47.678 0.1 7.18 18 11.04
3/26/2021 8:45:00 AM 8.79 47.822 0.1 7.19 17.87 11.05
3/26/2021 9:00:00 AM 8.88 47.984 0.1 7.2 18.23 11.05
3/26/2021 9:15:00 AM 9.02 48.236 0.1 7.21 16.7 11.07
3/26/2021 9:30:00 AM 9.2 48.56 0.1 7.22 18.53 11.08
3/26/2021 9:45:00 AM 9.38 48.884 0.1 7.23 13.32 11.05
3/26/2021 10:00:00 AM 9.56 49.208 0.1 7.24 15.96 11.06
3/26/2021 10:15:00 AM 9.77 49.586 0.1 7.25 17.81 11.02
3/26/2021 10:30:00 AM 10 50 0.1 7.26 17.24 11.01
3/26/2021 10:45:00 AM 10.16 50.288 0.1 7.26 17.63 10.95
3/26/2021 11:00:00 AM 10.27 50.486 0.1 7.27 16.3 10.94
3/26/2021 11:15:00 AM 10.34 50.612 0.1 7.28 16.83 10.92
3/26/2021 11:30:00 AM 10.4 50.72 0.1 7.28 16.55 10.9
3/26/2021 11:45:00 AM 10.46 50.828 0.1 7.29 16.92 10.87
3/26/2021 12:00:00 PM 10.53 50.954 0.1 7.3 17.64 10.85
3/26/2021 12:15:00 PM 10.61 51.098 0.1 7.3 17.69 10.83
3/26/2021 12:30:00 PM 10.66 51.188 0.1 7.3 16.62 10.82
3/26/2021 12:45:00 PM 10.7 51.26 0.1 7.3 17.18 10.81
3/26/2021 1:00:00 PM 10.71 51.278 0.1 7.31 17.12 10.78
3/26/2021 1:15:00 PM 10.7 51.26 0.1 7.31 18.43 10.77
3/26/2021 1:30:00 PM 10.69 51.242 0.1 7.3 16.2 10.77
3/26/2021 1:45:00 PM 10.73 51.314 0.1 7.31 16.58 10.78
3/26/2021 2:00:00 PM 10.82 51.476 0.1 7.31 28.68 10.76
3/26/2021 2:15:00 PM 10.88 51.584 0.1 7.31 28.23 10.75
3/26/2021 2:30:00 PM 10.97 51.746 0.1 7.31 23.99 10.75
3/26/2021 2:45:00 PM 10.95 51.71 0.1 7.3 61.96 10.71
3/26/2021 3:00:00 PM 10.91 51.638 0.1 7.28 69.54 10.66
3/26/2021 3:15:00 PM 10.85 51.53 0.1 7.29 35.78 10.65
3/26/2021 3:30:00 PM 10.8 51.44 0.1 7.29 21.57 10.64
3/26/2021 3:45:00 PM 10.75 51.35 0.1 7.28 21.32 10.64
3/26/2021 4:00:00 PM 10.7 51.26 0.1 7.27 21.08 10.65
3/26/2021 4:15:00 PM 10.69 51.242 0.1 7.27 18.17 10.67
3/26/2021 4:30:00 PM 10.64 51.152 0.1 7.28 18.92 10.69
3/26/2021 4:45:00 PM 10.59 51.062 0.1 7.28 19.95 10.71
3/26/2021 5:00:00 PM 10.51 50.918 0.1 7.28 18.99 10.72
3/26/2021 5:15:00 PM 10.43 50.774 0.101 7.27 17.48 10.73
3/26/2021 5:30:00 PM 10.34 50.612 0.101 7.26 17.02 10.74
3/26/2021 5:45:00 PM 10.23 50.414 0.101 7.26 14.02 10.75
3/26/2021 6:00:00 PM 10.14 50.252 0.101 7.25 22.34 10.75
3/26/2021 6:15:00 PM 10.06 50.108 0.101 7.24 17.47 10.74
3/26/2021 6:30:00 PM 9.98 49.964 0.101 7.24 17.32 10.75
3/26/2021 6:45:00 PM 9.89 49.802 0.101 7.23 17.36 10.76
3/26/2021 7:00:00 PM 9.81 49.658 0.101 7.22 16.9 10.77
3/26/2021 7:15:00 PM 9.73 49.514 0.101 7.21 16.02 10.75
3/26/2021 7:30:00 PM 9.64 49.352 0.101 7.21 17.28 10.74
3/26/2021 7:45:00 PM 9.57 49.226 0.101 7.2 17.32 10.74
3/26/2021 8:00:00 PM 9.5 49.1 0.102 7.19 16.64 10.74
3/26/2021 8:15:00 PM 9.44 48.992 0.102 7.19 16.87 10.76
3/26/2021 8:30:00 PM 9.38 48.884 0.102 7.18 16.82 10.76
3/26/2021 8:45:00 PM 9.32 48.776 0.102 7.18 16.36 10.77
3/26/2021 9:00:00 PM 9.26 48.668 0.102 7.17 16.37 10.78
3/26/2021 9:15:00 PM 9.21 48.578 0.102 7.17 16.33 10.79
3/26/2021 9:30:00 PM 9.16 48.488 0.102 7.16 15.96 10.79
3/26/2021 9:45:00 PM 9.1 48.38 0.102 7.16 15.32 10.81
3/26/2021 10:00:00 PM 9.05 48.29 0.102 7.17 14.55 10.83
3/26/2021 10:15:00 PM 8.99 48.182 0.102 7.17 15.31 10.86
3/26/2021 10:30:00 PM 8.95 48.11 0.102 7.16 16.08 10.88
3/26/2021 10:45:00 PM 8.9 48.02 0.102 7.16 14.78 10.88
3/26/2021 11:00:00 PM 8.85 47.93 0.103 7.16 14.62 10.89
3/26/2021 11:15:00 PM 8.81 47.858 0.103 7.15 14.82 10.89
3/26/2021 11:30:00 PM 8.76 47.768 0.103 7.16 14.86 10.9
3/26/2021 11:45:00 PM 8.72 47.696 0.103 7.15 14.13 10.92
3/27/2021 12:00:00 AM 8.67 47.606 0.103 7.15 14.32 10.94
3/27/2021 12:15:00 AM 8.61 47.498 0.103 7.15 14.82 10.96
3/27/2021 12:30:00 AM 8.56 47.408 0.103 7.16 14.22 10.98
3/27/2021 12:45:00 AM 8.5 47.3 0.103 7.15 14.68 11
3/27/2021 1:00:00 AM 8.45 47.21 0.103 7.15 13.77 11.01
3/27/2021 1:15:00 AM 8.38 47.084 0.103 7.16 13.83 11.02
3/27/2021 1:30:00 AM 8.32 46.976 0.103 7.15 14.52 11.03
3/27/2021 1:45:00 AM 8.25 46.85 0.104 7.15 14.76 11.05
3/27/2021 2:00:00 AM 8.17 46.706 0.104 7.15 13.09 11.07
3/27/2021 2:15:00 AM 8.11 46.598 0.104 7.15 14.79 11.09
3/27/2021 2:30:00 AM 8.06 46.508 0.104 7.14 13.24 11.11
3/27/2021 2:45:00 AM 8.03 46.454 0.104 7.15 14.45 11.13
3/27/2021 3:00:00 AM 8.01 46.418 0.104 7.14 13.46 11.14
3/27/2021 3:15:00 AM 7.99 46.382 0.104 7.14 12.71 11.15
3/27/2021 3:30:00 AM 7.97 46.346 0.104 7.15 13.13 11.15
3/27/2021 3:45:00 AM 7.94 46.292 0.104 7.14 13.13 11.16
3/27/2021 4:00:00 AM 7.91 46.238 0.104 7.13 12.57 11.17
3/27/2021 4:15:00 AM 7.88 46.184 0.104 7.14 14.13 11.17
3/27/2021 4:30:00 AM 7.85 46.13 0.105 7.13 11.96 11.18
3/27/2021 4:45:00 AM 7.82 46.076 0.105 7.14 13.02 11.19
3/27/2021 5:00:00 AM 7.79 46.022 0.105 7.13 13.19 11.19
3/27/2021 5:15:00 AM 7.76 45.968 0.105 7.14 12.59 11.2
3/27/2021 5:30:00 AM 7.73 45.914 0.105 7.15 12.23 11.21
3/27/2021 5:45:00 AM 7.7 45.86 0.105 7.13 12.05 11.22
3/27/2021 6:00:00 AM 7.67 45.806 0.105 7.15 12.38 11.23
3/27/2021 6:15:00 AM 7.65 45.77 0.105 7.14 12.22 11.25
3/27/2021 6:30:00 AM 7.61 45.698 0.105 7.14 12.03 11.26
3/27/2021 6:45:00 AM 7.58 45.644 0.105 7.14 11.72 11.27
3/27/2021 7:00:00 AM 7.55 45.59 0.105 7.14 12.24 11.29
3/27/2021 7:15:00 AM 7.52 45.536 0.105 7.15 12.07 11.31
3/27/2021 7:30:00 AM 7.49 45.482 0.106 7.15 12.31 11.34
3/27/2021 7:45:00 AM 7.47 45.446 0.106 7.16 11.05 11.36
3/27/2021 8:00:00 AM 7.45 45.41 0.106 7.16 11.54 11.39
3/27/2021 8:15:00 AM 7.44 45.392 0.106 7.16 11.47 11.43
3/27/2021 8:30:00 AM 7.43 45.374 0.106 7.17 11.62 11.47
3/27/2021 8:45:00 AM 7.44 45.392 0.106 7.18 11.14 11.51
3/27/2021 9:00:00 AM 7.45 45.41 0.106 7.19 11.69 11.55
3/27/2021 9:15:00 AM 7.47 45.446 0.106 7.2 11.24 11.59
3/27/2021 9:30:00 AM 7.49 45.482 0.106 7.21 11.36 11.62
3/27/2021 9:45:00 AM 7.5 45.5 0.106 7.22 11.52 11.64
3/27/2021 10:00:00 AM 7.52 45.536 0.106 7.22 10.37 11.65
3/27/2021 10:15:00 AM 7.65 45.77 0.106 7.23 10.73 11.66
3/27/2021 10:30:00 AM 7.72 45.896 0.106 7.24 10.25 11.65
3/27/2021 10:45:00 AM 7.78 46.004 0.106 7.25 10.56 11.66
3/27/2021 11:00:00 AM 7.82 46.076 0.106 7.25 11.61 11.67
3/27/2021 11:15:00 AM 7.84 46.112 0.106 7.26 18.57 11.66
3/27/2021 11:30:00 AM 7.92 46.256 0.106 7.25 32.58 11.64
3/27/2021 11:45:00 AM 8.08 46.544 0.106 7.25 32.88 11.62
3/27/2021 12:00:00 PM 8.36 47.048 0.106 7.27 30.01 11.6
3/27/2021 12:15:00 PM 8.64 47.552 0.106 7.27 20.68 11.6
3/27/2021 12:30:00 PM 8.93 48.074 0.106 7.29 18.65 11.54
3/27/2021 12:45:00 PM 9.15 48.47 0.106 7.29 15.61 11.51
3/27/2021 1:00:00 PM 9.36 48.848 0.106 7.3 14.34 11.46
3/27/2021 1:15:00 PM 9.65 49.37 0.106 7.31 13.39 11.41
3/27/2021 1:30:00 PM 9.92 49.856 0.106 7.32 14.7 11.35
3/27/2021 1:45:00 PM 10.08 50.144 0.106 7.32 16.74 11.28
3/27/2021 2:00:00 PM 10.23 50.414 0.106 7.33 17.69 11.26
3/27/2021 2:15:00 PM 10.32 50.576 0.106 7.33 17.13 11.23
3/27/2021 2:30:00 PM 10.34 50.612 0.106 7.33 14.7 11.19
3/27/2021 2:45:00 PM 10.54 50.972 0.106 7.34 13.63 11.14
3/27/2021 3:00:00 PM 10.65 51.17 0.106 7.35 12.98 11.11
3/27/2021 3:15:00 PM 10.72 51.296 0.106 7.35 11.53 11.08
3/27/2021 3:30:00 PM 10.79 51.422 0.106 7.35 11.44 11.04
3/27/2021 3:45:00 PM 10.81 51.458 0.106 7.35 11.03 11.03
3/27/2021 4:00:00 PM 10.81 51.458 0.106 7.36 11.1 11.01
3/27/2021 4:15:00 PM 10.82 51.476 0.106 7.35 11.88 10.99
3/27/2021 4:30:00 PM 10.81 51.458 0.107 7.35 15.88 10.97
3/27/2021 4:45:00 PM 10.78 51.404 0.107 7.34 25.36 10.93
3/27/2021 5:00:00 PM 10.73 51.314 0.107 7.32 51.22 10.85
3/27/2021 5:15:00 PM 10.66 51.188 0.107 7.31 71.61 10.82
3/27/2021 5:30:00 PM 10.6 51.08 0.107 7.31 72.92 10.83
3/27/2021 5:45:00 PM 10.55 50.99 0.107 7.3 69.57 10.84
3/27/2021 6:00:00 PM 10.48 50.864 0.107 7.3 38.38 10.85
3/27/2021 6:15:00 PM 10.41 50.738 0.107 7.3 37 10.82
3/27/2021 6:30:00 PM 10.34 50.612 0.107 7.27 47.49 10.78
3/27/2021 6:45:00 PM 10.26 50.468 0.107 7.27 63.91 10.73
3/27/2021 7:00:00 PM 10.18 50.324 0.107 7.25 60.77 10.72
3/27/2021 7:15:00 PM 10.09 50.162 0.107 7.24 58.93 10.71
3/27/2021 7:30:00 PM 10.01 50.018 0.107 7.23 44.23 10.71
3/27/2021 7:45:00 PM 9.94 49.892 0.107 7.22 39.91 10.69
3/27/2021 8:00:00 PM 9.86 49.748 0.107 7.22 30.8 10.68
3/27/2021 8:15:00 PM 9.79 49.622 0.107 7.21 27.34 10.68
3/27/2021 8:30:00 PM 9.72 49.496 0.107 7.19 24.24 10.69
3/27/2021 8:45:00 PM 9.65 49.37 0.108 7.19 17.54 10.69
3/27/2021 9:00:00 PM 9.57 49.226 0.108 7.19 15.33 10.69
3/27/2021 9:15:00 PM 9.49 49.082 0.108 7.17 13.68 10.69
3/27/2021 9:30:00 PM 9.41 48.938 0.108 7.17 14.29 10.71
3/27/2021 9:45:00 PM 9.32 48.776 0.108 7.16 12.57 10.73
3/27/2021 10:00:00 PM 9.24 48.632 0.108 7.17 12.74 10.75
3/27/2021 10:15:00 PM 9.16 48.488 0.108 7.15 11.94 10.76
3/27/2021 10:30:00 PM 9.07 48.326 0.108 7.16 11.85 10.77
3/27/2021 10:45:00 PM 9 48.2 0.108 7.15 11.97 10.79
3/27/2021 11:00:00 PM 8.93 48.074 0.108 7.15 12.46 10.8
3/27/2021 11:15:00 PM 8.86 47.948 0.108 7.15 11.5 10.82
3/27/2021 11:30:00 PM 8.8 47.84 0.108 7.15 11.04 10.85
3/27/2021 11:45:00 PM 8.73 47.714 0.108 7.15 12.29 10.86
3/28/2021 12:00:00 AM 8.68 47.624 0.109 7.14 11.28 10.86
3/28/2021 12:15:00 AM 8.63 47.534 0.109 7.14 10.98 10.88
3/28/2021 12:30:00 AM 8.59 47.462 0.109 7.15 10.77 10.87
3/28/2021 12:45:00 AM 8.56 47.408 0.109 7.16 11.22 10.88
3/28/2021 1:00:00 AM 8.54 47.372 0.109 7.16 10.78 10.89
3/28/2021 1:15:00 AM 8.51 47.318 0.109 7.15 11.39 10.89
3/28/2021 1:30:00 AM 8.47 47.246 0.109 7.16 10.56 10.9
3/28/2021 1:45:00 AM 8.44 47.192 0.109 7.16 10.45 10.91
3/28/2021 2:00:00 AM 8.41 47.138 0.109 7.16 10.58 10.92
3/28/2021 2:15:00 AM 8.37 47.066 0.109 7.16 10.49 10.94
3/28/2021 2:30:00 AM 8.34 47.012 0.109 7.16 9.94 10.94
3/28/2021 2:45:00 AM 8.3 46.94 0.109 7.15 10.18 10.96
3/28/2021 3:00:00 AM 8.28 46.904 0.109 7.16 10.38 10.96
3/28/2021 3:15:00 AM 8.25 46.85 0.109 7.17 10.24 10.97
3/28/2021 3:30:00 AM 8.22 46.796 0.11 7.16 10.39 10.97
3/28/2021 3:45:00 AM 8.18 46.724 0.11 7.15 10.03 10.98
3/28/2021 4:00:00 AM 8.14 46.652 0.11 7.16 10.18 10.99
3/28/2021 4:15:00 AM 8.11 46.598 0.11 7.16 10.1 10.99
3/28/2021 4:30:00 AM 8.07 46.526 0.11 7.16 10.84 10.99
3/28/2021 4:45:00 AM 8.04 46.472 0.11 7.16 9.6 11
3/28/2021 5:00:00 AM 8.01 46.418 0.11 7.16 10.3 11
3/28/2021 5:15:00 AM 7.98 46.364 0.11 7.16 10.08 11.01
3/28/2021 5:30:00 AM 7.96 46.328 0.11 7.16 9.94 11.02
3/28/2021 5:45:00 AM 7.94 46.292 0.11 7.16 9.57 11.03
3/28/2021 6:00:00 AM 7.93 46.274 0.11 7.16 9.58 11.03
3/28/2021 6:15:00 AM 7.92 46.256 0.11 7.16 10.63 11.03
3/28/2021 6:30:00 AM 7.92 46.256 0.11 7.16 9.47 11.04
3/28/2021 6:45:00 AM 7.93 46.274 0.11 7.17 10.41 11.04
3/28/2021 7:00:00 AM 7.93 46.274 0.11 7.17 9.91 11.04
3/28/2021 7:15:00 AM 7.93 46.274 0.11 7.16 9.61 11.04
3/28/2021 7:30:00 AM 7.94 46.292 0.111 7.16 9.56 11.05
3/28/2021 7:45:00 AM 7.94 46.292 0.111 7.17 9.39 11.06
3/28/2021 8:00:00 AM 7.95 46.31 0.111 7.17 9.36 11.06
3/28/2021 8:15:00 AM 7.96 46.328 0.111 7.17 9.45 11.07
3/28/2021 8:30:00 AM 7.98 46.364 0.111 7.18 9.13 11.08
3/28/2021 8:45:00 AM 8 46.4 0.111 7.18 8.99 11.09
3/28/2021 9:00:00 AM 8.02 46.436 0.111 7.19 8.78 11.11
3/28/2021 9:15:00 AM 8.04 46.472 0.111 7.2 9.35 11.14
3/28/2021 9:30:00 AM 8.07 46.526 0.111 7.21 9.09 11.18
3/28/2021 9:45:00 AM 8.1 46.58 0.111 7.22 9.62 11.22
3/28/2021 10:00:00 AM 8.12 46.616 0.11 7.23 9.25 11.25
3/28/2021 10:15:00 AM 8.15 46.67 0.11 7.24 8.95 11.27
3/28/2021 10:30:00 AM 8.19 46.742 0.11 7.24 8.69 11.29
3/28/2021 10:45:00 AM 8.22 46.796 0.11 7.26 8.85 11.31
3/28/2021 11:00:00 AM 8.26 46.868 0.11 7.26 8.83 11.33
3/28/2021 11:15:00 AM 8.29 46.922 0.11 7.27 8.67 11.34
3/28/2021 11:30:00 AM 8.34 47.012 0.11 7.28 8.72 11.35
3/28/2021 11:45:00 AM 8.38 47.084 0.11 7.29 8.45 11.34
3/28/2021 12:00:00 PM 8.42 47.156 0.11 7.28 9 11.34
3/28/2021 12:15:00 PM 8.47 47.246 0.11 7.29 8.74 11.33
3/28/2021 12:30:00 PM 8.51 47.318 0.11 7.3 9.07 11.31
3/28/2021 12:45:00 PM 8.55 47.39 0.11 7.3 8.58 11.3
3/28/2021 1:00:00 PM 8.58 47.444 0.11 7.3 8.56 11.27
3/28/2021 1:15:00 PM 8.63 47.534 0.11 7.3 8.52 11.28
3/28/2021 1:30:00 PM 8.72 47.696 0.11 7.31 8.5 11.28
3/28/2021 1:45:00 PM 8.81 47.858 0.11 7.32 9.12 11.28
3/28/2021 2:00:00 PM 8.88 47.984 0.11 7.32 8.77 11.26
3/28/2021 2:15:00 PM 8.94 48.092 0.11 7.32 8.75 11.24
3/28/2021 2:30:00 PM 9.05 48.29 0.11 7.33 8.97 11.23
3/28/2021 2:45:00 PM 9.08 48.344 0.11 7.33 8.37 11.21
3/28/2021 3:00:00 PM 9.16 48.488 0.11 7.34 9.45 11.21
3/28/2021 3:15:00 PM 9.26 48.668 0.11 7.35 8.81 11.18
3/28/2021 3:30:00 PM 9.29 48.722 0.11 7.34 9.06 11.15
3/28/2021 3:45:00 PM 9.31 48.758 0.11 7.33 8.34 11.11
3/28/2021 4:00:00 PM 9.3 48.74 0.11 7.33 8.78 11.05
3/28/2021 4:15:00 PM 9.26 48.668 0.11 7.32 9.01 10.99
3/28/2021 4:30:00 PM 9.28 48.704 0.109 7.3 9.8 10.95
3/28/2021 4:45:00 PM 9.26 48.668 0.109 7.29 9.23 10.93
3/28/2021 5:00:00 PM 9.24 48.632 0.109 7.29 9.34 10.93
3/28/2021 5:15:00 PM 9.22 48.596 0.109 7.29 9.4 10.92
3/28/2021 5:30:00 PM 9.19 48.542 0.109 7.28 9.43 10.91
3/28/2021 5:45:00 PM 9.16 48.488 0.109 7.27 10.05 10.89
3/28/2021 6:00:00 PM 9.14 48.452 0.109 7.27 11 10.89
3/28/2021 6:15:00 PM 9.12 48.416 0.109 7.27 11.67 10.89
3/28/2021 6:30:00 PM 9.07 48.326 0.109 7.26 11.29 10.9
3/28/2021 6:45:00 PM 9.03 48.254 0.109 7.26 11.21 10.9
3/28/2021 7:00:00 PM 8.99 48.182 0.109 7.26 12.66 10.91
3/28/2021 7:15:00 PM 8.94 48.092 0.109 7.25 11.98 10.9
3/28/2021 7:30:00 PM 8.89 48.002 0.109 7.25 11.93 10.9
3/28/2021 7:45:00 PM 8.84 47.912 0.11 7.24 13.43 10.88
3/28/2021 8:00:00 PM 8.79 47.822 0.11 7.23 13.51 10.86
3/28/2021 8:15:00 PM 8.73 47.714 0.109 7.22 15.86 10.86
3/28/2021 8:30:00 PM 8.68 47.624 0.109 7.22 15.97 10.85
3/28/2021 8:45:00 PM 8.64 47.552 0.109 7.21 18.22 10.86
3/28/2021 9:00:00 PM 8.59 47.462 0.109 7.21 30.65 10.87
3/28/2021 9:15:00 PM 8.51 47.318 0.108 7.22 28.83 10.88
3/28/2021 9:30:00 PM 8.44 47.192 0.108 7.21 42.59 10.9
3/28/2021 9:45:00 PM 8.38 47.084 0.108 7.21 39.96 10.93
3/28/2021 10:00:00 PM 8.33 46.994 0.108 7.21 40.46 10.96
3/28/2021 10:15:00 PM 8.27 46.886 0.108 7.21 50.42 10.98
3/28/2021 10:30:00 PM 8.2 46.76 0.108 7.21 38.34 11
3/28/2021 10:45:00 PM 8.11 46.598 0.107 7.19 44.48 11.01
3/28/2021 11:00:00 PM 8.03 46.454 0.107 7.19 38.55 11.03
3/28/2021 11:15:00 PM 7.96 46.328 0.107 7.2 31.3 11.05
3/28/2021 11:30:00 PM 7.9 46.22 0.107 7.2 41.84 11.07
3/28/2021 11:45:00 PM 7.83 46.094 0.107 7.2 38.53 11.1
3/29/2021 12:00:00 AM 7.74 45.932 0.107 7.19 52.43 11.14
3/29/2021 12:15:00 AM 7.63 45.734 0.107 7.19 47.06 11.16
3/29/2021 12:30:00 AM 7.54 45.572 0.107 7.2 41.07 11.17
3/29/2021 12:45:00 AM 7.44 45.392 0.107 7.19 48.41 11.19
3/29/2021 1:00:00 AM 7.35 45.23 0.107 7.19 35.19 11.22
3/29/2021 1:15:00 AM 7.27 45.086 0.107 7.18 28.38 11.26
3/29/2021 1:30:00 AM 7.2 44.96 0.106 7.18 39.33 11.29
3/29/2021 1:45:00 AM 7.14 44.852 0.106 7.18 53.05 11.31
3/29/2021 2:00:00 AM 7.09 44.762 0.106 7.17 29.88 11.32
3/29/2021 2:15:00 AM 7.02 44.636 0.107 7.18 32.55 11.33
3/29/2021 2:30:00 AM 6.97 44.546 0.107 7.17 30.45 11.35
3/29/2021 2:45:00 AM 6.91 44.438 0.107 7.18 38.15 11.37
3/29/2021 3:00:00 AM 6.84 44.312 0.107 7.17 42.66 11.38
3/29/2021 3:15:00 AM 6.77 44.186 0.107 7.17 30.92 11.41
3/29/2021 3:30:00 AM 6.71 44.078 0.107 7.16 27.46 11.43
3/29/2021 3:45:00 AM 6.66 43.988 0.107 7.16 32.03 11.45
3/29/2021 4:00:00 AM 6.61 43.898 0.107 7.17 30.18 11.47
3/29/2021 4:15:00 AM 6.56 43.808 0.107 7.16 20.92 11.49
3/29/2021 4:30:00 AM 6.5 43.7 0.107 7.16 25.83 11.51
3/29/2021 4:45:00 AM 6.44 43.592 0.107 7.15 22.56 11.54
3/29/2021 5:00:00 AM 6.4 43.52 0.107 7.15 23.32 11.55
3/29/2021 5:15:00 AM 6.35 43.43 0.107 7.15 19.76 11.57
3/29/2021 5:30:00 AM 6.3 43.34 0.107 7.14 22.67 11.59
3/29/2021 5:45:00 AM 6.25 43.25 0.107 7.12 21.29 11.61
3/29/2021 6:00:00 AM 6.2 43.16 0.107 7.11 15.46 11.63
3/29/2021 6:15:00 AM 6.15 43.07 0.107 7.11 21.23 11.65
3/29/2021 6:30:00 AM 6.11 42.998 0.107 7.11 21.87 11.67
3/29/2021 6:45:00 AM 6.07 42.926 0.107 7.1 18.82 11.69
3/29/2021 7:00:00 AM 6.03 42.854 0.107 7.11 18.86 11.7
3/29/2021 7:15:00 AM 5.98 42.764 0.107 7.12 17.77 11.73
3/29/2021 7:30:00 AM 5.94 42.692 0.107 7.12 19.18 11.76
3/29/2021 7:45:00 AM 5.89 42.602 0.107 7.12 24.01 11.79
3/29/2021 8:00:00 AM 5.86 42.548 0.107 7.13 15.82 11.82
3/29/2021 8:15:00 AM 5.84 42.512 0.107 7.14 15.68 11.86
3/29/2021 8:30:00 AM 5.82 42.476 0.107 7.15 15.2 11.91
3/29/2021 8:45:00 AM 5.81 42.458 0.107 7.16 15.15 11.96
3/29/2021 9:00:00 AM 5.79 42.422 0.107 7.17 15.85 12
3/29/2021 9:15:00 AM 5.78 42.404 0.107 7.18 15.1 12.05
3/29/2021 9:30:00 AM 5.77 42.386 0.107 7.19 14.53 12.08
3/29/2021 9:45:00 AM 5.78 42.404 0.107 7.2 13.71 12.11
3/29/2021 10:00:00 AM 5.8 42.44 0.107 7.21 12.97 12.15
3/29/2021 10:15:00 AM 5.81 42.458 0.108 7.22 12.93 12.18
3/29/2021 10:30:00 AM 5.84 42.512 0.108 7.23 12.74 12.21
3/29/2021 10:45:00 AM 5.89 42.602 0.108 7.24 12.46 12.23
3/29/2021 11:00:00 AM 5.94 42.692 0.108 7.25 12.11 12.25
3/29/2021 11:15:00 AM 6.09 42.962 0.108 7.26 11.99 12.25
3/29/2021 11:30:00 AM 6.4 43.52 0.108 7.28 12.4 12.25
3/29/2021 11:45:00 AM 6.6 43.88 0.108 7.29 12.19 12.22
3/29/2021 12:00:00 PM 6.77 44.186 0.108 7.3 11.76 12.18
3/29/2021 12:15:00 PM 6.92 44.456 0.108 7.31 11.17 12.15
3/29/2021 12:30:00 PM 7.19 44.942 0.108 7.31 11.67 12.14
3/29/2021 12:45:00 PM 7.44 45.392 0.108 7.32 11.37 12.07
3/29/2021 1:00:00 PM 7.7 45.86 0.108 7.33 11.27 12.03
3/29/2021 1:15:00 PM 7.93 46.274 0.108 7.34 12.41 11.97
3/29/2021 1:30:00 PM 8.11 46.598 0.108 7.35 10.83 11.92
3/29/2021 1:45:00 PM 8.3 46.94 0.108 7.35 10.88 11.88
3/29/2021 2:00:00 PM 8.49 47.282 0.108 7.36 11.52 11.81
3/29/2021 2:15:00 PM 8.67 47.606 0.108 7.36 10.54 11.79
3/29/2021 2:30:00 PM 8.85 47.93 0.108 7.37 11.41 11.72
3/29/2021 2:45:00 PM 9.02 48.236 0.108 7.38 11.07 11.68
3/29/2021 3:00:00 PM 9.17 48.506 0.108 7.39 10.67 11.65
3/29/2021 3:15:00 PM 9.3 48.74 0.108 7.4 10.39 11.59
3/29/2021 3:30:00 PM 9.42 48.956 0.108 7.4 10.77 11.55
3/29/2021 3:45:00 PM 9.51 49.118 0.108 7.41 10.33 11.52
3/29/2021 4:00:00 PM 9.56 49.208 0.109 7.41 10.37 11.49
3/29/2021 4:15:00 PM 9.59 49.262 0.109 7.41 10.1 11.48
3/29/2021 4:30:00 PM 9.59 49.262 0.109 7.41 9.67 11.46
3/29/2021 4:45:00 PM 9.55 49.19 0.109 7.4 9.57 11.45
3/29/2021 5:00:00 PM 9.49 49.082 0.109 7.4 9.86 11.44
3/29/2021 5:15:00 PM 9.39 48.902 0.109 7.39 9.77 11.42
3/29/2021 5:30:00 PM 9.29 48.722 0.109 7.4 9.25 11.42
3/29/2021 5:45:00 PM 9.18 48.524 0.109 7.37 9.79 11.43
3/29/2021 6:00:00 PM 9.05 48.29 0.109 7.38 10.36 11.43
3/29/2021 6:15:00 PM 8.91 48.038 0.109 7.36 9.54 11.4
3/29/2021 6:30:00 PM 8.79 47.822 0.109 7.35 9.83 11.4
3/29/2021 6:45:00 PM 8.65 47.57 0.11 7.34 13.58 11.38
3/29/2021 7:00:00 PM 8.54 47.372 0.11 7.31 17.48 11.34
3/29/2021 7:15:00 PM 8.42 47.156 0.11 7.3 19.03 11.3
3/29/2021 7:30:00 PM 8.31 46.958 0.11 7.28 16.03 11.29
3/29/2021 7:45:00 PM 8.21 46.778 0.11 7.27 13.85 11.29
3/29/2021 8:00:00 PM 8.09 46.562 0.11 7.24 11.14 11.27
3/29/2021 8:15:00 PM 7.98 46.364 0.11 7.23 10.6 11.25
3/29/2021 8:30:00 PM 7.88 46.184 0.11 7.22 9.58 11.25
3/29/2021 8:45:00 PM 7.78 46.004 0.111 7.21 9.88 11.27
3/29/2021 9:00:00 PM 7.67 45.806 0.111 7.2 9.73 11.28
3/29/2021 9:15:00 PM 7.58 45.644 0.111 7.21 9.41 11.3
3/29/2021 9:30:00 PM 7.49 45.482 0.111 7.19 9.29 11.31
3/29/2021 9:45:00 PM 7.39 45.302 0.111 7.18 9.29 11.33
3/29/2021 10:00:00 PM 7.31 45.158 0.111 7.18 9.28 11.35
3/29/2021 10:15:00 PM 7.22 44.996 0.111 7.18 8.9 11.38
3/29/2021 10:30:00 PM 7.14 44.852 0.111 7.18 9.34 11.41
3/29/2021 10:45:00 PM 7.05 44.69 0.111 7.18 9.06 11.43
3/29/2021 11:00:00 PM 6.97 44.546 0.111 7.18 8.98 11.44
3/29/2021 11:15:00 PM 6.9 44.42 0.111 7.16 9.2 11.45
3/29/2021 11:30:00 PM 6.82 44.276 0.111 7.16 9.26 11.48
3/29/2021 11:45:00 PM 6.74 44.132 0.111 7.17 9.03 11.51
3/30/2021 12:00:00 AM 6.66 43.988 0.111 7.16 9.57 11.54
3/30/2021 12:15:00 AM 6.59 43.862 0.112 7.16 8.89 11.56
3/30/2021 12:30:00 AM 6.52 43.736 0.112 7.15 8.92 11.58
3/30/2021 12:45:00 AM 6.45 43.61 0.112 7.15 8.9 11.6
3/30/2021 1:00:00 AM 6.38 43.484 0.112 7.16 8.75 11.62
3/30/2021 1:15:00 AM 6.31 43.358 0.112 7.13 8.93 11.64
3/30/2021 1:30:00 AM 6.24 43.232 0.112 7.14 8.54 11.66
3/30/2021 1:45:00 AM 6.17 43.106 0.112 7.15 9.17 11.69
3/30/2021 2:00:00 AM 6.1 42.98 0.112 7.13 8.67 11.71
3/30/2021 2:15:00 AM 6.04 42.872 0.113 7.14 8.5 11.73
3/30/2021 2:30:00 AM 5.98 42.764 0.113 7.13 8.42 11.76
3/30/2021 2:45:00 AM 5.92 42.656 0.113 7.13 8.88 11.78
3/30/2021 3:00:00 AM 5.86 42.548 0.113 7.12 8.27 11.8
3/30/2021 3:15:00 AM 5.8 42.44 0.113 7.12 8.45 11.82
3/30/2021 3:30:00 AM 5.73 42.314 0.113 7.11 8 11.85
3/30/2021 3:45:00 AM 5.67 42.206 0.114 7.11 8.29 11.86
3/30/2021 4:00:00 AM 5.61 42.098 0.114 7.08 8.03 11.88
3/30/2021 4:15:00 AM 5.55 41.99 0.114 7.1 8.07 11.9
3/30/2021 4:30:00 AM 5.49 41.882 0.114 7.04 7.94 11.91
3/30/2021 4:45:00 AM 5.43 41.774 0.114 7.07 7.85 11.93
3/30/2021 5:00:00 AM 5.37 41.666 0.114 7.06 8.22 11.95
3/30/2021 5:15:00 AM 5.31 41.558 0.114 7.05 7.99 11.97
3/30/2021 5:30:00 AM 5.25 41.45 0.114 7.05 8.11 11.99
3/30/2021 5:45:00 AM 5.19 41.342 0.115 7.04 7.92 12.01
3/30/2021 6:00:00 AM 5.14 41.252 0.115 7.04 8.45 12.03
3/30/2021 6:15:00 AM 5.08 41.144 0.115 7.05 7.85 12.06
3/30/2021 6:30:00 AM 5.02 41.036 0.115 7.02 7.59 12.08
3/30/2021 6:45:00 AM 4.96 40.928 0.115 7.03 7.63 12.1
3/30/2021 7:00:00 AM 4.91 40.838 0.115 7.04 7.75 12.13
3/30/2021 7:15:00 AM 4.86 40.748 0.115 7.04 7.88 12.18
3/30/2021 7:30:00 AM 4.82 40.676 0.115 7.05 7.57 12.22
3/30/2021 7:45:00 AM 4.79 40.622 0.115 7.06 7.54 12.29
3/30/2021 8:00:00 AM 4.78 40.604 0.115 7.08 7.33 12.36
3/30/2021 8:15:00 AM 4.78 40.604 0.115 7.09 7.43 12.43
3/30/2021 8:30:00 AM 4.81 40.658 0.115 7.1 7.58 12.49
3/30/2021 8:45:00 AM 4.85 40.73 0.115 7.12 7.47 12.53
3/30/2021 9:00:00 AM 4.91 40.838 0.115 7.14 7.53 12.57
3/30/2021 9:15:00 AM 5 41 0.115 7.17 7.82 12.59
3/30/2021 9:30:00 AM 5.11 41.198 0.115 7.17 7.64 12.6
3/30/2021 9:45:00 AM 5.25 41.45 0.115 7.19 7.34 12.6
3/30/2021 10:00:00 AM 5.4 41.72 0.115 7.21 7.17 12.59
3/30/2021 10:15:00 AM 5.58 42.044 0.115 7.24 7.33 12.59
3/30/2021 10:30:00 AM 5.76 42.368 0.115 7.25 7.17 12.57
3/30/2021 10:45:00 AM 5.96 42.728 0.115 7.27 7.43 12.54
3/30/2021 11:00:00 AM 6.16 43.088 0.115 7.29 7.2 12.5
3/30/2021 11:15:00 AM 6.39 43.502 0.114 7.29 7.8 12.48
3/30/2021 11:30:00 AM 6.64 43.952 0.114 7.31 7.63 12.42
3/30/2021 11:45:00 AM 6.89 44.402 0.114 7.33 7.12 12.36
3/30/2021 12:00:00 PM 7.17 44.906 0.114 7.34 7.04 12.31
3/30/2021 12:15:00 PM 7.47 45.446 0.114 7.35 7.2 12.22
3/30/2021 12:30:00 PM 7.77 45.986 0.114 7.36 6.8 12.17
3/30/2021 12:45:00 PM 8.07 46.526 0.114 7.37 6.82 12.08
3/30/2021 1:00:00 PM 8.37 47.066 0.114 7.38 7.08 11.99
3/30/2021 1:15:00 PM 8.66 47.588 0.114 7.4 6.68 11.93
3/30/2021 1:30:00 PM 8.94 48.092 0.114 7.36 6.75 11.85
3/30/2021 1:45:00 PM 9.22 48.596 0.114 7.4 7.03 11.78
3/30/2021 2:00:00 PM 9.48 49.064 0.114 7.42 7.71 11.71
3/30/2021 2:15:00 PM 9.72 49.496 0.114 7.41 6.8 11.64
3/30/2021 2:30:00 PM 9.95 49.91 0.114 7.43 7.07 11.56
3/30/2021 2:45:00 PM 10.15 50.27 0.114 7.43 6.94 11.51
3/30/2021 3:00:00 PM 10.33 50.594 0.114 7.4 6.84 11.45
3/30/2021 3:15:00 PM 10.49 50.882 0.114 7.45 7.36 11.41
3/30/2021 3:30:00 PM 10.62 51.116 0.113 7.46 8.37 11.37
3/30/2021 3:45:00 PM 10.7 51.26 0.114 7.41 8.45 11.33
3/30/2021 4:00:00 PM 10.76 51.368 0.114 7.44 8.73 11.29
3/30/2021 4:15:00 PM 10.81 51.458 0.113 7.45 9.07 11.26
3/30/2021 4:30:00 PM 10.81 51.458 0.114 7.45 17.77 11.24
3/30/2021 4:45:00 PM 10.75 51.35 0.114 7.4 43.26 11.13
3/30/2021 5:00:00 PM 10.68 51.224 0.114 7.38 77.51 11.02
3/30/2021 5:15:00 PM 10.58 51.044 0.114 7.37 81.95 10.97
3/30/2021 5:30:00 PM 10.47 50.846 0.114 7.35 76.99 11
3/30/2021 5:45:00 PM 10.39 50.702 0.114 7.37 53.45 11.04
3/30/2021 6:00:00 PM 10.31 50.558 0.114 7.37 33.92 11.07
3/30/2021 6:15:00 PM 10.22 50.396 0.114 7.38 32.78 11.09
3/30/2021 6:30:00 PM 10.11 50.198 0.114 7.33 17.54 11.09
3/30/2021 6:45:00 PM 9.99 49.982 0.114 7.35 14.36 11.05
3/30/2021 7:00:00 PM 9.87 49.766 0.114 7.33 12.88 11.01
3/30/2021 7:15:00 PM 9.76 49.568 0.114 7.33 11.13 10.97
3/30/2021 7:30:00 PM 9.64 49.352 0.114 7.31 10.43 10.94
3/30/2021 7:45:00 PM 9.54 49.172 0.115 7.29 10.21 10.89
3/30/2021 8:00:00 PM 9.43 48.974 0.115 7.25 9.31 10.85
3/30/2021 8:15:00 PM 9.34 48.812 0.115 7.26 9.2 10.84
3/30/2021 8:30:00 PM 9.25 48.65 0.115 7.23 8.56 10.84
3/30/2021 8:45:00 PM 9.17 48.506 0.115 7.21 8.59 10.83
3/30/2021 9:00:00 PM 9.09 48.362 0.115 7.23 7.99 10.84
3/30/2021 9:15:00 PM 9.01 48.218 0.115 7.18 8.3 10.83
3/30/2021 9:30:00 PM 8.94 48.092 0.115 7.2 8.23 10.85
3/30/2021 9:45:00 PM 8.87 47.966 0.115 7.22 7.66 10.86
3/30/2021 10:00:00 PM 8.81 47.858 0.115 7.17 7.92 10.87
3/30/2021 10:15:00 PM 8.75 47.75 0.115 7.19 7.87 10.88
3/30/2021 10:30:00 PM 8.69 47.642 0.115 7.21 7.78 10.89
3/30/2021 10:45:00 PM 8.64 47.552 0.115 7.18 7.63 10.91
3/30/2021 11:00:00 PM 8.59 47.462 0.115 7.18 7.82 10.91
3/30/2021 11:15:00 PM 8.54 47.372 0.115 7.19 7.86 10.92
3/30/2021 11:30:00 PM 8.5 47.3 0.116 7.18 7.94 10.93
3/30/2021 11:45:00 PM 8.45 47.21 0.116 7.2 7.6 10.95
3/31/2021 12:00:00 AM 8.4 47.12 0.116 7.15 7.72 10.96
3/31/2021 12:15:00 AM 8.36 47.048 0.116 7.17 7.68 10.98
3/31/2021 12:30:00 AM 8.31 46.958 0.116 7.17 7.61 10.99
3/31/2021 12:45:00 AM 8.27 46.886 0.116 7.17 7.93 10.99
3/31/2021 1:00:00 AM 8.22 46.796 0.116 7.19 7.74 10.99
3/31/2021 1:15:00 AM 8.18 46.724 0.116 7.18 7.48 11
3/31/2021 1:30:00 AM 8.14 46.652 0.116 7.13 7.88 11.01
3/31/2021 1:45:00 AM 8.1 46.58 0.117 7.17 7.79 11.02
3/31/2021 2:00:00 AM 8.06 46.508 0.117 7.18 7.37 11.02
3/31/2021 2:15:00 AM 8.03 46.454 0.117 7.15 7.68 11.03
3/31/2021 2:30:00 AM 7.99 46.382 0.117 7.16 7.91 11.04
3/31/2021 2:45:00 AM 7.96 46.328 0.117 7.18 7.31 11.06
3/31/2021 3:00:00 AM 7.93 46.274 0.117 7.17 7.36 11.07
3/31/2021 3:15:00 AM 7.91 46.238 0.117 7.15 7.75 11.07
3/31/2021 3:30:00 AM 7.88 46.184 0.117 7.16 7.52 11.08
3/31/2021 3:45:00 AM 7.85 46.13 0.117 7.17 7.31 11.09
3/31/2021 4:00:00 AM 7.83 46.094 0.117 7.16 7.69 11.09
3/31/2021 4:15:00 AM 7.8 46.04 0.117 7.16 7.02 11.1
3/31/2021 4:30:00 AM 7.77 45.986 0.117 7.18 7.53 11.1
3/31/2021 4:45:00 AM 7.75 45.95 0.117 7.14 7.27 11.1
3/31/2021 5:00:00 AM 7.72 45.896 0.118 7.18 7.42 11.11
3/31/2021 5:15:00 AM 7.7 45.86 0.118 7.15 7.34 11.11
3/31/2021 5:30:00 AM 7.67 45.806 0.118 7.17 7.26 11.11
3/31/2021 5:45:00 AM 7.65 45.77 0.118 7.18 7.2 11.12
3/31/2021 6:00:00 AM 7.63 45.734 0.118 7.16 6.89 11.12
3/31/2021 6:15:00 AM 7.61 45.698 0.118 7.15 8 11.13
3/31/2021 6:30:00 AM 7.59 45.662 0.118 7.17 6.92 11.14
3/31/2021 6:45:00 AM 7.57 45.626 0.118 7.16 7.09 11.14
3/31/2021 7:00:00 AM 7.56 45.608 0.118 7.18 7.61 11.15
3/31/2021 7:15:00 AM 7.54 45.572 0.118 7.14 7.19 11.17
3/31/2021 7:30:00 AM 7.54 45.572 0.118 7.17 6.95 11.2
3/31/2021 7:45:00 AM 7.53 45.554 0.118 7.2 7.04 11.25
3/31/2021 8:00:00 AM 7.54 45.572 0.118 7.21 7.11 11.31
3/31/2021 8:15:00 AM 7.56 45.608 0.118 7.17 6.9 11.38
3/31/2021 8:30:00 AM 7.59 45.662 0.118 7.24 6.93 11.45
3/31/2021 8:45:00 AM 7.62 45.716 0.118 7.25 6.49 11.51
3/31/2021 9:00:00 AM 7.66 45.788 0.118 7.23 6.93 11.58
3/31/2021 9:15:00 AM 7.71 45.878 0.118 7.28 6.34 11.62
3/31/2021 9:30:00 AM 7.75 45.95 0.118 7.26 6.71 11.65
3/31/2021 9:45:00 AM 7.79 46.022 0.118 7.31 6.38 11.67
3/31/2021 10:00:00 AM 7.84 46.112 0.118 7.3 6.77 11.69
3/31/2021 10:15:00 AM 7.89 46.202 0.118 7.3 6.36 11.71
3/31/2021 10:30:00 AM 7.93 46.274 0.118 7.32 7 11.72
3/31/2021 10:45:00 AM 7.97 46.346 0.118 7.33 6.96 11.7
3/31/2021 11:00:00 AM 8 46.4 0.118 7.32 6.24 11.7
3/31/2021 11:15:00 AM 8.04 46.472 0.118 7.35 6.52 11.7
3/31/2021 11:30:00 AM 8.09 46.562 0.118 7.3 6.55 11.7
3/31/2021 11:45:00 AM 8.11 46.598 0.118 7.35 6.55 11.68
3/31/2021 12:00:00 PM 8.13 46.634 0.118 7.33 7 11.64
3/31/2021 12:15:00 PM 8.15 46.67 0.118 7.35 8.28 11.6
3/31/2021 12:30:00 PM 8.16 46.688 0.118 7.3 13.66 11.55
3/31/2021 12:45:00 PM 8.18 46.724 0.118 7.33 19.8 11.5
3/31/2021 1:00:00 PM 8.23 46.814 0.118 7.27 28.39 11.5
3/31/2021 1:15:00 PM 8.26 46.868 0.118 7.31 29.44 11.49
3/31/2021 1:30:00 PM 8.29 46.922 0.118 7.3 39.95 11.45
3/31/2021 1:45:00 PM 8.31 46.958 0.118 7.28 58.88 11.39
3/31/2021 2:00:00 PM 8.33 46.994 0.118 7.3 71.27 11.39
3/31/2021 2:15:00 PM 8.35 47.03 0.118 7.28 38.88 11.42
3/31/2021 2:30:00 PM 8.42 47.156 0.118 7.31 25.95 11.49
3/31/2021 2:45:00 PM 8.43 47.174 0.117 7.32 19.53 11.5
3/31/2021 3:00:00 PM 8.46 47.228 0.117 7.33 14.4 11.49
3/31/2021 3:15:00 PM 8.47 47.246 0.117 7.31 11.75 11.46
3/31/2021 3:30:00 PM 8.47 47.246 0.118 7.32 10.37 11.43
3/31/2021 3:45:00 PM 8.48 47.264 0.118 7.33 9.19 11.41
3/31/2021 4:00:00 PM 8.48 47.264 0.118 7.31 8.49 11.4
3/31/2021 4:15:00 PM 8.48 47.264 0.118 7.3 8.29 11.38
3/31/2021 4:30:00 PM 8.48 47.264 0.118 7.31 8.28 11.35
3/31/2021 4:45:00 PM 8.47 47.246 0.118 7.3 7.79 11.31
3/31/2021 5:00:00 PM 8.47 47.246 0.118 7.27 7.77 11.27
3/31/2021 5:15:00 PM 8.46 47.228 0.118 7.29 7.55 11.25
3/31/2021 5:30:00 PM 8.46 47.228 0.118 7.24 7.14 11.24
3/31/2021 5:45:00 PM 8.45 47.21 0.118 7.28 7.19 11.23
3/31/2021 6:00:00 PM 8.45 47.21 0.118 7.24 7.26 11.21
3/31/2021 6:15:00 PM 8.44 47.192 0.118 7.25 7.16 11.18
3/31/2021 6:30:00 PM 8.42 47.156 0.117 7.26 7.25 11.15
3/31/2021 6:45:00 PM 8.38 47.084 0.117 7.25 7.07 11.13
3/31/2021 7:00:00 PM 8.34 47.012 0.117 7.22 6.63 11.11
3/31/2021 7:15:00 PM 8.3 46.94 0.117 7.23 7.25 11.09
3/31/2021 7:30:00 PM 8.26 46.868 0.117 7.22 7.06 11.07
3/31/2021 7:45:00 PM 8.22 46.796 0.117 7.23 7.27 11.05
3/31/2021 8:00:00 PM 8.18 46.724 0.118 7.2 7.27 11.04
3/31/2021 8:15:00 PM 8.14 46.652 0.118 7.2 7.13 11.04
3/31/2021 8:30:00 PM 8.1 46.58 0.118 7.2 7.18 11.04
3/31/2021 8:45:00 PM 8.07 46.526 0.118 7.21 7.09 11.04
3/31/2021 9:00:00 PM 8.03 46.454 0.118 7.2 7.4 11.05
3/31/2021 9:15:00 PM 8 46.4 0.118 7.2 7.26 11.06
3/31/2021 9:30:00 PM 7.97 46.346 0.118 7.19 7.51 11.07
3/31/2021 9:45:00 PM 7.93 46.274 0.118 7.19 7.84 11.08
3/31/2021 10:00:00 PM 7.9 46.22 0.118 7.19 7.39 11.08
3/31/2021 10:15:00 PM 7.86 46.148 0.118 7.19 7.34 11.09
3/31/2021 10:30:00 PM 7.82 46.076 0.118 7.19 7.26 11.09
3/31/2021 10:45:00 PM 7.79 46.022 0.118 7.18 7.81 11.1
3/31/2021 11:00:00 PM 7.75 45.95 0.118 7.2 7.04 11.1
3/31/2021 11:15:00 PM 7.72 45.896 0.118 7.2 6.92 11.11
3/31/2021 11:30:00 PM 7.69 45.842 0.118 7.15 7.29 11.12
3/31/2021 11:45:00 PM 7.67 45.806 0.118 7.2 7.18 11.13
4/1/2021 12:00:00 AM 7.64 45.752 0.118 7.17 7.49 11.14
4/1/2021 12:15:00 AM 7.6 45.68 0.118 7.18 7.38 11.14
4/1/2021 12:30:00 AM 7.57 45.626 0.118 7.19 7.27 11.16
4/1/2021 12:45:00 AM 7.54 45.572 0.118 7.19 7.31 11.17
4/1/2021 1:00:00 AM 7.51 45.518 0.117 7.18 7.79 11.18
4/1/2021 1:15:00 AM 7.48 45.464 0.117 7.19 7.58 11.19
4/1/2021 1:30:00 AM 7.45 45.41 0.117 7.16 7.73 11.2
4/1/2021 1:45:00 AM 7.41 45.338 0.117 7.18 7.94 11.22
4/1/2021 2:00:00 AM 7.37 45.266 0.117 7.18 7.7 11.22
4/1/2021 2:15:00 AM 7.34 45.212 0.117 7.2 7.88 11.24
4/1/2021 2:30:00 AM 7.3 45.14 0.117 7.18 7.98 11.24
4/1/2021 2:45:00 AM 7.23 45.014 0.117 7.19 7.82 11.25
4/1/2021 3:00:00 AM 7.16 44.888 0.117 7.2 7.93 11.26
4/1/2021 3:15:00 AM 7.04 44.672 0.117 7.15 7.52 11.28
4/1/2021 3:30:00 AM 6.9 44.42 0.117 7.18 7.5 11.31
4/1/2021 3:45:00 AM 6.79 44.222 0.117 7.18 7.73 11.34
4/1/2021 4:00:00 AM 6.68 44.024 0.117 7.2 7.74 11.35
4/1/2021 4:15:00 AM 6.59 43.862 0.117 7.19 8 11.37
4/1/2021 4:30:00 AM 6.52 43.736 0.117 7.2 7.45 11.4
4/1/2021 4:45:00 AM 6.47 43.646 0.117 7.17 7.2 11.43
4/1/2021 5:00:00 AM 6.42 43.556 0.117 7.17 7.33 11.45
4/1/2021 5:15:00 AM 6.35 43.43 0.117 7.19 7.72 11.47
4/1/2021 5:30:00 AM 6.29 43.322 0.117 7.19 7.59 11.5
4/1/2021 5:45:00 AM 6.14 43.052 0.117 7.17 7.76 11.53
4/1/2021 6:00:00 AM 6.01 42.818 0.116 7.17 7.32 11.56
4/1/2021 6:15:00 AM 5.92 42.656 0.116 7.17 7.45 11.58
4/1/2021 6:30:00 AM 5.82 42.476 0.116 7.19 8.04 11.61
4/1/2021 6:45:00 AM 5.77 42.386 0.116 7.19 8.37 11.64
4/1/2021 7:00:00 AM 5.75 42.35 0.116 7.13 7.88 11.67
4/1/2021 7:15:00 AM 5.73 42.314 0.116 7.17 7.47 11.7
4/1/2021 7:30:00 AM 5.73 42.314 0.116 7.18 7.78 11.74
4/1/2021 7:45:00 AM 5.74 42.332 0.116 7.19 7.66 11.8
4/1/2021 8:00:00 AM 5.75 42.35 0.116 7.22 7.51 11.88
4/1/2021 8:15:00 AM 5.75 42.35 0.116 7.21 7.94 11.95
4/1/2021 8:30:00 AM 5.75 42.35 0.116 7.22 7.93 12.04
4/1/2021 8:45:00 AM 5.76 42.368 0.116 7.26 7.76 12.11
4/1/2021 9:00:00 AM 5.77 42.386 0.116 7.26 7.91 12.19
4/1/2021 9:15:00 AM 5.78 42.404 0.116 7.28 7.93 12.25
4/1/2021 9:30:00 AM 5.82 42.476 0.116 7.31 8.35 12.3
4/1/2021 9:45:00 AM 5.91 42.638 0.116 7.31 7.89 12.33
4/1/2021 10:00:00 AM 5.97 42.746 0.115 7.31 7.93 12.34
4/1/2021 10:15:00 AM 6.01 42.818 0.115 7.34 8.07 12.36
4/1/2021 10:30:00 AM 6.14 43.052 0.115 7.34 7.85 12.36
4/1/2021 10:45:00 AM 6.34 43.412 0.115 7.35 7.93 12.36
4/1/2021 11:00:00 AM 6.58 43.844 0.115 7.36 7.88 12.35
4/1/2021 11:15:00 AM 6.74 44.132 0.115 7.37 7.92 12.31
4/1/2021 11:30:00 AM 6.82 44.276 0.115 7.38 8.1 12.29
4/1/2021 11:45:00 AM 6.8 44.24 0.115 7.4 7.93 12.27
4/1/2021 12:00:00 PM 6.92 44.456 0.115 7.36 7.5 12.29
4/1/2021 12:15:00 PM 7.08 44.744 0.115 7.4 8.12 12.28
4/1/2021 12:30:00 PM 7.2 44.96 0.115 7.41 8.25 12.23
4/1/2021 12:45:00 PM 7.34 45.212 0.115 7.4 7.63 12.19
4/1/2021 1:00:00 PM 7.51 45.518 0.115 7.43 7.37 12.16
4/1/2021 1:15:00 PM 7.69 45.842 0.115 7.39 7.75 12.12
4/1/2021 1:30:00 PM 7.82 46.076 0.115 7.42 7.65 12.06
4/1/2021 1:45:00 PM 7.89 46.202 0.115 7.44 7.8 12.02
4/1/2021 2:00:00 PM 7.92 46.256 0.116 7.45 7.8 11.99
4/1/2021 2:15:00 PM 7.91 46.238 0.116 7.42 7.76 11.98
4/1/2021 2:30:00 PM 7.85 46.13 0.116 7.45 7.77 11.99
4/1/2021 2:45:00 PM 7.92 46.256 0.116 7.44 7.5 12
4/1/2021 3:00:00 PM 7.89 46.202 0.116 7.44 7.45 11.98
4/1/2021 3:15:00 PM 7.91 46.238 0.116 7.45 7.5 11.97
4/1/2021 3:30:00 PM 7.95 46.31 0.116 7.44 7.61 11.94
4/1/2021 3:45:00 PM 7.92 46.256 0.116 7.44 7.73 11.94
4/1/2021 4:00:00 PM 7.92 46.256 0.116 7.45 7.66 11.91
4/1/2021 4:15:00 PM 7.91 46.238 0.116 7.43 7.61 11.88
4/1/2021 4:30:00 PM 7.71 45.878 0.116 7.42 7.8 11.85
4/1/2021 4:45:00 PM 7.69 45.842 0.116 7.42 8.02 11.87
4/1/2021 5:00:00 PM 7.6 45.68 0.116 7.42 8.36 11.89
4/1/2021 5:15:00 PM 7.52 45.536 0.116 7.43 8.29 11.92
4/1/2021 5:30:00 PM 7.46 45.428 0.116 7.38 8.41 11.94
4/1/2021 5:45:00 PM 7.35 45.23 0.116 7.42 8.42 11.92
4/1/2021 6:00:00 PM 7.3 45.14 0.116 7.37 8.16 11.92
4/1/2021 6:15:00 PM 7.19 44.942 0.116 7.38 8.57 11.89
4/1/2021 6:30:00 PM 7.09 44.762 0.116 7.37 8.76 11.89
4/1/2021 6:45:00 PM 6.97 44.546 0.116 7.35 9 11.88
4/1/2021 7:00:00 PM 6.83 44.294 0.116 7.34 9.27 11.86
4/1/2021 7:15:00 PM 6.72 44.096 0.116 7.32 9.21 11.84
4/1/2021 7:30:00 PM 6.61 43.898 0.116 7.32 8.81 11.82
4/1/2021 7:45:00 PM 6.49 43.682 0.116 7.29 9.02 11.81
4/1/2021 8:00:00 PM 6.38 43.484 0.116 7.24 9.84 11.77
4/1/2021 8:15:00 PM 6.29 43.322 0.116 7.25 9.63 11.75
4/1/2021 8:30:00 PM 6.18 43.124 0.116 7.23 9.38 11.76
4/1/2021 8:45:00 PM 6.09 42.962 0.116 7.24 9.11 11.77
4/1/2021 9:00:00 PM 6 42.8 0.116 7.19 8.74 11.79
4/1/2021 9:15:00 PM 5.87 42.566 0.116 7.21 9.35 11.81
4/1/2021 9:30:00 PM 5.79 42.422 0.116 7.21 9.38 11.83
4/1/2021 9:45:00 PM 5.73 42.314 0.116 7.2 9.41 11.85
4/1/2021 10:00:00 PM 5.64 42.152 0.116 7.21 9.14 11.87
4/1/2021 10:15:00 PM 5.56 42.008 0.116 7.21 8.91 11.89
4/1/2021 10:30:00 PM 5.49 41.882 0.116 7.15 8.98 11.91
4/1/2021 10:45:00 PM 5.41 41.738 0.116 7.18 9 11.93
4/1/2021 11:00:00 PM 5.35 41.63 0.116 7.18 8.79 11.95
4/1/2021 11:15:00 PM 5.25 41.45 0.116 7.16 9.03 11.99
4/1/2021 11:30:00 PM 5.17 41.306 0.116 7.16 9.18 12.01
4/1/2021 11:45:00 PM 5.1 41.18 0.116 7.15 9.45 12.04
4/2/2021 12:00:00 AM 5.04 41.072 0.116 7.15 9.03 12.06
4/2/2021 12:15:00 AM 4.99 40.982 0.116 7.14 9.02 12.08
4/2/2021 12:30:00 AM 4.91 40.838 0.116 7.14 10.07 12.11
4/2/2021 12:45:00 AM 4.83 40.694 0.116 7.13 9.11 12.14
4/2/2021 1:00:00 AM 4.73 40.514 0.116 7.15 8.43 12.17
4/2/2021 1:15:00 AM 4.65 40.37 0.116 7.1 9.32 12.2
4/2/2021 1:30:00 AM 4.57 40.226 0.116 7.13 8.32 12.23
4/2/2021 1:45:00 AM 4.46 40.028 0.116 7.08 8.87 12.27
4/2/2021 2:00:00 AM 4.36 39.848 0.116 7.11 8.38 12.3
4/2/2021 2:15:00 AM 4.27 39.686 0.116 7.09 8.32 12.33
4/2/2021 2:30:00 AM 4.19 39.542 0.117 7.1 8.42 12.36
4/2/2021 2:45:00 AM 4.1 39.38 0.117 7.1 8.46 12.39
4/2/2021 3:00:00 AM 4.02 39.236 0.117 7.08 8.09 12.41
4/2/2021 3:15:00 AM 3.96 39.128 0.117 7.08 8.15 12.44
4/2/2021 3:30:00 AM 3.9 39.02 0.117 7.07 8.04 12.46
4/2/2021 3:45:00 AM 3.85 38.93 0.117 7.07 8.68 12.48
4/2/2021 4:00:00 AM 3.82 38.876 0.117 7.06 7.81 12.49
4/2/2021 4:15:00 AM 3.77 38.786 0.117 7.06 7.89 12.51
4/2/2021 4:30:00 AM 3.73 38.714 0.117 7.06 7.46 12.52
4/2/2021 4:45:00 AM 3.7 38.66 0.117 7.02 7.69 12.54
4/2/2021 5:00:00 AM 3.66 38.588 0.117 7.04 7.45 12.55
4/2/2021 5:15:00 AM 3.63 38.534 0.117 7.03 7.75 12.56
4/2/2021 5:30:00 AM 3.6 38.48 0.117 7.04 7.49 12.58
4/2/2021 5:45:00 AM 3.56 38.408 0.117 7 7.43 12.59
4/2/2021 6:00:00 AM 3.53 38.354 0.117 7.04 7.75 12.6
4/2/2021 6:15:00 AM 3.5 38.3 0.117 7.02 7.72 12.62
4/2/2021 6:30:00 AM 3.47 38.246 0.117 7.05 7.59 12.63
4/2/2021 6:45:00 AM 3.43 38.174 0.117 7.01 7.67 12.65
4/2/2021 7:00:00 AM 3.4 38.12 0.117 7.04 7.37 12.68
4/2/2021 7:15:00 AM 3.36 38.048 0.117 7.05 7.35 12.72
4/2/2021 7:30:00 AM 3.34 38.012 0.117 7.07 7.25 12.79
4/2/2021 7:45:00 AM 3.32 37.976 0.117 7.09 7.26 12.87
4/2/2021 8:00:00 AM 3.3 37.94 0.118 7.11 7.33 12.95
4/2/2021 8:15:00 AM 3.3 37.94 0.117 7.13 7.65 13.04
4/2/2021 8:30:00 AM 3.3 37.94 0.117 7.17 7.21 13.12
4/2/2021 8:45:00 AM 3.31 37.958 0.118 7.15 7.26 13.17
4/2/2021 9:00:00 AM 3.34 38.012 0.118 7.19 7.04 13.2
4/2/2021 9:15:00 AM 3.35 38.03 0.118 7.19 7.09 13.24
4/2/2021 9:30:00 AM 3.42 38.156 0.118 7.21 6.91 13.27
4/2/2021 9:45:00 AM 3.54 38.372 0.118 7.23 7.18 13.28
4/2/2021 10:00:00 AM 3.71 38.678 0.118 7.24 6.96 13.29
4/2/2021 10:15:00 AM 3.84 38.912 0.118 7.26 7.31 13.29
4/2/2021 10:30:00 AM 4 39.2 0.118 7.28 6.97 13.28
4/2/2021 10:45:00 AM 4.16 39.488 0.118 7.3 6.88 13.25
4/2/2021 11:00:00 AM 4.25 39.65 0.118 7.3 6.99 13.23
4/2/2021 11:15:00 AM 4.33 39.794 0.118 7.32 6.63 13.21
4/2/2021 11:30:00 AM 4.45 40.01 0.118 7.34 6.81 13.19
4/2/2021 11:45:00 AM 4.63 40.334 0.118 7.34 6.46 13.16
4/2/2021 12:00:00 PM 4.9 40.82 0.118 7.35 6.87 13.11
4/2/2021 12:15:00 PM 5.17 41.306 0.118 7.38 6.48 13.05
4/2/2021 12:30:00 PM 5.45 41.81 0.118 7.39 6.54 12.96
4/2/2021 12:45:00 PM 5.71 42.278 0.118 7.38 6.24 12.89
4/2/2021 1:00:00 PM 5.98 42.764 0.118 7.42 6.57 12.83
4/2/2021 1:15:00 PM 6.23 43.214 0.118 7.43 6.4 12.74
4/2/2021 1:30:00 PM 6.47 43.646 0.118 7.44 6.54 12.68
4/2/2021 1:45:00 PM 6.7 44.06 0.118 7.46 6.32 12.61
4/2/2021 2:00:00 PM 6.92 44.456 0.118 7.47 6.26 12.54
4/2/2021 2:15:00 PM 7.11 44.798 0.118 7.47 6.54 12.49
4/2/2021 2:30:00 PM 7.28 45.104 0.118 7.48 6.57 12.43
4/2/2021 2:45:00 PM 7.43 45.374 0.118 7.48 6.92 12.37
4/2/2021 3:00:00 PM 7.57 45.626 0.118 7.48 6.49 12.33
4/2/2021 3:15:00 PM 7.68 45.824 0.118 7.49 6.6 12.29
4/2/2021 3:30:00 PM 7.76 45.968 0.118 7.49 6.93 12.26
4/2/2021 3:45:00 PM 7.81 46.058 0.118 7.49 6.66 12.24
4/2/2021 4:00:00 PM 7.83 46.094 0.118 7.49 6.78 12.21
4/2/2021 4:15:00 PM 7.79 46.022 0.118 7.48 6.21 12.19
4/2/2021 4:30:00 PM 7.74 45.932 0.118 7.48 6.52 12.18
4/2/2021 4:45:00 PM 7.65 45.77 0.118 7.47 6.33 12.17
4/2/2021 5:00:00 PM 7.59 45.662 0.118 7.47 6.19 12.16
4/2/2021 5:15:00 PM 7.5 45.5 0.118 7.47 6.5 12.16
4/2/2021 5:30:00 PM 7.38 45.284 0.118 7.46 6.4 12.18
4/2/2021 5:45:00 PM 7.25 45.05 0.118 7.45 6.5 12.18
4/2/2021 6:00:00 PM 7.09 44.762 0.118 7.45 7.26 12.18
4/2/2021 6:15:00 PM 6.91 44.438 0.118 7.43 6.83 12.18
4/2/2021 6:30:00 PM 6.73 44.114 0.119 7.42 6.78 12.19
4/2/2021 6:45:00 PM 6.56 43.808 0.119 7.4 6.94 12.17
4/2/2021 7:00:00 PM 6.38 43.484 0.119 7.38 6.68 12.15
4/2/2021 7:15:00 PM 6.22 43.196 0.119 7.36 6.77 12.15
4/2/2021 7:30:00 PM 6.06 42.908 0.119 7.34 6.9 12.11
4/2/2021 7:45:00 PM 5.92 42.656 0.119 7.32 6.74 12.07
4/2/2021 8:00:00 PM 5.78 42.404 0.119 7.3 6.87 12.05
4/2/2021 8:15:00 PM 5.66 42.188 0.119 7.28 6.44 12.04
4/2/2021 8:30:00 PM 5.56 42.008 0.119 7.26 6.52 12.04
4/2/2021 8:45:00 PM 5.45 41.81 0.12 7.25 6.47 12.03
4/2/2021 9:00:00 PM 5.35 41.63 0.12 7.23 6.65 12.04
4/2/2021 9:15:00 PM 5.26 41.468 0.12 7.23 6.55 12.05
4/2/2021 9:30:00 PM 5.16 41.288 0.12 7.22 6.55 12.07
4/2/2021 9:45:00 PM 5.08 41.144 0.12 7.21 6.46 12.09
4/2/2021 10:00:00 PM 5 41 0.12 7.21 6.35 12.11
4/2/2021 10:15:00 PM 4.91 40.838 0.12 7.2 6.36 12.14
4/2/2021 10:30:00 PM 4.83 40.694 0.12 7.2 6.57 12.16
4/2/2021 10:45:00 PM 4.76 40.568 0.12 7.19 6.19 12.18
4/2/2021 11:00:00 PM 4.69 40.442 0.12 7.19 6.26 12.2
4/2/2021 11:15:00 PM 4.62 40.316 0.12 7.19 6.18 12.21
4/2/2021 11:30:00 PM 4.56 40.208 0.12 7.19 6.33 12.23
4/2/2021 11:45:00 PM 4.49 40.082 0.12 7.18 6.2 12.25
4/3/2021 12:00:00 AM 4.42 39.956 0.12 7.18 6.33 12.27
4/3/2021 12:15:00 AM 4.35 39.83 0.12 7.18 6.2 12.29
4/3/2021 12:30:00 AM 4.28 39.704 0.12 7.18 6.22 12.31
4/3/2021 12:45:00 AM 4.22 39.596 0.12 7.17 6.21 12.33
4/3/2021 1:00:00 AM 4.15 39.47 0.121 7.17 6.29 12.36
4/3/2021 1:15:00 AM 4.08 39.344 0.121 7.17 6.73 12.38
4/3/2021 1:30:00 AM 4.01 39.218 0.121 7.17 6.12 12.41
4/3/2021 1:45:00 AM 3.94 39.092 0.121 7.17 6.68 12.43
4/3/2021 2:00:00 AM 3.88 38.984 0.121 7.16 6.32 12.45
4/3/2021 2:15:00 AM 3.81 38.858 0.121 7.16 6.49 12.48
4/3/2021 2:30:00 AM 3.75 38.75 0.121 7.16 6.3 12.5
4/3/2021 2:45:00 AM 3.68 38.624 0.121 7.15 6.08 12.52
4/3/2021 3:00:00 AM 3.63 38.534 0.121 7.15 6.12 12.54
4/3/2021 3:15:00 AM 3.56 38.408 0.121 7.15 6.52 12.57
4/3/2021 3:30:00 AM 3.51 38.318 0.121 7.14 6.25 12.59
4/3/2021 3:45:00 AM 3.46 38.228 0.121 7.13 6.06 12.61
4/3/2021 4:00:00 AM 3.4 38.12 0.121 7.13 5.94 12.63
4/3/2021 4:15:00 AM 3.34 38.012 0.121 7.12 5.99 12.65
4/3/2021 4:30:00 AM 3.28 37.904 0.121 7.11 6.02 12.67
4/3/2021 4:45:00 AM 3.23 37.814 0.121 7.11 5.99 12.7
4/3/2021 5:00:00 AM 3.18 37.724 0.122 7.1 6.09 12.72
4/3/2021 5:15:00 AM 3.13 37.634 0.122 7.1 6.24 12.73
4/3/2021 5:30:00 AM 3.08 37.544 0.122 7.09 6.06 12.76
4/3/2021 5:45:00 AM 3.03 37.454 0.122 7.09 6.11 12.78
4/3/2021 6:00:00 AM 2.98 37.364 0.122 7.09 5.79 12.8
4/3/2021 6:15:00 AM 2.93 37.274 0.122 7.09 6.04 12.83
4/3/2021 6:30:00 AM 2.87 37.166 0.122 7.08 5.99 12.85
4/3/2021 6:45:00 AM 2.82 37.076 0.122 7.08 5.86 12.87
4/3/2021 7:00:00 AM 2.78 37.004 0.122 7.07 6.07 12.91
4/3/2021 7:15:00 AM 2.74 36.932 0.122 7.08 6.43 12.96
4/3/2021 7:30:00 AM 2.71 36.878 0.122 7.09 6.37 13.03
4/3/2021 7:45:00 AM 2.69 36.842 0.122 7.1 6.24 13.11
4/3/2021 8:00:00 AM 2.69 36.842 0.122 7.12 5.86 13.21
4/3/2021 8:15:00 AM 2.71 36.878 0.122 7.14 5.91 13.29
4/3/2021 8:30:00 AM 2.75 36.95 0.122 7.16 5.77 13.36
4/3/2021 8:45:00 AM 2.81 37.058 0.122 7.18 5.82 13.41
4/3/2021 9:00:00 AM 2.89 37.202 0.122 7.19 5.77 13.45
4/3/2021 9:15:00 AM 2.99 37.382 0.122 7.21 5.78 13.48
4/3/2021 9:30:00 AM 3.11 37.598 0.122 7.23 5.74 13.5
4/3/2021 9:45:00 AM 3.24 37.832 0.122 7.24 5.78 13.52
4/3/2021 10:00:00 AM 3.4 38.12 0.122 7.26 5.66 13.51
4/3/2021 10:15:00 AM 3.58 38.444 0.122 7.27 5.75 13.49
4/3/2021 10:30:00 AM 3.76 38.768 0.122 7.29 5.59 13.47
4/3/2021 10:45:00 AM 3.99 39.182 0.122 7.31 5.55 13.42
4/3/2021 11:00:00 AM 4.19 39.542 0.122 7.32 5.71 13.38
4/3/2021 11:15:00 AM 4.42 39.956 0.122 7.35 5.49 13.35
4/3/2021 11:30:00 AM 4.65 40.37 0.122 7.36 5.62 13.3
4/3/2021 11:45:00 AM 4.9 40.82 0.122 7.37 5.53 13.25
4/3/2021 12:00:00 PM 5.16 41.288 0.121 7.39 5.51 13.18
4/3/2021 12:15:00 PM 5.42 41.756 0.121 7.4 5.55 13.11
4/3/2021 12:30:00 PM 5.69 42.242 0.121 7.4 5.19 13.04
4/3/2021 12:45:00 PM 5.97 42.746 0.121 7.41 5.26 12.96
4/3/2021 1:00:00 PM 6.23 43.214 0.121 7.42 5.4 12.89
4/3/2021 1:15:00 PM 6.49 43.682 0.121 7.43 5.54 12.82
4/3/2021 1:30:00 PM 6.78 44.204 0.121 7.44 5.75 12.73
4/3/2021 1:45:00 PM 7.06 44.708 0.121 7.44 5.34 12.65
4/3/2021 2:00:00 PM 7.32 45.176 0.121 7.46 5.36 12.57
4/3/2021 2:15:00 PM 7.56 45.608 0.121 7.42 6.7 12.5
4/3/2021 2:30:00 PM 7.79 46.022 0.121 7.46 6.64 12.41
4/3/2021 2:45:00 PM 8.01 46.418 0.121 7.48 6.38 12.34
4/3/2021 3:00:00 PM 8.17 46.706 0.121 7.48 6.41 12.29
4/3/2021 3:15:00 PM 8.25 46.85 0.121 7.47 6.1 12.24
4/3/2021 3:30:00 PM 8.28 46.904 0.121 7.47 6.39 12.2
4/3/2021 3:45:00 PM 8.29 46.922 0.121 7.48 6.76 12.16
4/3/2021 4:00:00 PM 8.3 46.94 0.121 7.48 7.3 12.15
4/3/2021 4:15:00 PM 8.21 46.778 0.121 7.48 7.25 12.14
4/3/2021 4:30:00 PM 8.13 46.634 0.121 7.48 7.27 12.13
4/3/2021 4:45:00 PM 8.06 46.508 0.121 7.48 6.82 12.14
4/3/2021 5:00:00 PM 7.98 46.364 0.121 7.47 6.27 12.13
4/3/2021 5:15:00 PM 7.85 46.13 0.121 7.48 6.09 12.12
4/3/2021 5:30:00 PM 7.76 45.968 0.121 7.47 6.21 12.12
4/3/2021 5:45:00 PM 7.7 45.86 0.121 7.47 5.87 12.13
4/3/2021 6:00:00 PM 7.65 45.77 0.121 7.46 5.73 12.14
4/3/2021 6:15:00 PM 7.58 45.644 0.121 7.46 6.23 12.14
4/3/2021 6:30:00 PM 7.5 45.5 0.121 7.46 6.39 12.14
4/3/2021 6:45:00 PM 7.4 45.32 0.121 7.45 6.36 12.12
4/3/2021 7:00:00 PM 7.29 45.122 0.121 7.42 6.56 12.08
4/3/2021 7:15:00 PM 7.15 44.87 0.121 7.4 6.68 12.02
4/3/2021 7:30:00 PM 7.02 44.636 0.121 7.37 6.69 11.94
4/3/2021 7:45:00 PM 6.9 44.42 0.122 7.34 6.81 11.87
4/3/2021 8:00:00 PM 6.78 44.204 0.122 7.31 6.89 11.81
4/3/2021 8:15:00 PM 6.67 44.006 0.122 7.29 6.83 11.76
4/3/2021 8:30:00 PM 6.57 43.826 0.122 7.27 7.17 11.73
4/3/2021 8:45:00 PM 6.49 43.682 0.122 7.25 7.16 11.71
4/3/2021 9:00:00 PM 6.42 43.556 0.122 7.25 6.97 11.68
4/3/2021 9:15:00 PM 6.37 43.466 0.122 7.24 6.78 11.68
4/3/2021 9:30:00 PM 6.32 43.376 0.122 7.23 6.65 11.68
4/3/2021 9:45:00 PM 6.28 43.304 0.122 7.22 6.77 11.69
4/3/2021 10:00:00 PM 6.25 43.25 0.122 7.22 6.61 11.69
4/3/2021 10:15:00 PM 6.21 43.178 0.122 7.22 6.45 11.7
4/3/2021 10:30:00 PM 6.19 43.142 0.122 7.22 6.61 11.71
4/3/2021 10:45:00 PM 6.16 43.088 0.122 7.21 6.52 11.72
4/3/2021 11:00:00 PM 6.13 43.034 0.122 7.21 6.02 11.72
4/3/2021 11:15:00 PM 6.11 42.998 0.122 7.21 6.28 11.74
4/3/2021 11:30:00 PM 6.09 42.962 0.122 7.21 6.07 11.73
4/3/2021 11:45:00 PM 6.06 42.908 0.122 7.2 5.99 11.73
4/4/2021 12:00:00 AM 6.04 42.872 0.122 7.2 6.12 11.72
4/4/2021 12:15:00 AM 6.02 42.836 0.122 7.2 6.23 11.73
4/4/2021 12:30:00 AM 5.99 42.782 0.122 7.2 6.15 11.74
4/4/2021 12:45:00 AM 5.96 42.728 0.122 7.19 6.19 11.74
4/4/2021 1:00:00 AM 5.93 42.674 0.122 7.19 6.5 11.75
4/4/2021 1:15:00 AM 5.91 42.638 0.122 7.19 6.05 11.75
4/4/2021 1:30:00 AM 5.88 42.584